<?xml version="1.0" encoding="UTF-8" standalone="no" ?>
<gpx xmlns="http://www.topografix.com/GPX/1/1" xmlns:xsi="http://www.w3.org/2001/XMLSchema-instance" xsi:schemaLocation="http://www.topografix.com/GPX/1/1 http://www.topografix.com/GPX/1/1/gpx.xsd" version="1.1" creator="VisuGPX - https://www.visugpx.com">
  <metadata>
    <name>Montregard 23km</name>
    <desc><![CDATA[au départ de la Ferme Vovary]]></desc>
  </metadata>
  <trk>
    <name><![CDATA[Le Marin - Chateau de Marc ouc - Château Montivert]]></name>
    <extensions>
      <line xmlns="http://www.topografix.com/GPX/gpx_style/0/2">
        <color>ff0026</color>
        <width>4</width>
      </line>
    </extensions>
    <trkseg>
      <trkpt lat="45.15166" lon="4.31706">
        <ele>916.27</ele>
        <time>2023-07-08T08:20:03Z</time>
      </trkpt>
      <trkpt lat="45.15157" lon="4.31706">
        <ele>908.58</ele>
        <time>2023-07-08T08:20:21Z</time>
      </trkpt>
      <trkpt lat="45.15157" lon="4.31706">
        <ele>909.54</ele>
        <time>2023-07-08T08:20:40Z</time>
      </trkpt>
      <trkpt lat="45.15157" lon="4.31705">
        <ele>907.14</ele>
        <time>2023-07-08T08:21:00Z</time>
      </trkpt>
      <trkpt lat="45.15156" lon="4.31698">
        <ele>903.78</ele>
        <time>2023-07-08T08:21:28Z</time>
      </trkpt>
      <trkpt lat="45.15153" lon="4.31699">
        <ele>903.78</ele>
        <time>2023-07-08T08:21:58Z</time>
      </trkpt>
      <trkpt lat="45.15154" lon="4.31698">
        <ele>905.22</ele>
        <time>2023-07-08T08:22:17Z</time>
      </trkpt>
      <trkpt lat="45.15155" lon="4.317">
        <ele>907.14</ele>
        <time>2023-07-08T08:22:49Z</time>
      </trkpt>
      <trkpt lat="45.15154" lon="4.31699">
        <ele>911.47</ele>
        <time>2023-07-08T08:23:21Z</time>
      </trkpt>
      <trkpt lat="45.15155" lon="4.31698">
        <ele>913.39</ele>
        <time>2023-07-08T08:24:03Z</time>
      </trkpt>
      <trkpt lat="45.15154" lon="4.31702">
        <ele>914.35</ele>
        <time>2023-07-08T08:24:28Z</time>
      </trkpt>
      <trkpt lat="45.15156" lon="4.317">
        <ele>911.95</ele>
        <time>2023-07-08T08:24:58Z</time>
      </trkpt>
      <trkpt lat="45.15153" lon="4.31701">
        <ele>909.06</ele>
        <time>2023-07-08T08:25:27Z</time>
      </trkpt>
      <trkpt lat="45.15155" lon="4.31701">
        <ele>910.03</ele>
        <time>2023-07-08T08:25:57Z</time>
      </trkpt>
      <trkpt lat="45.15154" lon="4.317">
        <ele>911.47</ele>
        <time>2023-07-08T08:26:24Z</time>
      </trkpt>
      <trkpt lat="45.15157" lon="4.31715">
        <ele>907.14</ele>
        <time>2023-07-08T08:26:37Z</time>
      </trkpt>
      <trkpt lat="45.15156" lon="4.31748">
        <ele>904.74</ele>
        <time>2023-07-08T08:26:57Z</time>
      </trkpt>
      <trkpt lat="45.15156" lon="4.31755">
        <ele>904.74</ele>
        <time>2023-07-08T08:27:02Z</time>
      </trkpt>
      <trkpt lat="45.15157" lon="4.31759">
        <ele>904.26</ele>
        <time>2023-07-08T08:27:05Z</time>
      </trkpt>
      <trkpt lat="45.15161" lon="4.31783">
        <ele>907.14</ele>
        <time>2023-07-08T08:27:21Z</time>
      </trkpt>
      <trkpt lat="45.15161" lon="4.31784">
        <ele>907.14</ele>
        <time>2023-07-08T08:27:22Z</time>
      </trkpt>
      <trkpt lat="45.15166" lon="4.31781">
        <ele>907.62</ele>
        <time>2023-07-08T08:27:27Z</time>
      </trkpt>
      <trkpt lat="45.15186" lon="4.31759">
        <ele>907.62</ele>
        <time>2023-07-08T08:27:46Z</time>
      </trkpt>
      <trkpt lat="45.15214" lon="4.31735">
        <ele>907.62</ele>
        <time>2023-07-08T08:28:06Z</time>
      </trkpt>
      <trkpt lat="45.1524" lon="4.3171">
        <ele>907.62</ele>
        <time>2023-07-08T08:28:26Z</time>
      </trkpt>
      <trkpt lat="45.15264" lon="4.31698">
        <ele>907.14</ele>
        <time>2023-07-08T08:28:44Z</time>
      </trkpt>
      <trkpt lat="45.15276" lon="4.31696">
        <ele>908.58</ele>
        <time>2023-07-08T08:28:58Z</time>
      </trkpt>
      <trkpt lat="45.15276" lon="4.31695">
        <ele>910.03</ele>
        <time>2023-07-08T08:29:20Z</time>
      </trkpt>
      <trkpt lat="45.15291" lon="4.31694">
        <ele>909.54</ele>
        <time>2023-07-08T08:29:41Z</time>
      </trkpt>
      <trkpt lat="45.15321" lon="4.31682">
        <ele>910.51</ele>
        <time>2023-07-08T08:30:03Z</time>
      </trkpt>
      <trkpt lat="45.1535" lon="4.31662">
        <ele>911.47</ele>
        <time>2023-07-08T08:30:24Z</time>
      </trkpt>
      <trkpt lat="45.15369" lon="4.31628">
        <ele>913.39</ele>
        <time>2023-07-08T08:30:44Z</time>
      </trkpt>
      <trkpt lat="45.15378" lon="4.31612">
        <ele>913.39</ele>
        <time>2023-07-08T08:30:54Z</time>
      </trkpt>
      <trkpt lat="45.15393" lon="4.3159">
        <ele>914.35</ele>
        <time>2023-07-08T08:31:09Z</time>
      </trkpt>
      <trkpt lat="45.15415" lon="4.31565">
        <ele>914.35</ele>
        <time>2023-07-08T08:31:29Z</time>
      </trkpt>
      <trkpt lat="45.15437" lon="4.31553">
        <ele>914.35</ele>
        <time>2023-07-08T08:31:46Z</time>
      </trkpt>
      <trkpt lat="45.15461" lon="4.31548">
        <ele>915.79</ele>
        <time>2023-07-08T08:32:04Z</time>
      </trkpt>
      <trkpt lat="45.15489" lon="4.31545">
        <ele>920.6</ele>
        <time>2023-07-08T08:32:24Z</time>
      </trkpt>
      <trkpt lat="45.15493" lon="4.31548">
        <ele>923.48</ele>
        <time>2023-07-08T08:32:40Z</time>
      </trkpt>
      <trkpt lat="45.15494" lon="4.31548">
        <ele>925.89</ele>
        <time>2023-07-08T08:33:05Z</time>
      </trkpt>
      <trkpt lat="45.15495" lon="4.31548">
        <ele>925.89</ele>
        <time>2023-07-08T08:33:26Z</time>
      </trkpt>
      <trkpt lat="45.15493" lon="4.31542">
        <ele>924.93</ele>
        <time>2023-07-08T08:33:40Z</time>
      </trkpt>
      <trkpt lat="45.15511" lon="4.31542">
        <ele>927.81</ele>
        <time>2023-07-08T08:33:53Z</time>
      </trkpt>
      <trkpt lat="45.15538" lon="4.31543">
        <ele>930.69</ele>
        <time>2023-07-08T08:34:13Z</time>
      </trkpt>
      <trkpt lat="45.15559" lon="4.31545">
        <ele>933.1</ele>
        <time>2023-07-08T08:34:29Z</time>
      </trkpt>
      <trkpt lat="45.15577" lon="4.31546">
        <ele>934.54</ele>
        <time>2023-07-08T08:34:43Z</time>
      </trkpt>
      <trkpt lat="45.15588" lon="4.3157">
        <ele>936.46</ele>
        <time>2023-07-08T08:34:58Z</time>
      </trkpt>
      <trkpt lat="45.15606" lon="4.31595">
        <ele>935.5</ele>
        <time>2023-07-08T08:35:15Z</time>
      </trkpt>
      <trkpt lat="45.15627" lon="4.31626">
        <ele>938.38</ele>
        <time>2023-07-08T08:35:35Z</time>
      </trkpt>
      <trkpt lat="45.15627" lon="4.31652">
        <ele>939.83</ele>
        <time>2023-07-08T08:35:50Z</time>
      </trkpt>
      <trkpt lat="45.1561" lon="4.31676">
        <ele>939.35</ele>
        <time>2023-07-08T08:36:04Z</time>
      </trkpt>
      <trkpt lat="45.15613" lon="4.31694">
        <ele>940.31</ele>
        <time>2023-07-08T08:36:13Z</time>
      </trkpt>
      <trkpt lat="45.15619" lon="4.31714">
        <ele>940.31</ele>
        <time>2023-07-08T08:36:25Z</time>
      </trkpt>
      <trkpt lat="45.15632" lon="4.31754">
        <ele>939.83</ele>
        <time>2023-07-08T08:36:44Z</time>
      </trkpt>
      <trkpt lat="45.15636" lon="4.31764">
        <ele>940.31</ele>
        <time>2023-07-08T08:36:49Z</time>
      </trkpt>
      <trkpt lat="45.15637" lon="4.31778">
        <ele>938.86</ele>
        <time>2023-07-08T08:37:00Z</time>
      </trkpt>
      <trkpt lat="45.15642" lon="4.31812">
        <ele>936.46</ele>
        <time>2023-07-08T08:37:16Z</time>
      </trkpt>
      <trkpt lat="45.15648" lon="4.31852">
        <ele>935.5</ele>
        <time>2023-07-08T08:37:35Z</time>
      </trkpt>
      <trkpt lat="45.15657" lon="4.31888">
        <ele>936.46</ele>
        <time>2023-07-08T08:37:53Z</time>
      </trkpt>
      <trkpt lat="45.15664" lon="4.31931">
        <ele>937.42</ele>
        <time>2023-07-08T08:38:14Z</time>
      </trkpt>
      <trkpt lat="45.15672" lon="4.31974">
        <ele>938.86</ele>
        <time>2023-07-08T08:38:34Z</time>
      </trkpt>
      <trkpt lat="45.15682" lon="4.32015">
        <ele>940.31</ele>
        <time>2023-07-08T08:38:54Z</time>
      </trkpt>
      <trkpt lat="45.15694" lon="4.32056">
        <ele>941.27</ele>
        <time>2023-07-08T08:39:14Z</time>
      </trkpt>
      <trkpt lat="45.15702" lon="4.321">
        <ele>942.71</ele>
        <time>2023-07-08T08:39:36Z</time>
      </trkpt>
      <trkpt lat="45.1571" lon="4.32139">
        <ele>943.19</ele>
        <time>2023-07-08T08:39:53Z</time>
      </trkpt>
      <trkpt lat="45.15719" lon="4.32189">
        <ele>943.19</ele>
        <time>2023-07-08T08:40:18Z</time>
      </trkpt>
      <trkpt lat="45.15725" lon="4.32222">
        <ele>944.15</ele>
        <time>2023-07-08T08:40:35Z</time>
      </trkpt>
      <trkpt lat="45.15733" lon="4.32264">
        <ele>945.59</ele>
        <time>2023-07-08T08:40:55Z</time>
      </trkpt>
      <trkpt lat="45.15737" lon="4.32298">
        <ele>948.48</ele>
        <time>2023-07-08T08:41:13Z</time>
      </trkpt>
      <trkpt lat="45.15742" lon="4.32317">
        <ele>951.36</ele>
        <time>2023-07-08T08:41:27Z</time>
      </trkpt>
      <trkpt lat="45.15749" lon="4.32337">
        <ele>953.77</ele>
        <time>2023-07-08T08:41:39Z</time>
      </trkpt>
      <trkpt lat="45.15764" lon="4.32374">
        <ele>953.77</ele>
        <time>2023-07-08T08:41:57Z</time>
      </trkpt>
      <trkpt lat="45.15762" lon="4.3242">
        <ele>956.65</ele>
        <time>2023-07-08T08:42:13Z</time>
      </trkpt>
      <trkpt lat="45.15767" lon="4.32458">
        <ele>953.77</ele>
        <time>2023-07-08T08:42:30Z</time>
      </trkpt>
      <trkpt lat="45.15774" lon="4.3249">
        <ele>949.44</ele>
        <time>2023-07-08T08:42:48Z</time>
      </trkpt>
      <trkpt lat="45.15782" lon="4.32515">
        <ele>947.52</ele>
        <time>2023-07-08T08:43:03Z</time>
      </trkpt>
      <trkpt lat="45.15793" lon="4.3255">
        <ele>948.48</ele>
        <time>2023-07-08T08:43:19Z</time>
      </trkpt>
      <trkpt lat="45.15809" lon="4.32584">
        <ele>952.32</ele>
        <time>2023-07-08T08:43:38Z</time>
      </trkpt>
      <trkpt lat="45.15817" lon="4.32601">
        <ele>953.77</ele>
        <time>2023-07-08T08:43:50Z</time>
      </trkpt>
      <trkpt lat="45.15828" lon="4.3264">
        <ele>958.57</ele>
        <time>2023-07-08T08:44:07Z</time>
      </trkpt>
      <trkpt lat="45.15832" lon="4.32667">
        <ele>960.01</ele>
        <time>2023-07-08T08:44:22Z</time>
      </trkpt>
      <trkpt lat="45.15838" lon="4.32699">
        <ele>960.98</ele>
        <time>2023-07-08T08:44:40Z</time>
      </trkpt>
      <trkpt lat="45.15844" lon="4.3273">
        <ele>961.46</ele>
        <time>2023-07-08T08:44:57Z</time>
      </trkpt>
      <trkpt lat="45.15845" lon="4.32765">
        <ele>963.86</ele>
        <time>2023-07-08T08:45:15Z</time>
      </trkpt>
      <trkpt lat="45.15846" lon="4.32792">
        <ele>964.82</ele>
        <time>2023-07-08T08:45:30Z</time>
      </trkpt>
      <trkpt lat="45.15849" lon="4.32823">
        <ele>963.86</ele>
        <time>2023-07-08T08:45:47Z</time>
      </trkpt>
      <trkpt lat="45.15843" lon="4.32852">
        <ele>967.7</ele>
        <time>2023-07-08T08:46:01Z</time>
      </trkpt>
      <trkpt lat="45.15835" lon="4.32894">
        <ele>971.07</ele>
        <time>2023-07-08T08:46:21Z</time>
      </trkpt>
      <trkpt lat="45.15833" lon="4.32936">
        <ele>970.59</ele>
        <time>2023-07-08T08:46:42Z</time>
      </trkpt>
      <trkpt lat="45.15839" lon="4.32978">
        <ele>970.11</ele>
        <time>2023-07-08T08:47:02Z</time>
      </trkpt>
      <trkpt lat="45.15844" lon="4.33012">
        <ele>971.07</ele>
        <time>2023-07-08T08:47:19Z</time>
      </trkpt>
      <trkpt lat="45.15853" lon="4.33047">
        <ele>972.03</ele>
        <time>2023-07-08T08:47:36Z</time>
      </trkpt>
      <trkpt lat="45.15871" lon="4.33074">
        <ele>971.07</ele>
        <time>2023-07-08T08:47:54Z</time>
      </trkpt>
      <trkpt lat="45.15889" lon="4.33099">
        <ele>969.15</ele>
        <time>2023-07-08T08:48:10Z</time>
      </trkpt>
      <trkpt lat="45.15895" lon="4.33108">
        <ele>967.7</ele>
        <time>2023-07-08T08:48:16Z</time>
      </trkpt>
      <trkpt lat="45.15905" lon="4.33142">
        <ele>966.74</ele>
        <time>2023-07-08T08:48:32Z</time>
      </trkpt>
      <trkpt lat="45.15924" lon="4.33167">
        <ele>964.34</ele>
        <time>2023-07-08T08:48:49Z</time>
      </trkpt>
      <trkpt lat="45.15944" lon="4.33199">
        <ele>963.38</ele>
        <time>2023-07-08T08:49:08Z</time>
      </trkpt>
      <trkpt lat="45.15963" lon="4.33229">
        <ele>963.86</ele>
        <time>2023-07-08T08:49:25Z</time>
      </trkpt>
      <trkpt lat="45.15969" lon="4.3326">
        <ele>962.9</ele>
        <time>2023-07-08T08:49:40Z</time>
      </trkpt>
      <trkpt lat="45.15979" lon="4.33291">
        <ele>967.7</ele>
        <time>2023-07-08T08:49:57Z</time>
      </trkpt>
      <trkpt lat="45.15991" lon="4.33314">
        <ele>970.59</ele>
        <time>2023-07-08T08:50:12Z</time>
      </trkpt>
      <trkpt lat="45.16005" lon="4.33341">
        <ele>971.07</ele>
        <time>2023-07-08T08:50:30Z</time>
      </trkpt>
      <trkpt lat="45.16019" lon="4.33366">
        <ele>972.51</ele>
        <time>2023-07-08T08:50:47Z</time>
      </trkpt>
      <trkpt lat="45.16039" lon="4.3339">
        <ele>975.39</ele>
        <time>2023-07-08T08:51:06Z</time>
      </trkpt>
      <trkpt lat="45.16065" lon="4.33407">
        <ele>975.39</ele>
        <time>2023-07-08T08:51:25Z</time>
      </trkpt>
      <trkpt lat="45.16094" lon="4.33422">
        <ele>974.91</ele>
        <time>2023-07-08T08:51:44Z</time>
      </trkpt>
      <trkpt lat="45.16116" lon="4.33442">
        <ele>976.36</ele>
        <time>2023-07-08T08:52:02Z</time>
      </trkpt>
      <trkpt lat="45.16133" lon="4.33475">
        <ele>976.84</ele>
        <time>2023-07-08T08:52:21Z</time>
      </trkpt>
      <trkpt lat="45.16145" lon="4.33516">
        <ele>980.2</ele>
        <time>2023-07-08T08:52:43Z</time>
      </trkpt>
      <trkpt lat="45.16162" lon="4.33552">
        <ele>979.24</ele>
        <time>2023-07-08T08:53:00Z</time>
      </trkpt>
      <trkpt lat="45.16173" lon="4.33576">
        <ele>982.12</ele>
        <time>2023-07-08T08:53:16Z</time>
      </trkpt>
      <trkpt lat="45.16184" lon="4.33609">
        <ele>984.05</ele>
        <time>2023-07-08T08:53:35Z</time>
      </trkpt>
      <trkpt lat="45.16192" lon="4.33647">
        <ele>984.05</ele>
        <time>2023-07-08T08:53:52Z</time>
      </trkpt>
      <trkpt lat="45.16193" lon="4.33694">
        <ele>982.6</ele>
        <time>2023-07-08T08:54:12Z</time>
      </trkpt>
      <trkpt lat="45.16197" lon="4.33732">
        <ele>978.28</ele>
        <time>2023-07-08T08:54:26Z</time>
      </trkpt>
      <trkpt lat="45.16205" lon="4.33775">
        <ele>976.84</ele>
        <time>2023-07-08T08:54:44Z</time>
      </trkpt>
      <trkpt lat="45.16204" lon="4.33816">
        <ele>977.32</ele>
        <time>2023-07-08T08:54:59Z</time>
      </trkpt>
      <trkpt lat="45.16198" lon="4.33843">
        <ele>982.12</ele>
        <time>2023-07-08T08:55:13Z</time>
      </trkpt>
      <trkpt lat="45.16197" lon="4.33886">
        <ele>985.49</ele>
        <time>2023-07-08T08:55:34Z</time>
      </trkpt>
      <trkpt lat="45.16196" lon="4.3393">
        <ele>985.49</ele>
        <time>2023-07-08T08:55:53Z</time>
      </trkpt>
      <trkpt lat="45.16196" lon="4.33965">
        <ele>986.93</ele>
        <time>2023-07-08T08:56:08Z</time>
      </trkpt>
      <trkpt lat="45.16192" lon="4.34002">
        <ele>989.33</ele>
        <time>2023-07-08T08:56:24Z</time>
      </trkpt>
      <trkpt lat="45.16186" lon="4.34033">
        <ele>992.7</ele>
        <time>2023-07-08T08:56:39Z</time>
      </trkpt>
      <trkpt lat="45.16182" lon="4.3406">
        <ele>992.22</ele>
        <time>2023-07-08T08:56:53Z</time>
      </trkpt>
      <trkpt lat="45.16179" lon="4.34092">
        <ele>993.18</ele>
        <time>2023-07-08T08:57:09Z</time>
      </trkpt>
      <trkpt lat="45.16172" lon="4.34131">
        <ele>996.06</ele>
        <time>2023-07-08T08:57:27Z</time>
      </trkpt>
      <trkpt lat="45.16165" lon="4.34168">
        <ele>999.91</ele>
        <time>2023-07-08T08:57:45Z</time>
      </trkpt>
      <trkpt lat="45.16162" lon="4.34206">
        <ele>1001.35</ele>
        <time>2023-07-08T08:58:02Z</time>
      </trkpt>
      <trkpt lat="45.16162" lon="4.34247">
        <ele>1002.79</ele>
        <time>2023-07-08T08:58:19Z</time>
      </trkpt>
      <trkpt lat="45.16164" lon="4.3428">
        <ele>1006.16</ele>
        <time>2023-07-08T08:58:36Z</time>
      </trkpt>
      <trkpt lat="45.16161" lon="4.34313">
        <ele>1007.6</ele>
        <time>2023-07-08T08:58:51Z</time>
      </trkpt>
      <trkpt lat="45.16152" lon="4.34346">
        <ele>1007.6</ele>
        <time>2023-07-08T08:59:08Z</time>
      </trkpt>
      <trkpt lat="45.16139" lon="4.3438">
        <ele>1004.72</ele>
        <time>2023-07-08T08:59:27Z</time>
      </trkpt>
      <trkpt lat="45.16135" lon="4.34413">
        <ele>1003.27</ele>
        <time>2023-07-08T08:59:43Z</time>
      </trkpt>
      <trkpt lat="45.16134" lon="4.34457">
        <ele>1002.79</ele>
        <time>2023-07-08T09:00:04Z</time>
      </trkpt>
      <trkpt lat="45.16133" lon="4.34467">
        <ele>1001.35</ele>
        <time>2023-07-08T09:00:19Z</time>
      </trkpt>
      <trkpt lat="45.1613" lon="4.3447">
        <ele>1000.87</ele>
        <time>2023-07-08T09:00:33Z</time>
      </trkpt>
      <trkpt lat="45.16127" lon="4.3447">
        <ele>999.91</ele>
        <time>2023-07-08T09:00:47Z</time>
      </trkpt>
      <trkpt lat="45.16126" lon="4.34469">
        <ele>999.91</ele>
        <time>2023-07-08T09:00:48Z</time>
      </trkpt>
      <trkpt lat="45.16125" lon="4.34469">
        <ele>999.91</ele>
        <time>2023-07-08T09:00:49Z</time>
      </trkpt>
      <trkpt lat="45.16123" lon="4.34469">
        <ele>999.91</ele>
        <time>2023-07-08T09:00:50Z</time>
      </trkpt>
      <trkpt lat="45.16122" lon="4.34469">
        <ele>999.91</ele>
        <time>2023-07-08T09:00:51Z</time>
      </trkpt>
      <trkpt lat="45.1612" lon="4.3447">
        <ele>1000.39</ele>
        <time>2023-07-08T09:00:52Z</time>
      </trkpt>
      <trkpt lat="45.16116" lon="4.3447">
        <ele>1001.35</ele>
        <time>2023-07-08T09:01:01Z</time>
      </trkpt>
      <trkpt lat="45.16119" lon="4.34468">
        <ele>1001.83</ele>
        <time>2023-07-08T09:01:04Z</time>
      </trkpt>
      <trkpt lat="45.1612" lon="4.34468">
        <ele>1001.83</ele>
        <time>2023-07-08T09:01:05Z</time>
      </trkpt>
      <trkpt lat="45.16127" lon="4.34471">
        <ele>1000.39</ele>
        <time>2023-07-08T09:01:11Z</time>
      </trkpt>
      <trkpt lat="45.16128" lon="4.34474">
        <ele>1000.39</ele>
        <time>2023-07-08T09:01:12Z</time>
      </trkpt>
      <trkpt lat="45.16128" lon="4.34475">
        <ele>999.91</ele>
        <time>2023-07-08T09:01:13Z</time>
      </trkpt>
      <trkpt lat="45.16128" lon="4.34478">
        <ele>999.91</ele>
        <time>2023-07-08T09:01:14Z</time>
      </trkpt>
      <trkpt lat="45.16129" lon="4.3448">
        <ele>1000.39</ele>
        <time>2023-07-08T09:01:15Z</time>
      </trkpt>
      <trkpt lat="45.16133" lon="4.34512">
        <ele>1000.39</ele>
        <time>2023-07-08T09:01:30Z</time>
      </trkpt>
      <trkpt lat="45.16134" lon="4.34544">
        <ele>1001.83</ele>
        <time>2023-07-08T09:01:46Z</time>
      </trkpt>
      <trkpt lat="45.16136" lon="4.34568">
        <ele>1004.23</ele>
        <time>2023-07-08T09:02:00Z</time>
      </trkpt>
      <trkpt lat="45.16131" lon="4.34599">
        <ele>1002.79</ele>
        <time>2023-07-08T09:02:15Z</time>
      </trkpt>
      <trkpt lat="45.16114" lon="4.34637">
        <ele>1000.87</ele>
        <time>2023-07-08T09:02:32Z</time>
      </trkpt>
      <trkpt lat="45.161" lon="4.34666">
        <ele>1003.27</ele>
        <time>2023-07-08T09:02:48Z</time>
      </trkpt>
      <trkpt lat="45.16085" lon="4.34693">
        <ele>1005.68</ele>
        <time>2023-07-08T09:03:03Z</time>
      </trkpt>
      <trkpt lat="45.16069" lon="4.34714">
        <ele>1008.08</ele>
        <time>2023-07-08T09:03:17Z</time>
      </trkpt>
      <trkpt lat="45.16048" lon="4.34738">
        <ele>1010</ele>
        <time>2023-07-08T09:03:35Z</time>
      </trkpt>
      <trkpt lat="45.16038" lon="4.34762">
        <ele>1010</ele>
        <time>2023-07-08T09:03:50Z</time>
      </trkpt>
      <trkpt lat="45.16037" lon="4.34762">
        <ele>1010.48</ele>
        <time>2023-07-08T09:03:51Z</time>
      </trkpt>
      <trkpt lat="45.16036" lon="4.34762">
        <ele>1010</ele>
        <time>2023-07-08T09:03:52Z</time>
      </trkpt>
      <trkpt lat="45.16035" lon="4.3476">
        <ele>1010</ele>
        <time>2023-07-08T09:03:53Z</time>
      </trkpt>
      <trkpt lat="45.16035" lon="4.34759">
        <ele>1010</ele>
        <time>2023-07-08T09:03:54Z</time>
      </trkpt>
      <trkpt lat="45.16034" lon="4.34758">
        <ele>1010.48</ele>
        <time>2023-07-08T09:03:55Z</time>
      </trkpt>
      <trkpt lat="45.16015" lon="4.34746">
        <ele>1011.93</ele>
        <time>2023-07-08T09:04:10Z</time>
      </trkpt>
      <trkpt lat="45.16014" lon="4.34747">
        <ele>1012.41</ele>
        <time>2023-07-08T09:04:11Z</time>
      </trkpt>
      <trkpt lat="45.16013" lon="4.34747">
        <ele>1012.41</ele>
        <time>2023-07-08T09:04:12Z</time>
      </trkpt>
      <trkpt lat="45.15989" lon="4.34752">
        <ele>1012.41</ele>
        <time>2023-07-08T09:04:28Z</time>
      </trkpt>
      <trkpt lat="45.15968" lon="4.34766">
        <ele>1012.89</ele>
        <time>2023-07-08T09:04:42Z</time>
      </trkpt>
      <trkpt lat="45.15946" lon="4.34781">
        <ele>1013.37</ele>
        <time>2023-07-08T09:04:56Z</time>
      </trkpt>
      <trkpt lat="45.15933" lon="4.34813">
        <ele>1014.81</ele>
        <time>2023-07-08T09:05:12Z</time>
      </trkpt>
      <trkpt lat="45.15916" lon="4.34845">
        <ele>1015.29</ele>
        <time>2023-07-08T09:05:30Z</time>
      </trkpt>
      <trkpt lat="45.15898" lon="4.34874">
        <ele>1016.73</ele>
        <time>2023-07-08T09:05:47Z</time>
      </trkpt>
      <trkpt lat="45.15879" lon="4.34905">
        <ele>1017.21</ele>
        <time>2023-07-08T09:06:07Z</time>
      </trkpt>
      <trkpt lat="45.1586" lon="4.34944">
        <ele>1016.73</ele>
        <time>2023-07-08T09:06:29Z</time>
      </trkpt>
      <trkpt lat="45.15846" lon="4.34973">
        <ele>1018.17</ele>
        <time>2023-07-08T09:06:46Z</time>
      </trkpt>
      <trkpt lat="45.15835" lon="4.35002">
        <ele>1021.06</ele>
        <time>2023-07-08T09:07:02Z</time>
      </trkpt>
      <trkpt lat="45.15824" lon="4.35035">
        <ele>1024.9</ele>
        <time>2023-07-08T09:07:21Z</time>
      </trkpt>
      <trkpt lat="45.15817" lon="4.35071">
        <ele>1026.83</ele>
        <time>2023-07-08T09:07:39Z</time>
      </trkpt>
      <trkpt lat="45.15812" lon="4.35108">
        <ele>1028.75</ele>
        <time>2023-07-08T09:07:58Z</time>
      </trkpt>
      <trkpt lat="45.15806" lon="4.3514">
        <ele>1028.75</ele>
        <time>2023-07-08T09:08:15Z</time>
      </trkpt>
      <trkpt lat="45.15797" lon="4.35173">
        <ele>1029.23</ele>
        <time>2023-07-08T09:08:32Z</time>
      </trkpt>
      <trkpt lat="45.15794" lon="4.3521">
        <ele>1030.19</ele>
        <time>2023-07-08T09:08:51Z</time>
      </trkpt>
      <trkpt lat="45.15783" lon="4.35242">
        <ele>1028.75</ele>
        <time>2023-07-08T09:09:09Z</time>
      </trkpt>
      <trkpt lat="45.15773" lon="4.35269">
        <ele>1025.86</ele>
        <time>2023-07-08T09:09:26Z</time>
      </trkpt>
      <trkpt lat="45.15773" lon="4.35271">
        <ele>1025.86</ele>
        <time>2023-07-08T09:09:27Z</time>
      </trkpt>
      <trkpt lat="45.15773" lon="4.35273">
        <ele>1025.86</ele>
        <time>2023-07-08T09:09:28Z</time>
      </trkpt>
      <trkpt lat="45.15773" lon="4.35275">
        <ele>1025.86</ele>
        <time>2023-07-08T09:09:29Z</time>
      </trkpt>
      <trkpt lat="45.15777" lon="4.35317">
        <ele>1024.9</ele>
        <time>2023-07-08T09:09:50Z</time>
      </trkpt>
      <trkpt lat="45.15782" lon="4.35351">
        <ele>1025.38</ele>
        <time>2023-07-08T09:10:07Z</time>
      </trkpt>
      <trkpt lat="45.1579" lon="4.35383">
        <ele>1027.31</ele>
        <time>2023-07-08T09:10:23Z</time>
      </trkpt>
      <trkpt lat="45.15796" lon="4.35428">
        <ele>1025.86</ele>
        <time>2023-07-08T09:10:45Z</time>
      </trkpt>
      <trkpt lat="45.15798" lon="4.35468">
        <ele>1025.38</ele>
        <time>2023-07-08T09:11:04Z</time>
      </trkpt>
      <trkpt lat="45.15797" lon="4.35505">
        <ele>1028.75</ele>
        <time>2023-07-08T09:11:22Z</time>
      </trkpt>
      <trkpt lat="45.15796" lon="4.35551">
        <ele>1030.19</ele>
        <time>2023-07-08T09:11:42Z</time>
      </trkpt>
      <trkpt lat="45.15794" lon="4.35586">
        <ele>1031.63</ele>
        <time>2023-07-08T09:11:59Z</time>
      </trkpt>
      <trkpt lat="45.15798" lon="4.35612">
        <ele>1034.04</ele>
        <time>2023-07-08T09:12:14Z</time>
      </trkpt>
      <trkpt lat="45.1579" lon="4.35642">
        <ele>1036.44</ele>
        <time>2023-07-08T09:12:31Z</time>
      </trkpt>
      <trkpt lat="45.15787" lon="4.35671">
        <ele>1040.76</ele>
        <time>2023-07-08T09:12:47Z</time>
      </trkpt>
      <trkpt lat="45.15784" lon="4.35691">
        <ele>1046.53</ele>
        <time>2023-07-08T09:12:57Z</time>
      </trkpt>
      <trkpt lat="45.15783" lon="4.35716">
        <ele>1051.82</ele>
        <time>2023-07-08T09:13:13Z</time>
      </trkpt>
      <trkpt lat="45.1578" lon="4.35745">
        <ele>1058.55</ele>
        <time>2023-07-08T09:13:30Z</time>
      </trkpt>
      <trkpt lat="45.15776" lon="4.3578">
        <ele>1064.8</ele>
        <time>2023-07-08T09:13:45Z</time>
      </trkpt>
      <trkpt lat="45.15781" lon="4.35805">
        <ele>1068.64</ele>
        <time>2023-07-08T09:13:59Z</time>
      </trkpt>
      <trkpt lat="45.15786" lon="4.35815">
        <ele>1070.57</ele>
        <time>2023-07-08T09:14:05Z</time>
      </trkpt>
      <trkpt lat="45.158" lon="4.35843">
        <ele>1067.2</ele>
        <time>2023-07-08T09:14:22Z</time>
      </trkpt>
      <trkpt lat="45.15813" lon="4.35863">
        <ele>1067.68</ele>
        <time>2023-07-08T09:14:36Z</time>
      </trkpt>
      <trkpt lat="45.15826" lon="4.35885">
        <ele>1065.28</ele>
        <time>2023-07-08T09:14:51Z</time>
      </trkpt>
      <trkpt lat="45.15839" lon="4.35911">
        <ele>1067.2</ele>
        <time>2023-07-08T09:15:05Z</time>
      </trkpt>
      <trkpt lat="45.15842" lon="4.35936">
        <ele>1069.12</ele>
        <time>2023-07-08T09:15:18Z</time>
      </trkpt>
      <trkpt lat="45.15848" lon="4.35969">
        <ele>1072.97</ele>
        <time>2023-07-08T09:15:34Z</time>
      </trkpt>
      <trkpt lat="45.15853" lon="4.36003">
        <ele>1074.89</ele>
        <time>2023-07-08T09:15:48Z</time>
      </trkpt>
      <trkpt lat="45.15864" lon="4.36041">
        <ele>1074.89</ele>
        <time>2023-07-08T09:16:04Z</time>
      </trkpt>
      <trkpt lat="45.15876" lon="4.36079">
        <ele>1072.97</ele>
        <time>2023-07-08T09:16:22Z</time>
      </trkpt>
      <trkpt lat="45.15889" lon="4.36111">
        <ele>1071.53</ele>
        <time>2023-07-08T09:16:39Z</time>
      </trkpt>
      <trkpt lat="45.15901" lon="4.36141">
        <ele>1073.45</ele>
        <time>2023-07-08T09:16:52Z</time>
      </trkpt>
      <trkpt lat="45.15909" lon="4.36173">
        <ele>1072.97</ele>
        <time>2023-07-08T09:17:07Z</time>
      </trkpt>
      <trkpt lat="45.1592" lon="4.36207">
        <ele>1071.05</ele>
        <time>2023-07-08T09:17:23Z</time>
      </trkpt>
      <trkpt lat="45.15928" lon="4.36238">
        <ele>1072.49</ele>
        <time>2023-07-08T09:17:39Z</time>
      </trkpt>
      <trkpt lat="45.15936" lon="4.36271">
        <ele>1075.37</ele>
        <time>2023-07-08T09:17:56Z</time>
      </trkpt>
      <trkpt lat="45.15952" lon="4.3631">
        <ele>1071.53</ele>
        <time>2023-07-08T09:18:14Z</time>
      </trkpt>
      <trkpt lat="45.15963" lon="4.3635">
        <ele>1075.85</ele>
        <time>2023-07-08T09:18:30Z</time>
      </trkpt>
      <trkpt lat="45.15963" lon="4.36356">
        <ele>1084.99</ele>
        <time>2023-07-08T09:18:41Z</time>
      </trkpt>
      <trkpt lat="45.15941" lon="4.36365">
        <ele>1091.23</ele>
        <time>2023-07-08T09:18:59Z</time>
      </trkpt>
      <trkpt lat="45.15928" lon="4.36363">
        <ele>1090.75</ele>
        <time>2023-07-08T09:19:09Z</time>
      </trkpt>
      <trkpt lat="45.1591" lon="4.36369">
        <ele>1090.27</ele>
        <time>2023-07-08T09:19:23Z</time>
      </trkpt>
      <trkpt lat="45.15886" lon="4.36381">
        <ele>1089.79</ele>
        <time>2023-07-08T09:19:39Z</time>
      </trkpt>
      <trkpt lat="45.15859" lon="4.3639">
        <ele>1087.39</ele>
        <time>2023-07-08T09:19:58Z</time>
      </trkpt>
      <trkpt lat="45.15836" lon="4.36396">
        <ele>1091.23</ele>
        <time>2023-07-08T09:20:13Z</time>
      </trkpt>
      <trkpt lat="45.15815" lon="4.36405">
        <ele>1095.56</ele>
        <time>2023-07-08T09:20:26Z</time>
      </trkpt>
      <trkpt lat="45.15795" lon="4.36427">
        <ele>1097.48</ele>
        <time>2023-07-08T09:20:41Z</time>
      </trkpt>
      <trkpt lat="45.15773" lon="4.36428">
        <ele>1099.89</ele>
        <time>2023-07-08T09:20:56Z</time>
      </trkpt>
      <trkpt lat="45.1575" lon="4.36433">
        <ele>1097.96</ele>
        <time>2023-07-08T09:21:12Z</time>
      </trkpt>
      <trkpt lat="45.15729" lon="4.36432">
        <ele>1092.2</ele>
        <time>2023-07-08T09:21:26Z</time>
      </trkpt>
      <trkpt lat="45.1571" lon="4.3644">
        <ele>1092.2</ele>
        <time>2023-07-08T09:21:40Z</time>
      </trkpt>
      <trkpt lat="45.15695" lon="4.36458">
        <ele>1091.23</ele>
        <time>2023-07-08T09:21:55Z</time>
      </trkpt>
      <trkpt lat="45.15675" lon="4.36473">
        <ele>1086.91</ele>
        <time>2023-07-08T09:22:13Z</time>
      </trkpt>
      <trkpt lat="45.15657" lon="4.36491">
        <ele>1083.54</ele>
        <time>2023-07-08T09:22:28Z</time>
      </trkpt>
      <trkpt lat="45.15642" lon="4.36496">
        <ele>1079.22</ele>
        <time>2023-07-08T09:22:37Z</time>
      </trkpt>
      <trkpt lat="45.15617" lon="4.36513">
        <ele>1076.33</ele>
        <time>2023-07-08T09:22:53Z</time>
      </trkpt>
      <trkpt lat="45.15596" lon="4.36523">
        <ele>1072.49</ele>
        <time>2023-07-08T09:23:07Z</time>
      </trkpt>
      <trkpt lat="45.15571" lon="4.36538">
        <ele>1065.76</ele>
        <time>2023-07-08T09:23:24Z</time>
      </trkpt>
      <trkpt lat="45.15552" lon="4.3654">
        <ele>1060.95</ele>
        <time>2023-07-08T09:23:38Z</time>
      </trkpt>
      <trkpt lat="45.15535" lon="4.36534">
        <ele>1059.03</ele>
        <time>2023-07-08T09:23:50Z</time>
      </trkpt>
      <trkpt lat="45.1552" lon="4.36519">
        <ele>1057.59</ele>
        <time>2023-07-08T09:24:04Z</time>
      </trkpt>
      <trkpt lat="45.15509" lon="4.36499">
        <ele>1055.18</ele>
        <time>2023-07-08T09:24:19Z</time>
      </trkpt>
      <trkpt lat="45.15502" lon="4.36486">
        <ele>1053.74</ele>
        <time>2023-07-08T09:24:28Z</time>
      </trkpt>
      <trkpt lat="45.15499" lon="4.36487">
        <ele>1053.26</ele>
        <time>2023-07-08T09:24:31Z</time>
      </trkpt>
      <trkpt lat="45.1548" lon="4.36496">
        <ele>1051.34</ele>
        <time>2023-07-08T09:24:47Z</time>
      </trkpt>
      <trkpt lat="45.15454" lon="4.36514">
        <ele>1047.01</ele>
        <time>2023-07-08T09:25:06Z</time>
      </trkpt>
      <trkpt lat="45.1544" lon="4.36528">
        <ele>1045.57</ele>
        <time>2023-07-08T09:25:18Z</time>
      </trkpt>
      <trkpt lat="45.15432" lon="4.36508">
        <ele>1045.09</ele>
        <time>2023-07-08T09:25:31Z</time>
      </trkpt>
      <trkpt lat="45.15423" lon="4.36465">
        <ele>1044.61</ele>
        <time>2023-07-08T09:25:51Z</time>
      </trkpt>
      <trkpt lat="45.15417" lon="4.36431">
        <ele>1044.61</ele>
        <time>2023-07-08T09:26:07Z</time>
      </trkpt>
      <trkpt lat="45.15414" lon="4.36386">
        <ele>1044.13</ele>
        <time>2023-07-08T09:26:27Z</time>
      </trkpt>
      <trkpt lat="45.15413" lon="4.36351">
        <ele>1043.17</ele>
        <time>2023-07-08T09:26:43Z</time>
      </trkpt>
      <trkpt lat="45.1541" lon="4.36311">
        <ele>1043.65</ele>
        <time>2023-07-08T09:27:00Z</time>
      </trkpt>
      <trkpt lat="45.15403" lon="4.36274">
        <ele>1044.13</ele>
        <time>2023-07-08T09:27:17Z</time>
      </trkpt>
      <trkpt lat="45.15392" lon="4.36243">
        <ele>1044.61</ele>
        <time>2023-07-08T09:27:34Z</time>
      </trkpt>
      <trkpt lat="45.15366" lon="4.36232">
        <ele>1044.61</ele>
        <time>2023-07-08T09:27:53Z</time>
      </trkpt>
      <trkpt lat="45.15331" lon="4.36217">
        <ele>1044.61</ele>
        <time>2023-07-08T09:28:14Z</time>
      </trkpt>
      <trkpt lat="45.15306" lon="4.36205">
        <ele>1046.05</ele>
        <time>2023-07-08T09:28:32Z</time>
      </trkpt>
      <trkpt lat="45.15278" lon="4.36197">
        <ele>1046.53</ele>
        <time>2023-07-08T09:28:50Z</time>
      </trkpt>
      <trkpt lat="45.15254" lon="4.36191">
        <ele>1047.49</ele>
        <time>2023-07-08T09:29:06Z</time>
      </trkpt>
      <trkpt lat="45.15226" lon="4.36183">
        <ele>1047.01</ele>
        <time>2023-07-08T09:29:25Z</time>
      </trkpt>
      <trkpt lat="45.15199" lon="4.36184">
        <ele>1049.42</ele>
        <time>2023-07-08T09:29:42Z</time>
      </trkpt>
      <trkpt lat="45.15176" lon="4.36193">
        <ele>1047.01</ele>
        <time>2023-07-08T09:29:59Z</time>
      </trkpt>
      <trkpt lat="45.1517" lon="4.36195">
        <ele>1046.53</ele>
        <time>2023-07-08T09:30:03Z</time>
      </trkpt>
      <trkpt lat="45.15147" lon="4.36203">
        <ele>1045.09</ele>
        <time>2023-07-08T09:30:17Z</time>
      </trkpt>
      <trkpt lat="45.15123" lon="4.36207">
        <ele>1042.69</ele>
        <time>2023-07-08T09:30:32Z</time>
      </trkpt>
      <trkpt lat="45.15094" lon="4.36212">
        <ele>1038.84</ele>
        <time>2023-07-08T09:30:50Z</time>
      </trkpt>
      <trkpt lat="45.15074" lon="4.36216">
        <ele>1039.32</ele>
        <time>2023-07-08T09:31:04Z</time>
      </trkpt>
      <trkpt lat="45.15049" lon="4.3622">
        <ele>1035.96</ele>
        <time>2023-07-08T09:31:19Z</time>
      </trkpt>
      <trkpt lat="45.15032" lon="4.36228">
        <ele>1033.07</ele>
        <time>2023-07-08T09:31:33Z</time>
      </trkpt>
      <trkpt lat="45.15017" lon="4.36233">
        <ele>1034.04</ele>
        <time>2023-07-08T09:31:46Z</time>
      </trkpt>
      <trkpt lat="45.15008" lon="4.3624">
        <ele>1034.52</ele>
        <time>2023-07-08T09:31:56Z</time>
      </trkpt>
      <trkpt lat="45.14985" lon="4.36259">
        <ele>1034.52</ele>
        <time>2023-07-08T09:32:12Z</time>
      </trkpt>
      <trkpt lat="45.14963" lon="4.3628">
        <ele>1031.63</ele>
        <time>2023-07-08T09:32:29Z</time>
      </trkpt>
      <trkpt lat="45.14942" lon="4.36286">
        <ele>1030.67</ele>
        <time>2023-07-08T09:32:43Z</time>
      </trkpt>
      <trkpt lat="45.14912" lon="4.36287">
        <ele>1030.19</ele>
        <time>2023-07-08T09:33:02Z</time>
      </trkpt>
      <trkpt lat="45.14877" lon="4.36287">
        <ele>1026.83</ele>
        <time>2023-07-08T09:33:24Z</time>
      </trkpt>
      <trkpt lat="45.14848" lon="4.36285">
        <ele>1025.38</ele>
        <time>2023-07-08T09:33:42Z</time>
      </trkpt>
      <trkpt lat="45.14818" lon="4.36282">
        <ele>1024.42</ele>
        <time>2023-07-08T09:34:02Z</time>
      </trkpt>
      <trkpt lat="45.14786" lon="4.36279">
        <ele>1023.94</ele>
        <time>2023-07-08T09:34:20Z</time>
      </trkpt>
      <trkpt lat="45.14763" lon="4.3628">
        <ele>1024.42</ele>
        <time>2023-07-08T09:34:32Z</time>
      </trkpt>
      <trkpt lat="45.14744" lon="4.36289">
        <ele>1023.46</ele>
        <time>2023-07-08T09:34:46Z</time>
      </trkpt>
      <trkpt lat="45.14731" lon="4.36314">
        <ele>1022.02</ele>
        <time>2023-07-08T09:35:02Z</time>
      </trkpt>
      <trkpt lat="45.14725" lon="4.36345">
        <ele>1017.69</ele>
        <time>2023-07-08T09:35:18Z</time>
      </trkpt>
      <trkpt lat="45.14721" lon="4.36374">
        <ele>1015.29</ele>
        <time>2023-07-08T09:35:32Z</time>
      </trkpt>
      <trkpt lat="45.14716" lon="4.3641">
        <ele>1014.33</ele>
        <time>2023-07-08T09:35:49Z</time>
      </trkpt>
      <trkpt lat="45.14704" lon="4.36432">
        <ele>1011.93</ele>
        <time>2023-07-08T09:36:04Z</time>
      </trkpt>
      <trkpt lat="45.14697" lon="4.36409">
        <ele>1009.04</ele>
        <time>2023-07-08T09:36:18Z</time>
      </trkpt>
      <trkpt lat="45.14689" lon="4.36375">
        <ele>1005.2</ele>
        <time>2023-07-08T09:36:36Z</time>
      </trkpt>
      <trkpt lat="45.14679" lon="4.3634">
        <ele>1007.6</ele>
        <time>2023-07-08T09:36:51Z</time>
      </trkpt>
      <trkpt lat="45.14666" lon="4.36295">
        <ele>1011.44</ele>
        <time>2023-07-08T09:37:10Z</time>
      </trkpt>
      <trkpt lat="45.14656" lon="4.36266">
        <ele>1012.89</ele>
        <time>2023-07-08T09:37:24Z</time>
      </trkpt>
      <trkpt lat="45.14643" lon="4.36233">
        <ele>1014.33</ele>
        <time>2023-07-08T09:37:41Z</time>
      </trkpt>
      <trkpt lat="45.14619" lon="4.36207">
        <ele>1015.29</ele>
        <time>2023-07-08T09:38:00Z</time>
      </trkpt>
      <trkpt lat="45.14596" lon="4.36185">
        <ele>1013.85</ele>
        <time>2023-07-08T09:38:18Z</time>
      </trkpt>
      <trkpt lat="45.14581" lon="4.36193">
        <ele>1012.89</ele>
        <time>2023-07-08T09:38:31Z</time>
      </trkpt>
      <trkpt lat="45.14564" lon="4.36206">
        <ele>1012.41</ele>
        <time>2023-07-08T09:38:47Z</time>
      </trkpt>
      <trkpt lat="45.14557" lon="4.36213">
        <ele>1013.37</ele>
        <time>2023-07-08T09:39:04Z</time>
      </trkpt>
      <trkpt lat="45.14541" lon="4.36214">
        <ele>1010.96</ele>
        <time>2023-07-08T09:39:16Z</time>
      </trkpt>
      <trkpt lat="45.14524" lon="4.36212">
        <ele>1008.08</ele>
        <time>2023-07-08T09:39:30Z</time>
      </trkpt>
      <trkpt lat="45.14523" lon="4.36216">
        <ele>1009.52</ele>
        <time>2023-07-08T09:39:52Z</time>
      </trkpt>
      <trkpt lat="45.14516" lon="4.36218">
        <ele>1008.08</ele>
        <time>2023-07-08T09:40:06Z</time>
      </trkpt>
      <trkpt lat="45.14518" lon="4.36222">
        <ele>1006.16</ele>
        <time>2023-07-08T09:40:24Z</time>
      </trkpt>
      <trkpt lat="45.1452" lon="4.36218">
        <ele>1004.23</ele>
        <time>2023-07-08T09:40:54Z</time>
      </trkpt>
      <trkpt lat="45.14531" lon="4.36218">
        <ele>1008.08</ele>
        <time>2023-07-08T09:41:02Z</time>
      </trkpt>
      <trkpt lat="45.14542" lon="4.36218">
        <ele>1009.04</ele>
        <time>2023-07-08T09:41:07Z</time>
      </trkpt>
      <trkpt lat="45.14557" lon="4.36215">
        <ele>1011.44</ele>
        <time>2023-07-08T09:41:20Z</time>
      </trkpt>
      <trkpt lat="45.14557" lon="4.36219">
        <ele>1012.41</ele>
        <time>2023-07-08T09:41:26Z</time>
      </trkpt>
      <trkpt lat="45.14549" lon="4.36249">
        <ele>1012.41</ele>
        <time>2023-07-08T09:41:42Z</time>
      </trkpt>
      <trkpt lat="45.1454" lon="4.3628">
        <ele>1009.52</ele>
        <time>2023-07-08T09:41:58Z</time>
      </trkpt>
      <trkpt lat="45.14531" lon="4.3631">
        <ele>1005.68</ele>
        <time>2023-07-08T09:42:13Z</time>
      </trkpt>
      <trkpt lat="45.1452" lon="4.36338">
        <ele>1005.2</ele>
        <time>2023-07-08T09:42:28Z</time>
      </trkpt>
      <trkpt lat="45.1451" lon="4.36366">
        <ele>1005.2</ele>
        <time>2023-07-08T09:42:43Z</time>
      </trkpt>
      <trkpt lat="45.14499" lon="4.36392">
        <ele>1002.79</ele>
        <time>2023-07-08T09:42:57Z</time>
      </trkpt>
      <trkpt lat="45.14489" lon="4.36418">
        <ele>1001.83</ele>
        <time>2023-07-08T09:43:12Z</time>
      </trkpt>
      <trkpt lat="45.14473" lon="4.36439">
        <ele>999.91</ele>
        <time>2023-07-08T09:43:27Z</time>
      </trkpt>
      <trkpt lat="45.14456" lon="4.36458">
        <ele>996.54</ele>
        <time>2023-07-08T09:43:43Z</time>
      </trkpt>
      <trkpt lat="45.14439" lon="4.36473">
        <ele>996.06</ele>
        <time>2023-07-08T09:43:55Z</time>
      </trkpt>
      <trkpt lat="45.14419" lon="4.36497">
        <ele>999.91</ele>
        <time>2023-07-08T09:44:12Z</time>
      </trkpt>
      <trkpt lat="45.14397" lon="4.36508">
        <ele>1001.83</ele>
        <time>2023-07-08T09:44:25Z</time>
      </trkpt>
      <trkpt lat="45.14386" lon="4.36513">
        <ele>999.91</ele>
        <time>2023-07-08T09:44:40Z</time>
      </trkpt>
      <trkpt lat="45.14387" lon="4.36512">
        <ele>1000.39</ele>
        <time>2023-07-08T09:44:56Z</time>
      </trkpt>
      <trkpt lat="45.14385" lon="4.36517">
        <ele>1002.79</ele>
        <time>2023-07-08T09:45:09Z</time>
      </trkpt>
      <trkpt lat="45.14384" lon="4.36516">
        <ele>1004.72</ele>
        <time>2023-07-08T09:45:30Z</time>
      </trkpt>
      <trkpt lat="45.14386" lon="4.36517">
        <ele>1005.68</ele>
        <time>2023-07-08T09:45:50Z</time>
      </trkpt>
      <trkpt lat="45.14384" lon="4.36515">
        <ele>1008.08</ele>
        <time>2023-07-08T09:46:13Z</time>
      </trkpt>
      <trkpt lat="45.14384" lon="4.36515">
        <ele>1009.04</ele>
        <time>2023-07-08T09:46:37Z</time>
      </trkpt>
      <trkpt lat="45.14382" lon="4.36514">
        <ele>1009.04</ele>
        <time>2023-07-08T09:46:40Z</time>
      </trkpt>
      <trkpt lat="45.14368" lon="4.36513">
        <ele>1007.12</ele>
        <time>2023-07-08T09:46:53Z</time>
      </trkpt>
      <trkpt lat="45.14347" lon="4.3652">
        <ele>1003.27</ele>
        <time>2023-07-08T09:47:09Z</time>
      </trkpt>
      <trkpt lat="45.1433" lon="4.36526">
        <ele>999.91</ele>
        <time>2023-07-08T09:47:23Z</time>
      </trkpt>
      <trkpt lat="45.14309" lon="4.36519">
        <ele>995.58</ele>
        <time>2023-07-08T09:47:39Z</time>
      </trkpt>
      <trkpt lat="45.14289" lon="4.36507">
        <ele>988.85</ele>
        <time>2023-07-08T09:47:55Z</time>
      </trkpt>
      <trkpt lat="45.14279" lon="4.36501">
        <ele>985.97</ele>
        <time>2023-07-08T09:48:03Z</time>
      </trkpt>
      <trkpt lat="45.14278" lon="4.365">
        <ele>985.49</ele>
        <time>2023-07-08T09:48:04Z</time>
      </trkpt>
      <trkpt lat="45.14263" lon="4.36487">
        <ele>981.64</ele>
        <time>2023-07-08T09:48:21Z</time>
      </trkpt>
      <trkpt lat="45.14254" lon="4.36471">
        <ele>980.68</ele>
        <time>2023-07-08T09:48:28Z</time>
      </trkpt>
      <trkpt lat="45.14251" lon="4.36464">
        <ele>981.64</ele>
        <time>2023-07-08T09:48:31Z</time>
      </trkpt>
      <trkpt lat="45.1425" lon="4.36463">
        <ele>982.12</ele>
        <time>2023-07-08T09:48:32Z</time>
      </trkpt>
      <trkpt lat="45.14225" lon="4.36453">
        <ele>983.57</ele>
        <time>2023-07-08T09:48:48Z</time>
      </trkpt>
      <trkpt lat="45.1421" lon="4.36457">
        <ele>983.57</ele>
        <time>2023-07-08T09:48:58Z</time>
      </trkpt>
      <trkpt lat="45.1421" lon="4.36458">
        <ele>983.09</ele>
        <time>2023-07-08T09:48:59Z</time>
      </trkpt>
      <trkpt lat="45.14209" lon="4.3646">
        <ele>983.09</ele>
        <time>2023-07-08T09:49:00Z</time>
      </trkpt>
      <trkpt lat="45.14201" lon="4.36474">
        <ele>982.12</ele>
        <time>2023-07-08T09:49:09Z</time>
      </trkpt>
      <trkpt lat="45.14201" lon="4.36483">
        <ele>980.68</ele>
        <time>2023-07-08T09:49:15Z</time>
      </trkpt>
      <trkpt lat="45.14202" lon="4.36485">
        <ele>980.68</ele>
        <time>2023-07-08T09:49:16Z</time>
      </trkpt>
      <trkpt lat="45.14202" lon="4.36487">
        <ele>980.2</ele>
        <time>2023-07-08T09:49:17Z</time>
      </trkpt>
      <trkpt lat="45.14201" lon="4.36489">
        <ele>980.2</ele>
        <time>2023-07-08T09:49:18Z</time>
      </trkpt>
      <trkpt lat="45.14201" lon="4.36491">
        <ele>980.2</ele>
        <time>2023-07-08T09:49:19Z</time>
      </trkpt>
      <trkpt lat="45.142" lon="4.36511">
        <ele>978.76</ele>
        <time>2023-07-08T09:49:34Z</time>
      </trkpt>
      <trkpt lat="45.14201" lon="4.36517">
        <ele>979.72</ele>
        <time>2023-07-08T09:49:55Z</time>
      </trkpt>
      <trkpt lat="45.142" lon="4.36542">
        <ele>980.2</ele>
        <time>2023-07-08T09:50:11Z</time>
      </trkpt>
      <trkpt lat="45.14195" lon="4.36573">
        <ele>979.72</ele>
        <time>2023-07-08T09:50:27Z</time>
      </trkpt>
      <trkpt lat="45.14188" lon="4.3659">
        <ele>979.72</ele>
        <time>2023-07-08T09:50:43Z</time>
      </trkpt>
      <trkpt lat="45.14176" lon="4.36596">
        <ele>980.2</ele>
        <time>2023-07-08T09:51:01Z</time>
      </trkpt>
      <trkpt lat="45.1417" lon="4.36602">
        <ele>980.68</ele>
        <time>2023-07-08T09:51:17Z</time>
      </trkpt>
      <trkpt lat="45.14174" lon="4.36605">
        <ele>974.91</ele>
        <time>2023-07-08T09:51:38Z</time>
      </trkpt>
      <trkpt lat="45.14171" lon="4.36603">
        <ele>975.39</ele>
        <time>2023-07-08T09:52:00Z</time>
      </trkpt>
      <trkpt lat="45.1416" lon="4.36604">
        <ele>979.24</ele>
        <time>2023-07-08T09:52:14Z</time>
      </trkpt>
      <trkpt lat="45.14159" lon="4.36605">
        <ele>979.24</ele>
        <time>2023-07-08T09:52:15Z</time>
      </trkpt>
      <trkpt lat="45.14158" lon="4.36607">
        <ele>979.72</ele>
        <time>2023-07-08T09:52:16Z</time>
      </trkpt>
      <trkpt lat="45.14152" lon="4.36603">
        <ele>980.2</ele>
        <time>2023-07-08T09:52:28Z</time>
      </trkpt>
      <trkpt lat="45.14136" lon="4.36582">
        <ele>983.57</ele>
        <time>2023-07-08T09:52:44Z</time>
      </trkpt>
      <trkpt lat="45.14129" lon="4.36568">
        <ele>985.01</ele>
        <time>2023-07-08T09:52:53Z</time>
      </trkpt>
      <trkpt lat="45.14112" lon="4.36561">
        <ele>986.93</ele>
        <time>2023-07-08T09:53:06Z</time>
      </trkpt>
      <trkpt lat="45.14109" lon="4.36563">
        <ele>986.93</ele>
        <time>2023-07-08T09:53:09Z</time>
      </trkpt>
      <trkpt lat="45.14108" lon="4.36564">
        <ele>987.41</ele>
        <time>2023-07-08T09:53:10Z</time>
      </trkpt>
      <trkpt lat="45.14098" lon="4.3658">
        <ele>996.54</ele>
        <time>2023-07-08T09:53:25Z</time>
      </trkpt>
      <trkpt lat="45.14085" lon="4.36597">
        <ele>1002.79</ele>
        <time>2023-07-08T09:53:39Z</time>
      </trkpt>
      <trkpt lat="45.14084" lon="4.36598">
        <ele>1002.79</ele>
        <time>2023-07-08T09:53:40Z</time>
      </trkpt>
      <trkpt lat="45.14083" lon="4.36599">
        <ele>1003.27</ele>
        <time>2023-07-08T09:53:41Z</time>
      </trkpt>
      <trkpt lat="45.14055" lon="4.36602">
        <ele>1006.64</ele>
        <time>2023-07-08T09:53:54Z</time>
      </trkpt>
      <trkpt lat="45.14043" lon="4.36608">
        <ele>1004.23</ele>
        <time>2023-07-08T09:54:02Z</time>
      </trkpt>
      <trkpt lat="45.14041" lon="4.36609">
        <ele>1004.23</ele>
        <time>2023-07-08T09:54:03Z</time>
      </trkpt>
      <trkpt lat="45.14021" lon="4.36622">
        <ele>1004.23</ele>
        <time>2023-07-08T09:54:21Z</time>
      </trkpt>
      <trkpt lat="45.13996" lon="4.36637">
        <ele>1006.64</ele>
        <time>2023-07-08T09:54:37Z</time>
      </trkpt>
      <trkpt lat="45.13994" lon="4.36639">
        <ele>1007.6</ele>
        <time>2023-07-08T09:54:38Z</time>
      </trkpt>
      <trkpt lat="45.13994" lon="4.36643">
        <ele>1009.04</ele>
        <time>2023-07-08T09:54:41Z</time>
      </trkpt>
      <trkpt lat="45.13995" lon="4.36644">
        <ele>1009.52</ele>
        <time>2023-07-08T09:54:42Z</time>
      </trkpt>
      <trkpt lat="45.13996" lon="4.36645">
        <ele>1009.52</ele>
        <time>2023-07-08T09:54:43Z</time>
      </trkpt>
      <trkpt lat="45.13997" lon="4.36646">
        <ele>1010</ele>
        <time>2023-07-08T09:54:44Z</time>
      </trkpt>
      <trkpt lat="45.13998" lon="4.36646">
        <ele>1010</ele>
        <time>2023-07-08T09:54:45Z</time>
      </trkpt>
      <trkpt lat="45.14018" lon="4.36656">
        <ele>1011.93</ele>
        <time>2023-07-08T09:55:01Z</time>
      </trkpt>
      <trkpt lat="45.14043" lon="4.36671">
        <ele>1010</ele>
        <time>2023-07-08T09:55:17Z</time>
      </trkpt>
      <trkpt lat="45.14046" lon="4.36675">
        <ele>1009.52</ele>
        <time>2023-07-08T09:55:20Z</time>
      </trkpt>
      <trkpt lat="45.14047" lon="4.36677">
        <ele>1009.04</ele>
        <time>2023-07-08T09:55:21Z</time>
      </trkpt>
      <trkpt lat="45.14047" lon="4.36679">
        <ele>1009.04</ele>
        <time>2023-07-08T09:55:22Z</time>
      </trkpt>
      <trkpt lat="45.14046" lon="4.3668">
        <ele>1008.56</ele>
        <time>2023-07-08T09:55:23Z</time>
      </trkpt>
      <trkpt lat="45.14045" lon="4.36682">
        <ele>1008.56</ele>
        <time>2023-07-08T09:55:24Z</time>
      </trkpt>
      <trkpt lat="45.14044" lon="4.36685">
        <ele>1008.56</ele>
        <time>2023-07-08T09:55:25Z</time>
      </trkpt>
      <trkpt lat="45.14043" lon="4.36687">
        <ele>1008.56</ele>
        <time>2023-07-08T09:55:26Z</time>
      </trkpt>
      <trkpt lat="45.14034" lon="4.36711">
        <ele>1010.48</ele>
        <time>2023-07-08T09:55:40Z</time>
      </trkpt>
      <trkpt lat="45.14024" lon="4.36733">
        <ele>1010.48</ele>
        <time>2023-07-08T09:55:54Z</time>
      </trkpt>
      <trkpt lat="45.14013" lon="4.36756">
        <ele>1013.37</ele>
        <time>2023-07-08T09:56:10Z</time>
      </trkpt>
      <trkpt lat="45.14012" lon="4.36767">
        <ele>1017.21</ele>
        <time>2023-07-08T09:56:16Z</time>
      </trkpt>
      <trkpt lat="45.14011" lon="4.36769">
        <ele>1018.17</ele>
        <time>2023-07-08T09:56:17Z</time>
      </trkpt>
      <trkpt lat="45.14002" lon="4.36793">
        <ele>1026.83</ele>
        <time>2023-07-08T09:56:32Z</time>
      </trkpt>
      <trkpt lat="45.13988" lon="4.3682">
        <ele>1035</ele>
        <time>2023-07-08T09:56:48Z</time>
      </trkpt>
      <trkpt lat="45.13974" lon="4.36846">
        <ele>1037.4</ele>
        <time>2023-07-08T09:57:04Z</time>
      </trkpt>
      <trkpt lat="45.13961" lon="4.36873">
        <ele>1039.32</ele>
        <time>2023-07-08T09:57:17Z</time>
      </trkpt>
      <trkpt lat="45.13951" lon="4.36901">
        <ele>1041.73</ele>
        <time>2023-07-08T09:57:34Z</time>
      </trkpt>
      <trkpt lat="45.13932" lon="4.3693">
        <ele>1044.13</ele>
        <time>2023-07-08T09:57:49Z</time>
      </trkpt>
      <trkpt lat="45.13921" lon="4.36956">
        <ele>1046.05</ele>
        <time>2023-07-08T09:58:02Z</time>
      </trkpt>
      <trkpt lat="45.13912" lon="4.36983">
        <ele>1043.65</ele>
        <time>2023-07-08T09:58:17Z</time>
      </trkpt>
      <trkpt lat="45.13913" lon="4.36983">
        <ele>1043.17</ele>
        <time>2023-07-08T09:58:18Z</time>
      </trkpt>
      <trkpt lat="45.13915" lon="4.36983">
        <ele>1042.69</ele>
        <time>2023-07-08T09:58:20Z</time>
      </trkpt>
      <trkpt lat="45.13917" lon="4.36983">
        <ele>1042.21</ele>
        <time>2023-07-08T09:58:21Z</time>
      </trkpt>
      <trkpt lat="45.13934" lon="4.36986">
        <ele>1038.84</ele>
        <time>2023-07-08T09:58:36Z</time>
      </trkpt>
      <trkpt lat="45.13939" lon="4.36983">
        <ele>1039.8</ele>
        <time>2023-07-08T09:58:52Z</time>
      </trkpt>
      <trkpt lat="45.13938" lon="4.36989">
        <ele>1043.17</ele>
        <time>2023-07-08T09:59:19Z</time>
      </trkpt>
      <trkpt lat="45.13938" lon="4.36984">
        <ele>1045.09</ele>
        <time>2023-07-08T09:59:50Z</time>
      </trkpt>
      <trkpt lat="45.13933" lon="4.36982">
        <ele>1041.25</ele>
        <time>2023-07-08T10:00:23Z</time>
      </trkpt>
      <trkpt lat="45.13944" lon="4.36984">
        <ele>1042.69</ele>
        <time>2023-07-08T10:00:40Z</time>
      </trkpt>
      <trkpt lat="45.13965" lon="4.36992">
        <ele>1044.13</ele>
        <time>2023-07-08T10:00:54Z</time>
      </trkpt>
      <trkpt lat="45.13983" lon="4.37006">
        <ele>1042.21</ele>
        <time>2023-07-08T10:01:07Z</time>
      </trkpt>
      <trkpt lat="45.13988" lon="4.3701">
        <ele>1041.25</ele>
        <time>2023-07-08T10:01:10Z</time>
      </trkpt>
      <trkpt lat="45.14019" lon="4.37036">
        <ele>1032.11</ele>
        <time>2023-07-08T10:01:28Z</time>
      </trkpt>
      <trkpt lat="45.1404" lon="4.37051">
        <ele>1029.23</ele>
        <time>2023-07-08T10:01:44Z</time>
      </trkpt>
      <trkpt lat="45.14059" lon="4.3707">
        <ele>1029.23</ele>
        <time>2023-07-08T10:01:59Z</time>
      </trkpt>
      <trkpt lat="45.14067" lon="4.37078">
        <ele>1029.23</ele>
        <time>2023-07-08T10:02:04Z</time>
      </trkpt>
      <trkpt lat="45.14069" lon="4.37079">
        <ele>1029.23</ele>
        <time>2023-07-08T10:02:05Z</time>
      </trkpt>
      <trkpt lat="45.14086" lon="4.37097">
        <ele>1026.83</ele>
        <time>2023-07-08T10:02:21Z</time>
      </trkpt>
      <trkpt lat="45.14078" lon="4.37095">
        <ele>1028.27</ele>
        <time>2023-07-08T10:02:35Z</time>
      </trkpt>
      <trkpt lat="45.14072" lon="4.37091">
        <ele>1028.27</ele>
        <time>2023-07-08T10:02:39Z</time>
      </trkpt>
      <trkpt lat="45.14071" lon="4.37091">
        <ele>1028.27</ele>
        <time>2023-07-08T10:02:40Z</time>
      </trkpt>
      <trkpt lat="45.1405" lon="4.37087">
        <ele>1027.79</ele>
        <time>2023-07-08T10:02:54Z</time>
      </trkpt>
      <trkpt lat="45.14033" lon="4.37081">
        <ele>1029.23</ele>
        <time>2023-07-08T10:03:06Z</time>
      </trkpt>
      <trkpt lat="45.14011" lon="4.37083">
        <ele>1032.59</ele>
        <time>2023-07-08T10:03:19Z</time>
      </trkpt>
      <trkpt lat="45.13986" lon="4.37092">
        <ele>1034.52</ele>
        <time>2023-07-08T10:03:36Z</time>
      </trkpt>
      <trkpt lat="45.13968" lon="4.37114">
        <ele>1037.4</ele>
        <time>2023-07-08T10:03:51Z</time>
      </trkpt>
      <trkpt lat="45.13952" lon="4.3713">
        <ele>1039.8</ele>
        <time>2023-07-08T10:04:04Z</time>
      </trkpt>
      <trkpt lat="45.13934" lon="4.37147">
        <ele>1042.69</ele>
        <time>2023-07-08T10:04:18Z</time>
      </trkpt>
      <trkpt lat="45.13914" lon="4.37166">
        <ele>1045.09</ele>
        <time>2023-07-08T10:04:34Z</time>
      </trkpt>
      <trkpt lat="45.13897" lon="4.37182">
        <ele>1046.53</ele>
        <time>2023-07-08T10:04:48Z</time>
      </trkpt>
      <trkpt lat="45.13882" lon="4.37203">
        <ele>1048.94</ele>
        <time>2023-07-08T10:05:03Z</time>
      </trkpt>
      <trkpt lat="45.13863" lon="4.37222">
        <ele>1050.86</ele>
        <time>2023-07-08T10:05:18Z</time>
      </trkpt>
      <trkpt lat="45.13862" lon="4.37224">
        <ele>1050.86</ele>
        <time>2023-07-08T10:05:19Z</time>
      </trkpt>
      <trkpt lat="45.13857" lon="4.37229">
        <ele>1050.86</ele>
        <time>2023-07-08T10:05:23Z</time>
      </trkpt>
      <trkpt lat="45.13842" lon="4.37248">
        <ele>1051.34</ele>
        <time>2023-07-08T10:05:38Z</time>
      </trkpt>
      <trkpt lat="45.1382" lon="4.37269">
        <ele>1053.74</ele>
        <time>2023-07-08T10:05:55Z</time>
      </trkpt>
      <trkpt lat="45.13797" lon="4.37287">
        <ele>1057.11</ele>
        <time>2023-07-08T10:06:15Z</time>
      </trkpt>
      <trkpt lat="45.13796" lon="4.37288">
        <ele>1057.59</ele>
        <time>2023-07-08T10:06:16Z</time>
      </trkpt>
      <trkpt lat="45.13774" lon="4.37311">
        <ele>1060.47</ele>
        <time>2023-07-08T10:06:34Z</time>
      </trkpt>
      <trkpt lat="45.13752" lon="4.37336">
        <ele>1063.84</ele>
        <time>2023-07-08T10:06:53Z</time>
      </trkpt>
      <trkpt lat="45.13746" lon="4.37345">
        <ele>1064.32</ele>
        <time>2023-07-08T10:06:59Z</time>
      </trkpt>
      <trkpt lat="45.13725" lon="4.37378">
        <ele>1067.68</ele>
        <time>2023-07-08T10:07:21Z</time>
      </trkpt>
      <trkpt lat="45.13714" lon="4.37397">
        <ele>1070.57</ele>
        <time>2023-07-08T10:07:36Z</time>
      </trkpt>
      <trkpt lat="45.13708" lon="4.37419">
        <ele>1071.05</ele>
        <time>2023-07-08T10:07:46Z</time>
      </trkpt>
      <trkpt lat="45.137" lon="4.37456">
        <ele>1071.05</ele>
        <time>2023-07-08T10:08:02Z</time>
      </trkpt>
      <trkpt lat="45.1369" lon="4.37486">
        <ele>1070.08</ele>
        <time>2023-07-08T10:08:19Z</time>
      </trkpt>
      <trkpt lat="45.13682" lon="4.37519">
        <ele>1070.08</ele>
        <time>2023-07-08T10:08:35Z</time>
      </trkpt>
      <trkpt lat="45.13649" lon="4.37569">
        <ele>1059.03</ele>
        <time>2023-07-08T10:08:50Z</time>
      </trkpt>
      <trkpt lat="45.13644" lon="4.37582">
        <ele>1056.63</ele>
        <time>2023-07-08T10:08:57Z</time>
      </trkpt>
      <trkpt lat="45.13633" lon="4.37606">
        <ele>1056.15</ele>
        <time>2023-07-08T10:09:10Z</time>
      </trkpt>
      <trkpt lat="45.13627" lon="4.37631">
        <ele>1054.7</ele>
        <time>2023-07-08T10:09:25Z</time>
      </trkpt>
      <trkpt lat="45.13628" lon="4.37633">
        <ele>1054.7</ele>
        <time>2023-07-08T10:09:26Z</time>
      </trkpt>
      <trkpt lat="45.13628" lon="4.37636">
        <ele>1054.7</ele>
        <time>2023-07-08T10:09:27Z</time>
      </trkpt>
      <trkpt lat="45.13629" lon="4.37638">
        <ele>1054.7</ele>
        <time>2023-07-08T10:09:28Z</time>
      </trkpt>
      <trkpt lat="45.13629" lon="4.3764">
        <ele>1054.7</ele>
        <time>2023-07-08T10:09:29Z</time>
      </trkpt>
      <trkpt lat="45.1363" lon="4.37643">
        <ele>1054.7</ele>
        <time>2023-07-08T10:09:30Z</time>
      </trkpt>
      <trkpt lat="45.1364" lon="4.37678">
        <ele>1054.7</ele>
        <time>2023-07-08T10:09:48Z</time>
      </trkpt>
      <trkpt lat="45.13639" lon="4.37692">
        <ele>1054.7</ele>
        <time>2023-07-08T10:09:56Z</time>
      </trkpt>
      <trkpt lat="45.13638" lon="4.37694">
        <ele>1054.7</ele>
        <time>2023-07-08T10:09:57Z</time>
      </trkpt>
      <trkpt lat="45.13622" lon="4.37714">
        <ele>1053.26</ele>
        <time>2023-07-08T10:10:10Z</time>
      </trkpt>
      <trkpt lat="45.13621" lon="4.37715">
        <ele>1053.26</ele>
        <time>2023-07-08T10:10:11Z</time>
      </trkpt>
      <trkpt lat="45.13619" lon="4.37716">
        <ele>1053.26</ele>
        <time>2023-07-08T10:10:12Z</time>
      </trkpt>
      <trkpt lat="45.13617" lon="4.37717">
        <ele>1052.78</ele>
        <time>2023-07-08T10:10:13Z</time>
      </trkpt>
      <trkpt lat="45.13616" lon="4.37717">
        <ele>1052.78</ele>
        <time>2023-07-08T10:10:14Z</time>
      </trkpt>
      <trkpt lat="45.13589" lon="4.37727">
        <ele>1053.26</ele>
        <time>2023-07-08T10:10:32Z</time>
      </trkpt>
      <trkpt lat="45.13587" lon="4.37729">
        <ele>1053.26</ele>
        <time>2023-07-08T10:10:34Z</time>
      </trkpt>
      <trkpt lat="45.13579" lon="4.37737">
        <ele>1053.26</ele>
        <time>2023-07-08T10:10:42Z</time>
      </trkpt>
      <trkpt lat="45.1358" lon="4.37743">
        <ele>1055.18</ele>
        <time>2023-07-08T10:10:54Z</time>
      </trkpt>
      <trkpt lat="45.13579" lon="4.37745">
        <ele>1055.67</ele>
        <time>2023-07-08T10:11:18Z</time>
      </trkpt>
      <trkpt lat="45.13578" lon="4.37746">
        <ele>1055.67</ele>
        <time>2023-07-08T10:11:39Z</time>
      </trkpt>
      <trkpt lat="45.13577" lon="4.37745">
        <ele>1056.63</ele>
        <time>2023-07-08T10:11:59Z</time>
      </trkpt>
      <trkpt lat="45.13573" lon="4.37739">
        <ele>1056.15</ele>
        <time>2023-07-08T10:12:15Z</time>
      </trkpt>
      <trkpt lat="45.1357" lon="4.37737">
        <ele>1055.18</ele>
        <time>2023-07-08T10:12:24Z</time>
      </trkpt>
      <trkpt lat="45.13568" lon="4.37737">
        <ele>1055.18</ele>
        <time>2023-07-08T10:12:25Z</time>
      </trkpt>
      <trkpt lat="45.13567" lon="4.37737">
        <ele>1054.7</ele>
        <time>2023-07-08T10:12:26Z</time>
      </trkpt>
      <trkpt lat="45.13566" lon="4.37737">
        <ele>1054.7</ele>
        <time>2023-07-08T10:12:27Z</time>
      </trkpt>
      <trkpt lat="45.13565" lon="4.37738">
        <ele>1055.18</ele>
        <time>2023-07-08T10:12:28Z</time>
      </trkpt>
      <trkpt lat="45.13563" lon="4.37738">
        <ele>1055.18</ele>
        <time>2023-07-08T10:12:29Z</time>
      </trkpt>
      <trkpt lat="45.13562" lon="4.37738">
        <ele>1054.7</ele>
        <time>2023-07-08T10:12:30Z</time>
      </trkpt>
      <trkpt lat="45.13561" lon="4.37738">
        <ele>1054.7</ele>
        <time>2023-07-08T10:12:31Z</time>
      </trkpt>
      <trkpt lat="45.1356" lon="4.37738">
        <ele>1055.18</ele>
        <time>2023-07-08T10:12:32Z</time>
      </trkpt>
      <trkpt lat="45.13558" lon="4.37738">
        <ele>1055.18</ele>
        <time>2023-07-08T10:12:33Z</time>
      </trkpt>
      <trkpt lat="45.13557" lon="4.37737">
        <ele>1055.18</ele>
        <time>2023-07-08T10:12:34Z</time>
      </trkpt>
      <trkpt lat="45.13556" lon="4.37737">
        <ele>1055.67</ele>
        <time>2023-07-08T10:12:35Z</time>
      </trkpt>
      <trkpt lat="45.13554" lon="4.37736">
        <ele>1055.67</ele>
        <time>2023-07-08T10:12:36Z</time>
      </trkpt>
      <trkpt lat="45.13534" lon="4.37726">
        <ele>1054.7</ele>
        <time>2023-07-08T10:12:51Z</time>
      </trkpt>
      <trkpt lat="45.13528" lon="4.37728">
        <ele>1053.74</ele>
        <time>2023-07-08T10:13:02Z</time>
      </trkpt>
      <trkpt lat="45.13529" lon="4.37729">
        <ele>1053.74</ele>
        <time>2023-07-08T10:13:03Z</time>
      </trkpt>
      <trkpt lat="45.13544" lon="4.37734">
        <ele>1054.22</ele>
        <time>2023-07-08T10:13:14Z</time>
      </trkpt>
      <trkpt lat="45.13545" lon="4.37735">
        <ele>1054.7</ele>
        <time>2023-07-08T10:13:15Z</time>
      </trkpt>
      <trkpt lat="45.13546" lon="4.37736">
        <ele>1054.7</ele>
        <time>2023-07-08T10:13:16Z</time>
      </trkpt>
      <trkpt lat="45.13563" lon="4.37764">
        <ele>1056.63</ele>
        <time>2023-07-08T10:13:35Z</time>
      </trkpt>
      <trkpt lat="45.13565" lon="4.37792">
        <ele>1059.03</ele>
        <time>2023-07-08T10:13:49Z</time>
      </trkpt>
      <trkpt lat="45.13566" lon="4.37825">
        <ele>1061.43</ele>
        <time>2023-07-08T10:14:02Z</time>
      </trkpt>
      <trkpt lat="45.13565" lon="4.37852">
        <ele>1063.84</ele>
        <time>2023-07-08T10:14:18Z</time>
      </trkpt>
      <trkpt lat="45.1356" lon="4.37869">
        <ele>1064.32</ele>
        <time>2023-07-08T10:14:35Z</time>
      </trkpt>
      <trkpt lat="45.13553" lon="4.37902">
        <ele>1064.8</ele>
        <time>2023-07-08T10:14:53Z</time>
      </trkpt>
      <trkpt lat="45.13552" lon="4.37905">
        <ele>1065.28</ele>
        <time>2023-07-08T10:14:55Z</time>
      </trkpt>
      <trkpt lat="45.13537" lon="4.37934">
        <ele>1066.24</ele>
        <time>2023-07-08T10:15:11Z</time>
      </trkpt>
      <trkpt lat="45.13517" lon="4.37974">
        <ele>1067.2</ele>
        <time>2023-07-08T10:15:33Z</time>
      </trkpt>
      <trkpt lat="45.135" lon="4.38011">
        <ele>1067.68</ele>
        <time>2023-07-08T10:15:53Z</time>
      </trkpt>
      <trkpt lat="45.13482" lon="4.38056">
        <ele>1067.68</ele>
        <time>2023-07-08T10:16:16Z</time>
      </trkpt>
      <trkpt lat="45.13468" lon="4.38094">
        <ele>1064.8</ele>
        <time>2023-07-08T10:16:35Z</time>
      </trkpt>
      <trkpt lat="45.1346" lon="4.3813">
        <ele>1064.32</ele>
        <time>2023-07-08T10:16:48Z</time>
      </trkpt>
      <trkpt lat="45.13456" lon="4.38166">
        <ele>1066.24</ele>
        <time>2023-07-08T10:17:04Z</time>
      </trkpt>
      <trkpt lat="45.13452" lon="4.38204">
        <ele>1069.12</ele>
        <time>2023-07-08T10:17:20Z</time>
      </trkpt>
      <trkpt lat="45.13451" lon="4.38233">
        <ele>1071.53</ele>
        <time>2023-07-08T10:17:35Z</time>
      </trkpt>
      <trkpt lat="45.13442" lon="4.38268">
        <ele>1071.05</ele>
        <time>2023-07-08T10:17:51Z</time>
      </trkpt>
      <trkpt lat="45.13441" lon="4.3827">
        <ele>1070.57</ele>
        <time>2023-07-08T10:17:52Z</time>
      </trkpt>
      <trkpt lat="45.1344" lon="4.38278">
        <ele>1070.08</ele>
        <time>2023-07-08T10:17:55Z</time>
      </trkpt>
      <trkpt lat="45.13438" lon="4.38281">
        <ele>1070.08</ele>
        <time>2023-07-08T10:17:56Z</time>
      </trkpt>
      <trkpt lat="45.13437" lon="4.38283">
        <ele>1070.08</ele>
        <time>2023-07-08T10:17:57Z</time>
      </trkpt>
      <trkpt lat="45.13425" lon="4.38312">
        <ele>1070.08</ele>
        <time>2023-07-08T10:18:11Z</time>
      </trkpt>
      <trkpt lat="45.13413" lon="4.38341">
        <ele>1069.12</ele>
        <time>2023-07-08T10:18:27Z</time>
      </trkpt>
      <trkpt lat="45.13402" lon="4.38359">
        <ele>1070.08</ele>
        <time>2023-07-08T10:18:38Z</time>
      </trkpt>
      <trkpt lat="45.13401" lon="4.38361">
        <ele>1070.08</ele>
        <time>2023-07-08T10:18:39Z</time>
      </trkpt>
      <trkpt lat="45.134" lon="4.38363">
        <ele>1070.08</ele>
        <time>2023-07-08T10:18:40Z</time>
      </trkpt>
      <trkpt lat="45.13399" lon="4.38365">
        <ele>1070.08</ele>
        <time>2023-07-08T10:18:41Z</time>
      </trkpt>
      <trkpt lat="45.13399" lon="4.38367">
        <ele>1070.08</ele>
        <time>2023-07-08T10:18:42Z</time>
      </trkpt>
      <trkpt lat="45.13398" lon="4.38369">
        <ele>1070.08</ele>
        <time>2023-07-08T10:18:43Z</time>
      </trkpt>
      <trkpt lat="45.13397" lon="4.3837">
        <ele>1070.08</ele>
        <time>2023-07-08T10:18:44Z</time>
      </trkpt>
      <trkpt lat="45.13397" lon="4.38372">
        <ele>1070.08</ele>
        <time>2023-07-08T10:18:45Z</time>
      </trkpt>
      <trkpt lat="45.13396" lon="4.38373">
        <ele>1070.08</ele>
        <time>2023-07-08T10:18:46Z</time>
      </trkpt>
      <trkpt lat="45.13395" lon="4.38375">
        <ele>1070.08</ele>
        <time>2023-07-08T10:18:47Z</time>
      </trkpt>
      <trkpt lat="45.13381" lon="4.38407">
        <ele>1070.57</ele>
        <time>2023-07-08T10:19:04Z</time>
      </trkpt>
      <trkpt lat="45.13371" lon="4.3843">
        <ele>1070.08</ele>
        <time>2023-07-08T10:19:15Z</time>
      </trkpt>
      <trkpt lat="45.13353" lon="4.3847">
        <ele>1069.6</ele>
        <time>2023-07-08T10:19:37Z</time>
      </trkpt>
      <trkpt lat="45.13336" lon="4.3851">
        <ele>1069.6</ele>
        <time>2023-07-08T10:19:59Z</time>
      </trkpt>
      <trkpt lat="45.13315" lon="4.38554">
        <ele>1071.05</ele>
        <time>2023-07-08T10:20:23Z</time>
      </trkpt>
      <trkpt lat="45.13313" lon="4.38561">
        <ele>1071.53</ele>
        <time>2023-07-08T10:20:28Z</time>
      </trkpt>
      <trkpt lat="45.13298" lon="4.38589">
        <ele>1072.01</ele>
        <time>2023-07-08T10:20:44Z</time>
      </trkpt>
      <trkpt lat="45.13282" lon="4.3862">
        <ele>1072.01</ele>
        <time>2023-07-08T10:21:02Z</time>
      </trkpt>
      <trkpt lat="45.13263" lon="4.38649">
        <ele>1072.49</ele>
        <time>2023-07-08T10:21:20Z</time>
      </trkpt>
      <trkpt lat="45.1324" lon="4.38672">
        <ele>1072.97</ele>
        <time>2023-07-08T10:21:39Z</time>
      </trkpt>
      <trkpt lat="45.13225" lon="4.38674">
        <ele>1073.93</ele>
        <time>2023-07-08T10:21:56Z</time>
      </trkpt>
      <trkpt lat="45.13224" lon="4.38675">
        <ele>1073.93</ele>
        <time>2023-07-08T10:21:57Z</time>
      </trkpt>
      <trkpt lat="45.13223" lon="4.38677">
        <ele>1074.41</ele>
        <time>2023-07-08T10:21:58Z</time>
      </trkpt>
      <trkpt lat="45.13204" lon="4.38698">
        <ele>1073.93</ele>
        <time>2023-07-08T10:22:12Z</time>
      </trkpt>
      <trkpt lat="45.13186" lon="4.38713">
        <ele>1072.49</ele>
        <time>2023-07-08T10:22:25Z</time>
      </trkpt>
      <trkpt lat="45.13168" lon="4.38716">
        <ele>1072.01</ele>
        <time>2023-07-08T10:22:36Z</time>
      </trkpt>
      <trkpt lat="45.13167" lon="4.38716">
        <ele>1072.49</ele>
        <time>2023-07-08T10:22:37Z</time>
      </trkpt>
      <trkpt lat="45.13165" lon="4.38717">
        <ele>1072.49</ele>
        <time>2023-07-08T10:22:38Z</time>
      </trkpt>
      <trkpt lat="45.13163" lon="4.38717">
        <ele>1072.97</ele>
        <time>2023-07-08T10:22:39Z</time>
      </trkpt>
      <trkpt lat="45.13162" lon="4.38717">
        <ele>1072.97</ele>
        <time>2023-07-08T10:22:40Z</time>
      </trkpt>
      <trkpt lat="45.13145" lon="4.38715">
        <ele>1072.01</ele>
        <time>2023-07-08T10:22:53Z</time>
      </trkpt>
      <trkpt lat="45.13135" lon="4.38716">
        <ele>1072.01</ele>
        <time>2023-07-08T10:22:59Z</time>
      </trkpt>
      <trkpt lat="45.13134" lon="4.38715">
        <ele>1072.01</ele>
        <time>2023-07-08T10:23:00Z</time>
      </trkpt>
      <trkpt lat="45.13117" lon="4.38711">
        <ele>1071.53</ele>
        <time>2023-07-08T10:23:11Z</time>
      </trkpt>
      <trkpt lat="45.13116" lon="4.38711">
        <ele>1071.53</ele>
        <time>2023-07-08T10:23:12Z</time>
      </trkpt>
      <trkpt lat="45.13114" lon="4.38711">
        <ele>1071.53</ele>
        <time>2023-07-08T10:23:13Z</time>
      </trkpt>
      <trkpt lat="45.13096" lon="4.38709">
        <ele>1073.45</ele>
        <time>2023-07-08T10:23:25Z</time>
      </trkpt>
      <trkpt lat="45.13077" lon="4.38705">
        <ele>1074.89</ele>
        <time>2023-07-08T10:23:40Z</time>
      </trkpt>
      <trkpt lat="45.13057" lon="4.38697">
        <ele>1077.78</ele>
        <time>2023-07-08T10:23:54Z</time>
      </trkpt>
      <trkpt lat="45.13039" lon="4.38692">
        <ele>1076.33</ele>
        <time>2023-07-08T10:24:05Z</time>
      </trkpt>
      <trkpt lat="45.13008" lon="4.38683">
        <ele>1073.93</ele>
        <time>2023-07-08T10:24:21Z</time>
      </trkpt>
      <trkpt lat="45.12985" lon="4.38681">
        <ele>1075.85</ele>
        <time>2023-07-08T10:24:37Z</time>
      </trkpt>
      <trkpt lat="45.12965" lon="4.38696">
        <ele>1077.29</ele>
        <time>2023-07-08T10:24:50Z</time>
      </trkpt>
      <trkpt lat="45.12965" lon="4.38698">
        <ele>1077.29</ele>
        <time>2023-07-08T10:24:51Z</time>
      </trkpt>
      <trkpt lat="45.12965" lon="4.38701">
        <ele>1077.29</ele>
        <time>2023-07-08T10:24:52Z</time>
      </trkpt>
      <trkpt lat="45.12965" lon="4.38703">
        <ele>1077.29</ele>
        <time>2023-07-08T10:24:53Z</time>
      </trkpt>
      <trkpt lat="45.12972" lon="4.38735">
        <ele>1076.33</ele>
        <time>2023-07-08T10:25:09Z</time>
      </trkpt>
      <trkpt lat="45.12971" lon="4.38761">
        <ele>1077.29</ele>
        <time>2023-07-08T10:25:21Z</time>
      </trkpt>
      <trkpt lat="45.12972" lon="4.38763">
        <ele>1077.29</ele>
        <time>2023-07-08T10:25:22Z</time>
      </trkpt>
      <trkpt lat="45.12973" lon="4.38765">
        <ele>1077.29</ele>
        <time>2023-07-08T10:25:23Z</time>
      </trkpt>
      <trkpt lat="45.12982" lon="4.38798">
        <ele>1078.74</ele>
        <time>2023-07-08T10:25:37Z</time>
      </trkpt>
      <trkpt lat="45.12981" lon="4.38838">
        <ele>1078.74</ele>
        <time>2023-07-08T10:25:54Z</time>
      </trkpt>
      <trkpt lat="45.12973" lon="4.38865">
        <ele>1079.7</ele>
        <time>2023-07-08T10:26:12Z</time>
      </trkpt>
      <trkpt lat="45.12972" lon="4.38864">
        <ele>1082.58</ele>
        <time>2023-07-08T10:26:31Z</time>
      </trkpt>
      <trkpt lat="45.12971" lon="4.38863">
        <ele>1083.06</ele>
        <time>2023-07-08T10:26:46Z</time>
      </trkpt>
      <trkpt lat="45.12965" lon="4.38861">
        <ele>1084.5</ele>
        <time>2023-07-08T10:27:05Z</time>
      </trkpt>
      <trkpt lat="45.1296" lon="4.3886">
        <ele>1080.18</ele>
        <time>2023-07-08T10:27:18Z</time>
      </trkpt>
      <trkpt lat="45.12959" lon="4.38859">
        <ele>1079.7</ele>
        <time>2023-07-08T10:27:19Z</time>
      </trkpt>
      <trkpt lat="45.12957" lon="4.3885">
        <ele>1078.74</ele>
        <time>2023-07-08T10:27:31Z</time>
      </trkpt>
      <trkpt lat="45.12958" lon="4.3885">
        <ele>1081.62</ele>
        <time>2023-07-08T10:27:53Z</time>
      </trkpt>
      <trkpt lat="45.12959" lon="4.38847">
        <ele>1079.22</ele>
        <time>2023-07-08T10:28:12Z</time>
      </trkpt>
      <trkpt lat="45.12958" lon="4.38842">
        <ele>1078.74</ele>
        <time>2023-07-08T10:28:31Z</time>
      </trkpt>
      <trkpt lat="45.12959" lon="4.38832">
        <ele>1077.29</ele>
        <time>2023-07-08T10:28:42Z</time>
      </trkpt>
      <trkpt lat="45.1296" lon="4.38805">
        <ele>1074.41</ele>
        <time>2023-07-08T10:28:57Z</time>
      </trkpt>
      <trkpt lat="45.12958" lon="4.38783">
        <ele>1072.97</ele>
        <time>2023-07-08T10:29:10Z</time>
      </trkpt>
      <trkpt lat="45.12958" lon="4.38762">
        <ele>1072.49</ele>
        <time>2023-07-08T10:29:24Z</time>
      </trkpt>
      <trkpt lat="45.12957" lon="4.38766">
        <ele>1072.49</ele>
        <time>2023-07-08T10:29:42Z</time>
      </trkpt>
      <trkpt lat="45.12955" lon="4.38768">
        <ele>1072.97</ele>
        <time>2023-07-08T10:29:49Z</time>
      </trkpt>
      <trkpt lat="45.12959" lon="4.388">
        <ele>1074.89</ele>
        <time>2023-07-08T10:30:06Z</time>
      </trkpt>
      <trkpt lat="45.12957" lon="4.38826">
        <ele>1074.89</ele>
        <time>2023-07-08T10:30:19Z</time>
      </trkpt>
      <trkpt lat="45.12956" lon="4.38832">
        <ele>1074.41</ele>
        <time>2023-07-08T10:30:28Z</time>
      </trkpt>
      <trkpt lat="45.12952" lon="4.38834">
        <ele>1073.45</ele>
        <time>2023-07-08T10:30:33Z</time>
      </trkpt>
      <trkpt lat="45.12938" lon="4.38829">
        <ele>1072.49</ele>
        <time>2023-07-08T10:30:43Z</time>
      </trkpt>
      <trkpt lat="45.12935" lon="4.3882">
        <ele>1072.01</ele>
        <time>2023-07-08T10:30:48Z</time>
      </trkpt>
      <trkpt lat="45.12932" lon="4.3881">
        <ele>1071.05</ele>
        <time>2023-07-08T10:30:55Z</time>
      </trkpt>
      <trkpt lat="45.1292" lon="4.38794">
        <ele>1069.12</ele>
        <time>2023-07-08T10:31:06Z</time>
      </trkpt>
      <trkpt lat="45.12905" lon="4.38788">
        <ele>1066.24</ele>
        <time>2023-07-08T10:31:18Z</time>
      </trkpt>
      <trkpt lat="45.12888" lon="4.38782">
        <ele>1064.32</ele>
        <time>2023-07-08T10:31:32Z</time>
      </trkpt>
      <trkpt lat="45.12872" lon="4.38811">
        <ele>1064.32</ele>
        <time>2023-07-08T10:31:49Z</time>
      </trkpt>
      <trkpt lat="45.12854" lon="4.38844">
        <ele>1064.32</ele>
        <time>2023-07-08T10:32:06Z</time>
      </trkpt>
      <trkpt lat="45.12836" lon="4.3887">
        <ele>1065.28</ele>
        <time>2023-07-08T10:32:21Z</time>
      </trkpt>
      <trkpt lat="45.12834" lon="4.38875">
        <ele>1066.24</ele>
        <time>2023-07-08T10:32:24Z</time>
      </trkpt>
      <trkpt lat="45.12847" lon="4.389">
        <ele>1066.72</ele>
        <time>2023-07-08T10:32:38Z</time>
      </trkpt>
      <trkpt lat="45.12876" lon="4.38923">
        <ele>1069.12</ele>
        <time>2023-07-08T10:32:54Z</time>
      </trkpt>
      <trkpt lat="45.12894" lon="4.38939">
        <ele>1070.57</ele>
        <time>2023-07-08T10:33:08Z</time>
      </trkpt>
      <trkpt lat="45.12912" lon="4.38959">
        <ele>1070.08</ele>
        <time>2023-07-08T10:33:16Z</time>
      </trkpt>
      <trkpt lat="45.12936" lon="4.39006">
        <ele>1069.12</ele>
        <time>2023-07-08T10:33:27Z</time>
      </trkpt>
      <trkpt lat="45.12932" lon="4.39005">
        <ele>1073.45</ele>
        <time>2023-07-08T10:33:42Z</time>
      </trkpt>
      <trkpt lat="45.12933" lon="4.39009">
        <ele>1078.26</ele>
        <time>2023-07-08T10:33:50Z</time>
      </trkpt>
      <trkpt lat="45.12933" lon="4.39048">
        <ele>1079.22</ele>
        <time>2023-07-08T10:34:07Z</time>
      </trkpt>
      <trkpt lat="45.12934" lon="4.39084">
        <ele>1079.7</ele>
        <time>2023-07-08T10:34:24Z</time>
      </trkpt>
      <trkpt lat="45.12939" lon="4.39118">
        <ele>1079.7</ele>
        <time>2023-07-08T10:34:40Z</time>
      </trkpt>
      <trkpt lat="45.1294" lon="4.39138">
        <ele>1079.7</ele>
        <time>2023-07-08T10:34:48Z</time>
      </trkpt>
      <trkpt lat="45.1294" lon="4.3914">
        <ele>1079.7</ele>
        <time>2023-07-08T10:34:49Z</time>
      </trkpt>
      <trkpt lat="45.12941" lon="4.39142">
        <ele>1079.7</ele>
        <time>2023-07-08T10:34:50Z</time>
      </trkpt>
      <trkpt lat="45.12941" lon="4.39145">
        <ele>1079.7</ele>
        <time>2023-07-08T10:34:51Z</time>
      </trkpt>
      <trkpt lat="45.12942" lon="4.39146">
        <ele>1079.7</ele>
        <time>2023-07-08T10:34:52Z</time>
      </trkpt>
      <trkpt lat="45.1296" lon="4.39177">
        <ele>1081.14</ele>
        <time>2023-07-08T10:35:09Z</time>
      </trkpt>
      <trkpt lat="45.12974" lon="4.39208">
        <ele>1082.1</ele>
        <time>2023-07-08T10:35:24Z</time>
      </trkpt>
      <trkpt lat="45.12982" lon="4.39241">
        <ele>1083.06</ele>
        <time>2023-07-08T10:35:41Z</time>
      </trkpt>
      <trkpt lat="45.12996" lon="4.3927">
        <ele>1084.5</ele>
        <time>2023-07-08T10:35:58Z</time>
      </trkpt>
      <trkpt lat="45.13017" lon="4.39293">
        <ele>1085.95</ele>
        <time>2023-07-08T10:36:15Z</time>
      </trkpt>
      <trkpt lat="45.13036" lon="4.39327">
        <ele>1088.83</ele>
        <time>2023-07-08T10:36:35Z</time>
      </trkpt>
      <trkpt lat="45.13053" lon="4.39356">
        <ele>1091.71</ele>
        <time>2023-07-08T10:36:53Z</time>
      </trkpt>
      <trkpt lat="45.13053" lon="4.39358">
        <ele>1092.2</ele>
        <time>2023-07-08T10:36:54Z</time>
      </trkpt>
      <trkpt lat="45.13053" lon="4.3936">
        <ele>1092.68</ele>
        <time>2023-07-08T10:36:55Z</time>
      </trkpt>
      <trkpt lat="45.13052" lon="4.39363">
        <ele>1093.16</ele>
        <time>2023-07-08T10:36:56Z</time>
      </trkpt>
      <trkpt lat="45.13051" lon="4.39365">
        <ele>1093.64</ele>
        <time>2023-07-08T10:36:57Z</time>
      </trkpt>
      <trkpt lat="45.13051" lon="4.39368">
        <ele>1094.12</ele>
        <time>2023-07-08T10:36:58Z</time>
      </trkpt>
      <trkpt lat="45.1305" lon="4.3937">
        <ele>1094.6</ele>
        <time>2023-07-08T10:36:59Z</time>
      </trkpt>
      <trkpt lat="45.13032" lon="4.39388">
        <ele>1098.44</ele>
        <time>2023-07-08T10:37:15Z</time>
      </trkpt>
      <trkpt lat="45.13009" lon="4.39393">
        <ele>1097</ele>
        <time>2023-07-08T10:37:30Z</time>
      </trkpt>
      <trkpt lat="45.12978" lon="4.39399">
        <ele>1092.2</ele>
        <time>2023-07-08T10:37:49Z</time>
      </trkpt>
      <trkpt lat="45.12952" lon="4.394">
        <ele>1093.16</ele>
        <time>2023-07-08T10:38:05Z</time>
      </trkpt>
      <trkpt lat="45.12924" lon="4.39402">
        <ele>1093.64</ele>
        <time>2023-07-08T10:38:22Z</time>
      </trkpt>
      <trkpt lat="45.12897" lon="4.39403">
        <ele>1094.12</ele>
        <time>2023-07-08T10:38:39Z</time>
      </trkpt>
      <trkpt lat="45.12869" lon="4.39407">
        <ele>1090.27</ele>
        <time>2023-07-08T10:38:58Z</time>
      </trkpt>
      <trkpt lat="45.12856" lon="4.39409">
        <ele>1088.35</ele>
        <time>2023-07-08T10:39:08Z</time>
      </trkpt>
      <trkpt lat="45.12853" lon="4.39409">
        <ele>1087.87</ele>
        <time>2023-07-08T10:39:10Z</time>
      </trkpt>
      <trkpt lat="45.12826" lon="4.39418">
        <ele>1086.91</ele>
        <time>2023-07-08T10:39:24Z</time>
      </trkpt>
      <trkpt lat="45.12825" lon="4.39419">
        <ele>1086.91</ele>
        <time>2023-07-08T10:39:25Z</time>
      </trkpt>
      <trkpt lat="45.12824" lon="4.39421">
        <ele>1086.91</ele>
        <time>2023-07-08T10:39:26Z</time>
      </trkpt>
      <trkpt lat="45.12824" lon="4.39423">
        <ele>1086.91</ele>
        <time>2023-07-08T10:39:27Z</time>
      </trkpt>
      <trkpt lat="45.12823" lon="4.39425">
        <ele>1086.91</ele>
        <time>2023-07-08T10:39:28Z</time>
      </trkpt>
      <trkpt lat="45.12822" lon="4.39427">
        <ele>1086.43</ele>
        <time>2023-07-08T10:39:29Z</time>
      </trkpt>
      <trkpt lat="45.12821" lon="4.39429">
        <ele>1086.43</ele>
        <time>2023-07-08T10:39:30Z</time>
      </trkpt>
      <trkpt lat="45.12808" lon="4.39462">
        <ele>1086.91</ele>
        <time>2023-07-08T10:39:46Z</time>
      </trkpt>
      <trkpt lat="45.12797" lon="4.39491">
        <ele>1087.87</ele>
        <time>2023-07-08T10:39:56Z</time>
      </trkpt>
      <trkpt lat="45.12783" lon="4.39521">
        <ele>1085.95</ele>
        <time>2023-07-08T10:40:13Z</time>
      </trkpt>
      <trkpt lat="45.12774" lon="4.39548">
        <ele>1083.54</ele>
        <time>2023-07-08T10:40:26Z</time>
      </trkpt>
      <trkpt lat="45.12762" lon="4.39584">
        <ele>1082.58</ele>
        <time>2023-07-08T10:40:32Z</time>
      </trkpt>
      <trkpt lat="45.12759" lon="4.39589">
        <ele>1082.1</ele>
        <time>2023-07-08T10:40:33Z</time>
      </trkpt>
      <trkpt lat="45.12753" lon="4.39616">
        <ele>1081.14</ele>
        <time>2023-07-08T10:40:42Z</time>
      </trkpt>
      <trkpt lat="45.12751" lon="4.39631">
        <ele>1087.39</ele>
        <time>2023-07-08T10:40:52Z</time>
      </trkpt>
      <trkpt lat="45.12751" lon="4.39633">
        <ele>1088.35</ele>
        <time>2023-07-08T10:40:53Z</time>
      </trkpt>
      <trkpt lat="45.12757" lon="4.39645">
        <ele>1093.64</ele>
        <time>2023-07-08T10:41:02Z</time>
      </trkpt>
      <trkpt lat="45.12773" lon="4.39661">
        <ele>1097</ele>
        <time>2023-07-08T10:41:18Z</time>
      </trkpt>
      <trkpt lat="45.12785" lon="4.39671">
        <ele>1099.4</ele>
        <time>2023-07-08T10:41:30Z</time>
      </trkpt>
      <trkpt lat="45.12777" lon="4.39669">
        <ele>1097</ele>
        <time>2023-07-08T10:41:43Z</time>
      </trkpt>
      <trkpt lat="45.1277" lon="4.39667">
        <ele>1097</ele>
        <time>2023-07-08T10:41:59Z</time>
      </trkpt>
      <trkpt lat="45.12755" lon="4.3966">
        <ele>1092.2</ele>
        <time>2023-07-08T10:42:16Z</time>
      </trkpt>
      <trkpt lat="45.12751" lon="4.39658">
        <ele>1091.23</ele>
        <time>2023-07-08T10:42:19Z</time>
      </trkpt>
      <trkpt lat="45.12734" lon="4.3965">
        <ele>1088.83</ele>
        <time>2023-07-08T10:42:33Z</time>
      </trkpt>
      <trkpt lat="45.1272" lon="4.3964">
        <ele>1086.43</ele>
        <time>2023-07-08T10:42:45Z</time>
      </trkpt>
      <trkpt lat="45.12698" lon="4.39627">
        <ele>1083.54</ele>
        <time>2023-07-08T10:43:01Z</time>
      </trkpt>
      <trkpt lat="45.12683" lon="4.39614">
        <ele>1080.18</ele>
        <time>2023-07-08T10:43:16Z</time>
      </trkpt>
      <trkpt lat="45.12673" lon="4.39596">
        <ele>1080.66</ele>
        <time>2023-07-08T10:43:26Z</time>
      </trkpt>
      <trkpt lat="45.12661" lon="4.39571">
        <ele>1079.22</ele>
        <time>2023-07-08T10:43:40Z</time>
      </trkpt>
      <trkpt lat="45.12647" lon="4.39548">
        <ele>1075.85</ele>
        <time>2023-07-08T10:43:56Z</time>
      </trkpt>
      <trkpt lat="45.12646" lon="4.39546">
        <ele>1075.85</ele>
        <time>2023-07-08T10:43:57Z</time>
      </trkpt>
      <trkpt lat="45.12644" lon="4.39545">
        <ele>1075.37</ele>
        <time>2023-07-08T10:43:58Z</time>
      </trkpt>
      <trkpt lat="45.12642" lon="4.39544">
        <ele>1074.89</ele>
        <time>2023-07-08T10:43:59Z</time>
      </trkpt>
      <trkpt lat="45.12623" lon="4.39529">
        <ele>1072.49</ele>
        <time>2023-07-08T10:44:11Z</time>
      </trkpt>
      <trkpt lat="45.12605" lon="4.39519">
        <ele>1068.16</ele>
        <time>2023-07-08T10:44:25Z</time>
      </trkpt>
      <trkpt lat="45.12585" lon="4.39509">
        <ele>1065.76</ele>
        <time>2023-07-08T10:44:40Z</time>
      </trkpt>
      <trkpt lat="45.12573" lon="4.3951">
        <ele>1063.84</ele>
        <time>2023-07-08T10:44:50Z</time>
      </trkpt>
      <trkpt lat="45.12571" lon="4.39511">
        <ele>1063.36</ele>
        <time>2023-07-08T10:44:51Z</time>
      </trkpt>
      <trkpt lat="45.12569" lon="4.39512">
        <ele>1063.36</ele>
        <time>2023-07-08T10:44:52Z</time>
      </trkpt>
      <trkpt lat="45.12567" lon="4.39513">
        <ele>1062.87</ele>
        <time>2023-07-08T10:44:53Z</time>
      </trkpt>
      <trkpt lat="45.12565" lon="4.39514">
        <ele>1062.39</ele>
        <time>2023-07-08T10:44:54Z</time>
      </trkpt>
      <trkpt lat="45.12547" lon="4.39517">
        <ele>1057.11</ele>
        <time>2023-07-08T10:45:07Z</time>
      </trkpt>
      <trkpt lat="45.12529" lon="4.39495">
        <ele>1054.7</ele>
        <time>2023-07-08T10:45:20Z</time>
      </trkpt>
      <trkpt lat="45.12511" lon="4.39486">
        <ele>1057.11</ele>
        <time>2023-07-08T10:45:35Z</time>
      </trkpt>
      <trkpt lat="45.12508" lon="4.39483">
        <ele>1058.07</ele>
        <time>2023-07-08T10:45:39Z</time>
      </trkpt>
      <trkpt lat="45.12498" lon="4.39479">
        <ele>1059.51</ele>
        <time>2023-07-08T10:45:43Z</time>
      </trkpt>
      <trkpt lat="45.12455" lon="4.39431">
        <ele>1065.28</ele>
        <time>2023-07-08T10:45:57Z</time>
      </trkpt>
      <trkpt lat="45.12432" lon="4.39394">
        <ele>1068.16</ele>
        <time>2023-07-08T10:46:07Z</time>
      </trkpt>
      <trkpt lat="45.12371" lon="4.39341">
        <ele>1074.89</ele>
        <time>2023-07-08T10:46:21Z</time>
      </trkpt>
      <trkpt lat="45.12338" lon="4.39299">
        <ele>1072.97</ele>
        <time>2023-07-08T10:46:30Z</time>
      </trkpt>
      <trkpt lat="45.1232" lon="4.39266">
        <ele>1070.57</ele>
        <time>2023-07-08T10:46:35Z</time>
      </trkpt>
      <trkpt lat="45.12317" lon="4.39259">
        <ele>1070.08</ele>
        <time>2023-07-08T10:46:36Z</time>
      </trkpt>
      <trkpt lat="45.12316" lon="4.39251">
        <ele>1070.08</ele>
        <time>2023-07-08T10:46:37Z</time>
      </trkpt>
      <trkpt lat="45.12316" lon="4.39243">
        <ele>1069.6</ele>
        <time>2023-07-08T10:46:38Z</time>
      </trkpt>
      <trkpt lat="45.12316" lon="4.39236">
        <ele>1069.6</ele>
        <time>2023-07-08T10:46:39Z</time>
      </trkpt>
      <trkpt lat="45.12318" lon="4.39232">
        <ele>1069.6</ele>
        <time>2023-07-08T10:46:40Z</time>
      </trkpt>
      <trkpt lat="45.12321" lon="4.39229">
        <ele>1069.6</ele>
        <time>2023-07-08T10:46:41Z</time>
      </trkpt>
      <trkpt lat="45.12325" lon="4.39226">
        <ele>1069.12</ele>
        <time>2023-07-08T10:46:42Z</time>
      </trkpt>
      <trkpt lat="45.12329" lon="4.39223">
        <ele>1068.64</ele>
        <time>2023-07-08T10:46:43Z</time>
      </trkpt>
      <trkpt lat="45.12354" lon="4.39202">
        <ele>1065.28</ele>
        <time>2023-07-08T10:46:49Z</time>
      </trkpt>
      <trkpt lat="45.12371" lon="4.39166">
        <ele>1060.95</ele>
        <time>2023-07-08T10:46:56Z</time>
      </trkpt>
      <trkpt lat="45.12373" lon="4.3916">
        <ele>1059.99</ele>
        <time>2023-07-08T10:46:57Z</time>
      </trkpt>
      <trkpt lat="45.12374" lon="4.39154">
        <ele>1059.03</ele>
        <time>2023-07-08T10:46:58Z</time>
      </trkpt>
      <trkpt lat="45.1238" lon="4.39102">
        <ele>1048.94</ele>
        <time>2023-07-08T10:47:10Z</time>
      </trkpt>
      <trkpt lat="45.12379" lon="4.39091">
        <ele>1046.53</ele>
        <time>2023-07-08T10:47:13Z</time>
      </trkpt>
      <trkpt lat="45.12377" lon="4.39088">
        <ele>1046.05</ele>
        <time>2023-07-08T10:47:14Z</time>
      </trkpt>
      <trkpt lat="45.12375" lon="4.39084">
        <ele>1045.57</ele>
        <time>2023-07-08T10:47:15Z</time>
      </trkpt>
      <trkpt lat="45.12374" lon="4.39081">
        <ele>1045.09</ele>
        <time>2023-07-08T10:47:16Z</time>
      </trkpt>
      <trkpt lat="45.12372" lon="4.39077">
        <ele>1044.61</ele>
        <time>2023-07-08T10:47:17Z</time>
      </trkpt>
      <trkpt lat="45.1237" lon="4.39073">
        <ele>1043.65</ele>
        <time>2023-07-08T10:47:18Z</time>
      </trkpt>
      <trkpt lat="45.12361" lon="4.3903">
        <ele>1034.52</ele>
        <time>2023-07-08T10:47:30Z</time>
      </trkpt>
      <trkpt lat="45.12382" lon="4.38978">
        <ele>1029.71</ele>
        <time>2023-07-08T10:47:42Z</time>
      </trkpt>
      <trkpt lat="45.12381" lon="4.3892">
        <ele>1043.17</ele>
        <time>2023-07-08T10:47:55Z</time>
      </trkpt>
      <trkpt lat="45.12381" lon="4.38917">
        <ele>1044.13</ele>
        <time>2023-07-08T10:47:56Z</time>
      </trkpt>
      <trkpt lat="45.12389" lon="4.38885">
        <ele>1045.57</ele>
        <time>2023-07-08T10:48:12Z</time>
      </trkpt>
      <trkpt lat="45.12396" lon="4.38856">
        <ele>1041.73</ele>
        <time>2023-07-08T10:48:27Z</time>
      </trkpt>
      <trkpt lat="45.12408" lon="4.38826">
        <ele>1039.32</ele>
        <time>2023-07-08T10:48:44Z</time>
      </trkpt>
      <trkpt lat="45.12409" lon="4.38824">
        <ele>1039.32</ele>
        <time>2023-07-08T10:48:45Z</time>
      </trkpt>
      <trkpt lat="45.1241" lon="4.38822">
        <ele>1039.8</ele>
        <time>2023-07-08T10:48:46Z</time>
      </trkpt>
      <trkpt lat="45.1241" lon="4.3882">
        <ele>1039.8</ele>
        <time>2023-07-08T10:48:47Z</time>
      </trkpt>
      <trkpt lat="45.12411" lon="4.38819">
        <ele>1040.28</ele>
        <time>2023-07-08T10:48:48Z</time>
      </trkpt>
      <trkpt lat="45.12429" lon="4.38796">
        <ele>1043.65</ele>
        <time>2023-07-08T10:49:03Z</time>
      </trkpt>
      <trkpt lat="45.12443" lon="4.38768">
        <ele>1041.25</ele>
        <time>2023-07-08T10:49:19Z</time>
      </trkpt>
      <trkpt lat="45.12458" lon="4.38737">
        <ele>1038.36</ele>
        <time>2023-07-08T10:49:36Z</time>
      </trkpt>
      <trkpt lat="45.12465" lon="4.3872">
        <ele>1036.92</ele>
        <time>2023-07-08T10:49:44Z</time>
      </trkpt>
      <trkpt lat="45.12482" lon="4.38691">
        <ele>1041.25</ele>
        <time>2023-07-08T10:50:01Z</time>
      </trkpt>
      <trkpt lat="45.1249" lon="4.38684">
        <ele>1042.69</ele>
        <time>2023-07-08T10:50:18Z</time>
      </trkpt>
      <trkpt lat="45.12486" lon="4.38692">
        <ele>1042.21</ele>
        <time>2023-07-08T10:50:23Z</time>
      </trkpt>
      <trkpt lat="45.12475" lon="4.38723">
        <ele>1044.61</ele>
        <time>2023-07-08T10:50:39Z</time>
      </trkpt>
      <trkpt lat="45.12462" lon="4.38746">
        <ele>1045.09</ele>
        <time>2023-07-08T10:50:51Z</time>
      </trkpt>
      <trkpt lat="45.12446" lon="4.38771">
        <ele>1045.57</ele>
        <time>2023-07-08T10:51:05Z</time>
      </trkpt>
      <trkpt lat="45.12424" lon="4.388">
        <ele>1046.53</ele>
        <time>2023-07-08T10:51:21Z</time>
      </trkpt>
      <trkpt lat="45.12411" lon="4.38828">
        <ele>1047.97</ele>
        <time>2023-07-08T10:51:36Z</time>
      </trkpt>
      <trkpt lat="45.12408" lon="4.38828">
        <ele>1047.01</ele>
        <time>2023-07-08T10:51:44Z</time>
      </trkpt>
      <trkpt lat="45.12409" lon="4.3881">
        <ele>1048.45</ele>
        <time>2023-07-08T10:51:53Z</time>
      </trkpt>
      <trkpt lat="45.12413" lon="4.38801">
        <ele>1048.94</ele>
        <time>2023-07-08T10:51:58Z</time>
      </trkpt>
      <trkpt lat="45.12418" lon="4.38765">
        <ele>1049.42</ele>
        <time>2023-07-08T10:52:14Z</time>
      </trkpt>
      <trkpt lat="45.12423" lon="4.38734">
        <ele>1052.3</ele>
        <time>2023-07-08T10:52:28Z</time>
      </trkpt>
      <trkpt lat="45.12424" lon="4.38696">
        <ele>1052.3</ele>
        <time>2023-07-08T10:52:45Z</time>
      </trkpt>
      <trkpt lat="45.12425" lon="4.38674">
        <ele>1053.74</ele>
        <time>2023-07-08T10:52:56Z</time>
      </trkpt>
      <trkpt lat="45.12425" lon="4.3866">
        <ele>1055.18</ele>
        <time>2023-07-08T10:53:02Z</time>
      </trkpt>
      <trkpt lat="45.12422" lon="4.38643">
        <ele>1057.11</ele>
        <time>2023-07-08T10:53:09Z</time>
      </trkpt>
      <trkpt lat="45.12423" lon="4.38632">
        <ele>1059.03</ele>
        <time>2023-07-08T10:53:15Z</time>
      </trkpt>
      <trkpt lat="45.12423" lon="4.38607">
        <ele>1062.87</ele>
        <time>2023-07-08T10:53:29Z</time>
      </trkpt>
      <trkpt lat="45.12418" lon="4.38579">
        <ele>1064.8</ele>
        <time>2023-07-08T10:53:43Z</time>
      </trkpt>
      <trkpt lat="45.12409" lon="4.38542">
        <ele>1065.28</ele>
        <time>2023-07-08T10:53:59Z</time>
      </trkpt>
      <trkpt lat="45.12404" lon="4.38505">
        <ele>1067.2</ele>
        <time>2023-07-08T10:54:15Z</time>
      </trkpt>
      <trkpt lat="45.12404" lon="4.38466">
        <ele>1069.12</ele>
        <time>2023-07-08T10:54:32Z</time>
      </trkpt>
      <trkpt lat="45.12405" lon="4.38462">
        <ele>1069.12</ele>
        <time>2023-07-08T10:54:34Z</time>
      </trkpt>
      <trkpt lat="45.12405" lon="4.38446">
        <ele>1072.01</ele>
        <time>2023-07-08T10:54:41Z</time>
      </trkpt>
      <trkpt lat="45.12405" lon="4.38429">
        <ele>1073.93</ele>
        <time>2023-07-08T10:54:49Z</time>
      </trkpt>
      <trkpt lat="45.12404" lon="4.38421">
        <ele>1074.41</ele>
        <time>2023-07-08T10:54:52Z</time>
      </trkpt>
      <trkpt lat="45.12408" lon="4.38405">
        <ele>1077.29</ele>
        <time>2023-07-08T10:55:00Z</time>
      </trkpt>
      <trkpt lat="45.12412" lon="4.38368">
        <ele>1079.22</ele>
        <time>2023-07-08T10:55:16Z</time>
      </trkpt>
      <trkpt lat="45.1241" lon="4.38325">
        <ele>1077.78</ele>
        <time>2023-07-08T10:55:32Z</time>
      </trkpt>
      <trkpt lat="45.1241" lon="4.38317">
        <ele>1077.29</ele>
        <time>2023-07-08T10:55:35Z</time>
      </trkpt>
      <trkpt lat="45.12413" lon="4.38286">
        <ele>1073.93</ele>
        <time>2023-07-08T10:55:50Z</time>
      </trkpt>
      <trkpt lat="45.12414" lon="4.38256">
        <ele>1075.37</ele>
        <time>2023-07-08T10:56:04Z</time>
      </trkpt>
      <trkpt lat="45.12413" lon="4.38223">
        <ele>1078.74</ele>
        <time>2023-07-08T10:56:21Z</time>
      </trkpt>
      <trkpt lat="45.12407" lon="4.38197">
        <ele>1079.22</ele>
        <time>2023-07-08T10:56:36Z</time>
      </trkpt>
      <trkpt lat="45.12403" lon="4.38187">
        <ele>1078.74</ele>
        <time>2023-07-08T10:56:41Z</time>
      </trkpt>
      <trkpt lat="45.12393" lon="4.38168">
        <ele>1077.29</ele>
        <time>2023-07-08T10:56:49Z</time>
      </trkpt>
      <trkpt lat="45.12373" lon="4.38138">
        <ele>1075.37</ele>
        <time>2023-07-08T10:57:07Z</time>
      </trkpt>
      <trkpt lat="45.12351" lon="4.38113">
        <ele>1072.49</ele>
        <time>2023-07-08T10:57:24Z</time>
      </trkpt>
      <trkpt lat="45.12337" lon="4.3809">
        <ele>1074.89</ele>
        <time>2023-07-08T10:57:39Z</time>
      </trkpt>
      <trkpt lat="45.12327" lon="4.38062">
        <ele>1074.41</ele>
        <time>2023-07-08T10:57:54Z</time>
      </trkpt>
      <trkpt lat="45.12318" lon="4.38036">
        <ele>1074.89</ele>
        <time>2023-07-08T10:58:09Z</time>
      </trkpt>
      <trkpt lat="45.12316" lon="4.38029">
        <ele>1074.41</ele>
        <time>2023-07-08T10:58:13Z</time>
      </trkpt>
      <trkpt lat="45.12303" lon="4.37997">
        <ele>1071.53</ele>
        <time>2023-07-08T10:58:32Z</time>
      </trkpt>
      <trkpt lat="45.12298" lon="4.37969">
        <ele>1070.57</ele>
        <time>2023-07-08T10:58:48Z</time>
      </trkpt>
      <trkpt lat="45.12291" lon="4.3795">
        <ele>1071.05</ele>
        <time>2023-07-08T10:59:07Z</time>
      </trkpt>
      <trkpt lat="45.12289" lon="4.37947">
        <ele>1066.72</ele>
        <time>2023-07-08T10:59:36Z</time>
      </trkpt>
      <trkpt lat="45.1229" lon="4.37943">
        <ele>1066.24</ele>
        <time>2023-07-08T11:00:00Z</time>
      </trkpt>
      <trkpt lat="45.1229" lon="4.37945">
        <ele>1068.64</ele>
        <time>2023-07-08T11:00:29Z</time>
      </trkpt>
      <trkpt lat="45.12288" lon="4.37938">
        <ele>1069.12</ele>
        <time>2023-07-08T11:00:52Z</time>
      </trkpt>
      <trkpt lat="45.12286" lon="4.37902">
        <ele>1068.64</ele>
        <time>2023-07-08T11:01:13Z</time>
      </trkpt>
      <trkpt lat="45.12282" lon="4.37863">
        <ele>1068.16</ele>
        <time>2023-07-08T11:01:33Z</time>
      </trkpt>
      <trkpt lat="45.12274" lon="4.3781">
        <ele>1067.68</ele>
        <time>2023-07-08T11:01:57Z</time>
      </trkpt>
      <trkpt lat="45.12257" lon="4.37775">
        <ele>1070.08</ele>
        <time>2023-07-08T11:02:17Z</time>
      </trkpt>
      <trkpt lat="45.12247" lon="4.37762">
        <ele>1070.08</ele>
        <time>2023-07-08T11:02:32Z</time>
      </trkpt>
      <trkpt lat="45.12246" lon="4.37765">
        <ele>1069.6</ele>
        <time>2023-07-08T11:02:37Z</time>
      </trkpt>
      <trkpt lat="45.12217" lon="4.37764">
        <ele>1068.64</ele>
        <time>2023-07-08T11:02:58Z</time>
      </trkpt>
      <trkpt lat="45.12189" lon="4.37771">
        <ele>1069.6</ele>
        <time>2023-07-08T11:03:18Z</time>
      </trkpt>
      <trkpt lat="45.12162" lon="4.37767">
        <ele>1068.64</ele>
        <time>2023-07-08T11:03:37Z</time>
      </trkpt>
      <trkpt lat="45.1214" lon="4.37763">
        <ele>1066.24</ele>
        <time>2023-07-08T11:03:54Z</time>
      </trkpt>
      <trkpt lat="45.12123" lon="4.37773">
        <ele>1065.76</ele>
        <time>2023-07-08T11:04:08Z</time>
      </trkpt>
      <trkpt lat="45.12102" lon="4.37786">
        <ele>1066.72</ele>
        <time>2023-07-08T11:04:23Z</time>
      </trkpt>
      <trkpt lat="45.12074" lon="4.37798">
        <ele>1069.6</ele>
        <time>2023-07-08T11:04:41Z</time>
      </trkpt>
      <trkpt lat="45.12042" lon="4.37809">
        <ele>1070.08</ele>
        <time>2023-07-08T11:05:01Z</time>
      </trkpt>
      <trkpt lat="45.12016" lon="4.3781">
        <ele>1070.08</ele>
        <time>2023-07-08T11:05:17Z</time>
      </trkpt>
      <trkpt lat="45.1198" lon="4.37813">
        <ele>1071.05</ele>
        <time>2023-07-08T11:05:40Z</time>
      </trkpt>
      <trkpt lat="45.11951" lon="4.37818">
        <ele>1068.64</ele>
        <time>2023-07-08T11:06:00Z</time>
      </trkpt>
      <trkpt lat="45.11924" lon="4.37821">
        <ele>1067.68</ele>
        <time>2023-07-08T11:06:20Z</time>
      </trkpt>
      <trkpt lat="45.119" lon="4.37825">
        <ele>1065.76</ele>
        <time>2023-07-08T11:06:36Z</time>
      </trkpt>
      <trkpt lat="45.11899" lon="4.37823">
        <ele>1065.76</ele>
        <time>2023-07-08T11:06:37Z</time>
      </trkpt>
      <trkpt lat="45.11899" lon="4.37822">
        <ele>1065.76</ele>
        <time>2023-07-08T11:06:38Z</time>
      </trkpt>
      <trkpt lat="45.11899" lon="4.37821">
        <ele>1065.76</ele>
        <time>2023-07-08T11:06:39Z</time>
      </trkpt>
      <trkpt lat="45.119" lon="4.37819">
        <ele>1065.76</ele>
        <time>2023-07-08T11:06:40Z</time>
      </trkpt>
      <trkpt lat="45.119" lon="4.37817">
        <ele>1065.28</ele>
        <time>2023-07-08T11:06:41Z</time>
      </trkpt>
      <trkpt lat="45.11901" lon="4.37814">
        <ele>1065.28</ele>
        <time>2023-07-08T11:06:42Z</time>
      </trkpt>
      <trkpt lat="45.11901" lon="4.37812">
        <ele>1064.8</ele>
        <time>2023-07-08T11:06:43Z</time>
      </trkpt>
      <trkpt lat="45.119" lon="4.37775">
        <ele>1062.87</ele>
        <time>2023-07-08T11:07:00Z</time>
      </trkpt>
      <trkpt lat="45.11912" lon="4.37725">
        <ele>1059.99</ele>
        <time>2023-07-08T11:07:24Z</time>
      </trkpt>
      <trkpt lat="45.11932" lon="4.37691">
        <ele>1057.11</ele>
        <time>2023-07-08T11:07:44Z</time>
      </trkpt>
      <trkpt lat="45.11953" lon="4.37656">
        <ele>1055.18</ele>
        <time>2023-07-08T11:08:07Z</time>
      </trkpt>
      <trkpt lat="45.11968" lon="4.37643">
        <ele>1052.3</ele>
        <time>2023-07-08T11:08:23Z</time>
      </trkpt>
      <trkpt lat="45.11974" lon="4.3764">
        <ele>1050.86</ele>
        <time>2023-07-08T11:08:28Z</time>
      </trkpt>
      <trkpt lat="45.11975" lon="4.37639">
        <ele>1050.86</ele>
        <time>2023-07-08T11:08:29Z</time>
      </trkpt>
      <trkpt lat="45.11976" lon="4.37638">
        <ele>1050.38</ele>
        <time>2023-07-08T11:08:30Z</time>
      </trkpt>
      <trkpt lat="45.11977" lon="4.37637">
        <ele>1050.38</ele>
        <time>2023-07-08T11:08:31Z</time>
      </trkpt>
      <trkpt lat="45.11978" lon="4.37638">
        <ele>1049.9</ele>
        <time>2023-07-08T11:08:32Z</time>
      </trkpt>
      <trkpt lat="45.11979" lon="4.37638">
        <ele>1049.9</ele>
        <time>2023-07-08T11:08:33Z</time>
      </trkpt>
      <trkpt lat="45.11981" lon="4.37638">
        <ele>1049.42</ele>
        <time>2023-07-08T11:08:34Z</time>
      </trkpt>
      <trkpt lat="45.12003" lon="4.37638">
        <ele>1045.09</ele>
        <time>2023-07-08T11:08:50Z</time>
      </trkpt>
      <trkpt lat="45.12007" lon="4.37611">
        <ele>1042.69</ele>
        <time>2023-07-08T11:09:02Z</time>
      </trkpt>
      <trkpt lat="45.11999" lon="4.37577">
        <ele>1042.21</ele>
        <time>2023-07-08T11:09:17Z</time>
      </trkpt>
      <trkpt lat="45.11996" lon="4.37547">
        <ele>1044.13</ele>
        <time>2023-07-08T11:09:31Z</time>
      </trkpt>
      <trkpt lat="45.11996" lon="4.37515">
        <ele>1043.65</ele>
        <time>2023-07-08T11:09:46Z</time>
      </trkpt>
      <trkpt lat="45.12004" lon="4.37482">
        <ele>1043.65</ele>
        <time>2023-07-08T11:09:59Z</time>
      </trkpt>
      <trkpt lat="45.12001" lon="4.37454">
        <ele>1045.09</ele>
        <time>2023-07-08T11:10:12Z</time>
      </trkpt>
      <trkpt lat="45.11995" lon="4.3742">
        <ele>1046.53</ele>
        <time>2023-07-08T11:10:27Z</time>
      </trkpt>
      <trkpt lat="45.11986" lon="4.37391">
        <ele>1051.34</ele>
        <time>2023-07-08T11:10:41Z</time>
      </trkpt>
      <trkpt lat="45.11979" lon="4.37363">
        <ele>1055.67</ele>
        <time>2023-07-08T11:10:55Z</time>
      </trkpt>
      <trkpt lat="45.11979" lon="4.37362">
        <ele>1056.15</ele>
        <time>2023-07-08T11:10:56Z</time>
      </trkpt>
      <trkpt lat="45.11978" lon="4.3736">
        <ele>1056.15</ele>
        <time>2023-07-08T11:10:57Z</time>
      </trkpt>
      <trkpt lat="45.11978" lon="4.37357">
        <ele>1056.63</ele>
        <time>2023-07-08T11:10:58Z</time>
      </trkpt>
      <trkpt lat="45.11978" lon="4.37355">
        <ele>1057.11</ele>
        <time>2023-07-08T11:10:59Z</time>
      </trkpt>
      <trkpt lat="45.11978" lon="4.37353">
        <ele>1057.59</ele>
        <time>2023-07-08T11:11:00Z</time>
      </trkpt>
      <trkpt lat="45.11977" lon="4.37351">
        <ele>1057.59</ele>
        <time>2023-07-08T11:11:01Z</time>
      </trkpt>
      <trkpt lat="45.11971" lon="4.37324">
        <ele>1060.95</ele>
        <time>2023-07-08T11:11:13Z</time>
      </trkpt>
      <trkpt lat="45.11963" lon="4.37293">
        <ele>1064.32</ele>
        <time>2023-07-08T11:11:27Z</time>
      </trkpt>
      <trkpt lat="45.11961" lon="4.37262">
        <ele>1066.72</ele>
        <time>2023-07-08T11:11:40Z</time>
      </trkpt>
      <trkpt lat="45.11961" lon="4.37226">
        <ele>1069.6</ele>
        <time>2023-07-08T11:11:56Z</time>
      </trkpt>
      <trkpt lat="45.11962" lon="4.37192">
        <ele>1072.01</ele>
        <time>2023-07-08T11:12:10Z</time>
      </trkpt>
      <trkpt lat="45.11966" lon="4.37166">
        <ele>1073.45</ele>
        <time>2023-07-08T11:12:25Z</time>
      </trkpt>
      <trkpt lat="45.11962" lon="4.37136">
        <ele>1072.97</ele>
        <time>2023-07-08T11:12:41Z</time>
      </trkpt>
      <trkpt lat="45.11962" lon="4.37132">
        <ele>1073.45</ele>
        <time>2023-07-08T11:12:43Z</time>
      </trkpt>
      <trkpt lat="45.11962" lon="4.3713">
        <ele>1073.45</ele>
        <time>2023-07-08T11:12:44Z</time>
      </trkpt>
      <trkpt lat="45.11961" lon="4.37126">
        <ele>1073.93</ele>
        <time>2023-07-08T11:12:46Z</time>
      </trkpt>
      <trkpt lat="45.11952" lon="4.37101">
        <ele>1076.33</ele>
        <time>2023-07-08T11:12:58Z</time>
      </trkpt>
      <trkpt lat="45.11948" lon="4.37082">
        <ele>1077.78</ele>
        <time>2023-07-08T11:13:09Z</time>
      </trkpt>
      <trkpt lat="45.11943" lon="4.37053">
        <ele>1079.22</ele>
        <time>2023-07-08T11:13:25Z</time>
      </trkpt>
      <trkpt lat="45.11923" lon="4.37012">
        <ele>1080.66</ele>
        <time>2023-07-08T11:13:41Z</time>
      </trkpt>
      <trkpt lat="45.11913" lon="4.3698">
        <ele>1083.06</ele>
        <time>2023-07-08T11:13:56Z</time>
      </trkpt>
      <trkpt lat="45.11905" lon="4.36956">
        <ele>1079.22</ele>
        <time>2023-07-08T11:14:10Z</time>
      </trkpt>
      <trkpt lat="45.11896" lon="4.36928">
        <ele>1075.37</ele>
        <time>2023-07-08T11:14:24Z</time>
      </trkpt>
      <trkpt lat="45.11882" lon="4.36895">
        <ele>1072.97</ele>
        <time>2023-07-08T11:14:38Z</time>
      </trkpt>
      <trkpt lat="45.11864" lon="4.36866">
        <ele>1071.53</ele>
        <time>2023-07-08T11:14:53Z</time>
      </trkpt>
      <trkpt lat="45.11867" lon="4.36847">
        <ele>1070.57</ele>
        <time>2023-07-08T11:15:11Z</time>
      </trkpt>
      <trkpt lat="45.11871" lon="4.36811">
        <ele>1066.72</ele>
        <time>2023-07-08T11:15:26Z</time>
      </trkpt>
      <trkpt lat="45.1187" lon="4.36776">
        <ele>1065.76</ele>
        <time>2023-07-08T11:15:42Z</time>
      </trkpt>
      <trkpt lat="45.11868" lon="4.36771">
        <ele>1065.28</ele>
        <time>2023-07-08T11:16:04Z</time>
      </trkpt>
      <trkpt lat="45.11868" lon="4.36772">
        <ele>1063.84</ele>
        <time>2023-07-08T11:16:32Z</time>
      </trkpt>
      <trkpt lat="45.11866" lon="4.36769">
        <ele>1062.39</ele>
        <time>2023-07-08T11:16:50Z</time>
      </trkpt>
      <trkpt lat="45.1187" lon="4.36769">
        <ele>1063.84</ele>
        <time>2023-07-08T11:17:05Z</time>
      </trkpt>
      <trkpt lat="45.1187" lon="4.3677">
        <ele>1064.32</ele>
        <time>2023-07-08T11:17:22Z</time>
      </trkpt>
      <trkpt lat="45.11869" lon="4.36767">
        <ele>1064.8</ele>
        <time>2023-07-08T11:17:45Z</time>
      </trkpt>
      <trkpt lat="45.11868" lon="4.36773">
        <ele>1063.36</ele>
        <time>2023-07-08T11:18:04Z</time>
      </trkpt>
      <trkpt lat="45.1187" lon="4.36764">
        <ele>1065.76</ele>
        <time>2023-07-08T11:18:18Z</time>
      </trkpt>
      <trkpt lat="45.11871" lon="4.36761">
        <ele>1066.72</ele>
        <time>2023-07-08T11:18:40Z</time>
      </trkpt>
      <trkpt lat="45.11873" lon="4.36761">
        <ele>1067.2</ele>
        <time>2023-07-08T11:19:06Z</time>
      </trkpt>
      <trkpt lat="45.1187" lon="4.36762">
        <ele>1065.76</ele>
        <time>2023-07-08T11:19:22Z</time>
      </trkpt>
      <trkpt lat="45.11871" lon="4.36765">
        <ele>1061.91</ele>
        <time>2023-07-08T11:19:41Z</time>
      </trkpt>
      <trkpt lat="45.11873" lon="4.36767">
        <ele>1063.36</ele>
        <time>2023-07-08T11:19:54Z</time>
      </trkpt>
      <trkpt lat="45.11873" lon="4.36764">
        <ele>1062.87</ele>
        <time>2023-07-08T11:20:10Z</time>
      </trkpt>
      <trkpt lat="45.11872" lon="4.36764">
        <ele>1061.91</ele>
        <time>2023-07-08T11:20:26Z</time>
      </trkpt>
      <trkpt lat="45.11872" lon="4.36764">
        <ele>1061.43</ele>
        <time>2023-07-08T11:20:41Z</time>
      </trkpt>
      <trkpt lat="45.11872" lon="4.36765">
        <ele>1060.95</ele>
        <time>2023-07-08T11:20:59Z</time>
      </trkpt>
      <trkpt lat="45.11871" lon="4.36761">
        <ele>1059.99</ele>
        <time>2023-07-08T11:21:14Z</time>
      </trkpt>
      <trkpt lat="45.11872" lon="4.3676">
        <ele>1062.39</ele>
        <time>2023-07-08T11:21:34Z</time>
      </trkpt>
      <trkpt lat="45.11874" lon="4.36766">
        <ele>1061.91</ele>
        <time>2023-07-08T11:21:51Z</time>
      </trkpt>
      <trkpt lat="45.11874" lon="4.36766">
        <ele>1063.36</ele>
        <time>2023-07-08T11:22:02Z</time>
      </trkpt>
      <trkpt lat="45.11873" lon="4.36762">
        <ele>1063.84</ele>
        <time>2023-07-08T11:22:15Z</time>
      </trkpt>
      <trkpt lat="45.11875" lon="4.36766">
        <ele>1063.84</ele>
        <time>2023-07-08T11:22:30Z</time>
      </trkpt>
      <trkpt lat="45.11874" lon="4.36768">
        <ele>1064.32</ele>
        <time>2023-07-08T11:22:49Z</time>
      </trkpt>
      <trkpt lat="45.11874" lon="4.3677">
        <ele>1064.8</ele>
        <time>2023-07-08T11:23:13Z</time>
      </trkpt>
      <trkpt lat="45.11871" lon="4.36771">
        <ele>1064.8</ele>
        <time>2023-07-08T11:23:45Z</time>
      </trkpt>
      <trkpt lat="45.11862" lon="4.36776">
        <ele>1064.32</ele>
        <time>2023-07-08T11:24:25Z</time>
      </trkpt>
      <trkpt lat="45.11861" lon="4.36773">
        <ele>1065.28</ele>
        <time>2023-07-08T11:24:46Z</time>
      </trkpt>
      <trkpt lat="45.11865" lon="4.36767">
        <ele>1070.08</ele>
        <time>2023-07-08T11:25:21Z</time>
      </trkpt>
      <trkpt lat="45.11867" lon="4.36766">
        <ele>1071.05</ele>
        <time>2023-07-08T11:25:24Z</time>
      </trkpt>
      <trkpt lat="45.11872" lon="4.36791">
        <ele>1061.43</ele>
        <time>2023-07-08T13:06:59Z</time>
      </trkpt>
      <trkpt lat="45.11874" lon="4.36772">
        <ele>1070.08</ele>
        <time>2023-07-08T13:07:12Z</time>
      </trkpt>
      <trkpt lat="45.11871" lon="4.36776">
        <ele>1071.05</ele>
        <time>2023-07-08T13:07:34Z</time>
      </trkpt>
      <trkpt lat="45.11872" lon="4.36775">
        <ele>1070.57</ele>
        <time>2023-07-08T13:07:57Z</time>
      </trkpt>
      <trkpt lat="45.11876" lon="4.36768">
        <ele>1070.08</ele>
        <time>2023-07-08T13:08:19Z</time>
      </trkpt>
      <trkpt lat="45.11874" lon="4.36775">
        <ele>1071.05</ele>
        <time>2023-07-08T13:08:42Z</time>
      </trkpt>
      <trkpt lat="45.11871" lon="4.36771">
        <ele>1069.12</ele>
        <time>2023-07-08T13:08:55Z</time>
      </trkpt>
      <trkpt lat="45.11867" lon="4.36765">
        <ele>1067.2</ele>
        <time>2023-07-08T13:09:13Z</time>
      </trkpt>
      <trkpt lat="45.1186" lon="4.36754">
        <ele>1063.84</ele>
        <time>2023-07-08T13:09:31Z</time>
      </trkpt>
      <trkpt lat="45.1186" lon="4.36747">
        <ele>1064.32</ele>
        <time>2023-07-08T13:09:36Z</time>
      </trkpt>
      <trkpt lat="45.1186" lon="4.36735">
        <ele>1063.84</ele>
        <time>2023-07-08T13:09:57Z</time>
      </trkpt>
      <trkpt lat="45.11858" lon="4.36732">
        <ele>1067.68</ele>
        <time>2023-07-08T13:10:22Z</time>
      </trkpt>
      <trkpt lat="45.11861" lon="4.36717">
        <ele>1066.24</ele>
        <time>2023-07-08T13:10:37Z</time>
      </trkpt>
      <trkpt lat="45.11864" lon="4.3671">
        <ele>1070.08</ele>
        <time>2023-07-08T13:11:07Z</time>
      </trkpt>
      <trkpt lat="45.11864" lon="4.36712">
        <ele>1067.68</ele>
        <time>2023-07-08T13:11:36Z</time>
      </trkpt>
      <trkpt lat="45.1186" lon="4.36704">
        <ele>1068.16</ele>
        <time>2023-07-08T13:12:06Z</time>
      </trkpt>
      <trkpt lat="45.11869" lon="4.36679">
        <ele>1067.2</ele>
        <time>2023-07-08T13:12:22Z</time>
      </trkpt>
      <trkpt lat="45.11876" lon="4.36657">
        <ele>1063.84</ele>
        <time>2023-07-08T13:12:37Z</time>
      </trkpt>
      <trkpt lat="45.11883" lon="4.36623">
        <ele>1061.91</ele>
        <time>2023-07-08T13:12:54Z</time>
      </trkpt>
      <trkpt lat="45.11876" lon="4.36593">
        <ele>1059.51</ele>
        <time>2023-07-08T13:13:11Z</time>
      </trkpt>
      <trkpt lat="45.11867" lon="4.36565">
        <ele>1054.22</ele>
        <time>2023-07-08T13:13:28Z</time>
      </trkpt>
      <trkpt lat="45.11859" lon="4.36529">
        <ele>1052.3</ele>
        <time>2023-07-08T13:13:45Z</time>
      </trkpt>
      <trkpt lat="45.11862" lon="4.36499">
        <ele>1053.74</ele>
        <time>2023-07-08T13:14:01Z</time>
      </trkpt>
      <trkpt lat="45.11873" lon="4.36469">
        <ele>1051.82</ele>
        <time>2023-07-08T13:14:17Z</time>
      </trkpt>
      <trkpt lat="45.11885" lon="4.36434">
        <ele>1049.9</ele>
        <time>2023-07-08T13:14:36Z</time>
      </trkpt>
      <trkpt lat="45.11899" lon="4.36402">
        <ele>1046.53</ele>
        <time>2023-07-08T13:14:55Z</time>
      </trkpt>
      <trkpt lat="45.11907" lon="4.36387">
        <ele>1044.13</ele>
        <time>2023-07-08T13:15:11Z</time>
      </trkpt>
      <trkpt lat="45.11918" lon="4.36356">
        <ele>1040.76</ele>
        <time>2023-07-08T13:15:28Z</time>
      </trkpt>
      <trkpt lat="45.11927" lon="4.3632">
        <ele>1038.36</ele>
        <time>2023-07-08T13:15:46Z</time>
      </trkpt>
      <trkpt lat="45.11939" lon="4.36278">
        <ele>1036.44</ele>
        <time>2023-07-08T13:16:08Z</time>
      </trkpt>
      <trkpt lat="45.11955" lon="4.36233">
        <ele>1035.48</ele>
        <time>2023-07-08T13:16:31Z</time>
      </trkpt>
      <trkpt lat="45.11961" lon="4.36193">
        <ele>1035</ele>
        <time>2023-07-08T13:16:50Z</time>
      </trkpt>
      <trkpt lat="45.11967" lon="4.36159">
        <ele>1033.07</ele>
        <time>2023-07-08T13:17:08Z</time>
      </trkpt>
      <trkpt lat="45.11981" lon="4.36149">
        <ele>1031.63</ele>
        <time>2023-07-08T13:17:21Z</time>
      </trkpt>
      <trkpt lat="45.11986" lon="4.36146">
        <ele>1032.11</ele>
        <time>2023-07-08T13:17:35Z</time>
      </trkpt>
      <trkpt lat="45.11996" lon="4.36136">
        <ele>1030.67</ele>
        <time>2023-07-08T13:17:50Z</time>
      </trkpt>
      <trkpt lat="45.12006" lon="4.36127">
        <ele>1029.71</ele>
        <time>2023-07-08T13:18:05Z</time>
      </trkpt>
      <trkpt lat="45.12012" lon="4.36119">
        <ele>1029.23</ele>
        <time>2023-07-08T13:18:13Z</time>
      </trkpt>
      <trkpt lat="45.12014" lon="4.361">
        <ele>1024.9</ele>
        <time>2023-07-08T13:18:24Z</time>
      </trkpt>
      <trkpt lat="45.12024" lon="4.36058">
        <ele>1024.9</ele>
        <time>2023-07-08T13:18:46Z</time>
      </trkpt>
      <trkpt lat="45.12037" lon="4.36028">
        <ele>1027.79</ele>
        <time>2023-07-08T13:19:05Z</time>
      </trkpt>
      <trkpt lat="45.12053" lon="4.35999">
        <ele>1027.79</ele>
        <time>2023-07-08T13:19:24Z</time>
      </trkpt>
      <trkpt lat="45.12067" lon="4.3597">
        <ele>1027.31</ele>
        <time>2023-07-08T13:19:43Z</time>
      </trkpt>
      <trkpt lat="45.12076" lon="4.35952">
        <ele>1026.34</ele>
        <time>2023-07-08T13:19:58Z</time>
      </trkpt>
      <trkpt lat="45.12078" lon="4.3595">
        <ele>1025.86</ele>
        <time>2023-07-08T13:20:00Z</time>
      </trkpt>
      <trkpt lat="45.1208" lon="4.35946">
        <ele>1025.86</ele>
        <time>2023-07-08T13:20:03Z</time>
      </trkpt>
      <trkpt lat="45.12103" lon="4.35926">
        <ele>1026.34</ele>
        <time>2023-07-08T13:20:24Z</time>
      </trkpt>
      <trkpt lat="45.1212" lon="4.35913">
        <ele>1027.79</ele>
        <time>2023-07-08T13:20:39Z</time>
      </trkpt>
      <trkpt lat="45.12136" lon="4.35892">
        <ele>1029.23</ele>
        <time>2023-07-08T13:20:58Z</time>
      </trkpt>
      <trkpt lat="45.12134" lon="4.35881">
        <ele>1029.71</ele>
        <time>2023-07-08T13:21:07Z</time>
      </trkpt>
      <trkpt lat="45.12128" lon="4.35871">
        <ele>1029.71</ele>
        <time>2023-07-08T13:21:14Z</time>
      </trkpt>
      <trkpt lat="45.12124" lon="4.35854">
        <ele>1027.79</ele>
        <time>2023-07-08T13:21:31Z</time>
      </trkpt>
      <trkpt lat="45.12121" lon="4.35856">
        <ele>1026.34</ele>
        <time>2023-07-08T13:21:36Z</time>
      </trkpt>
      <trkpt lat="45.12108" lon="4.35858">
        <ele>1024.9</ele>
        <time>2023-07-08T13:21:47Z</time>
      </trkpt>
      <trkpt lat="45.12109" lon="4.35865">
        <ele>1023.46</ele>
        <time>2023-07-08T13:22:00Z</time>
      </trkpt>
      <trkpt lat="45.12107" lon="4.35862">
        <ele>1022.98</ele>
        <time>2023-07-08T13:22:29Z</time>
      </trkpt>
      <trkpt lat="45.12104" lon="4.3586">
        <ele>1028.75</ele>
        <time>2023-07-08T13:22:52Z</time>
      </trkpt>
      <trkpt lat="45.12103" lon="4.3586">
        <ele>1030.19</ele>
        <time>2023-07-08T13:23:17Z</time>
      </trkpt>
      <trkpt lat="45.12103" lon="4.3586">
        <ele>1028.75</ele>
        <time>2023-07-08T13:23:41Z</time>
      </trkpt>
      <trkpt lat="45.12102" lon="4.35859">
        <ele>1030.19</ele>
        <time>2023-07-08T13:24:10Z</time>
      </trkpt>
      <trkpt lat="45.12101" lon="4.35856">
        <ele>1032.59</ele>
        <time>2023-07-08T13:24:37Z</time>
      </trkpt>
      <trkpt lat="45.12102" lon="4.35857">
        <ele>1031.15</ele>
        <time>2023-07-08T13:25:07Z</time>
      </trkpt>
      <trkpt lat="45.12106" lon="4.35861">
        <ele>1030.67</ele>
        <time>2023-07-08T13:25:33Z</time>
      </trkpt>
      <trkpt lat="45.12109" lon="4.35862">
        <ele>1024.9</ele>
        <time>2023-07-08T13:25:58Z</time>
      </trkpt>
      <trkpt lat="45.12102" lon="4.3586">
        <ele>1028.27</ele>
        <time>2023-07-08T13:26:15Z</time>
      </trkpt>
      <trkpt lat="45.12103" lon="4.35835">
        <ele>1024.9</ele>
        <time>2023-07-08T13:26:32Z</time>
      </trkpt>
      <trkpt lat="45.12103" lon="4.35833">
        <ele>1024.42</ele>
        <time>2023-07-08T13:26:33Z</time>
      </trkpt>
      <trkpt lat="45.12109" lon="4.35805">
        <ele>1022.98</ele>
        <time>2023-07-08T13:26:52Z</time>
      </trkpt>
      <trkpt lat="45.1211" lon="4.35777">
        <ele>1021.06</ele>
        <time>2023-07-08T13:27:09Z</time>
      </trkpt>
      <trkpt lat="45.12108" lon="4.35765">
        <ele>1020.58</ele>
        <time>2023-07-08T13:27:25Z</time>
      </trkpt>
      <trkpt lat="45.12105" lon="4.35757">
        <ele>1018.65</ele>
        <time>2023-07-08T13:27:44Z</time>
      </trkpt>
      <trkpt lat="45.12096" lon="4.35758">
        <ele>1014.81</ele>
        <time>2023-07-08T13:27:56Z</time>
      </trkpt>
      <trkpt lat="45.12092" lon="4.35756">
        <ele>1013.85</ele>
        <time>2023-07-08T13:27:59Z</time>
      </trkpt>
      <trkpt lat="45.12068" lon="4.3577">
        <ele>1008.56</ele>
        <time>2023-07-08T13:28:18Z</time>
      </trkpt>
      <trkpt lat="45.12043" lon="4.35782">
        <ele>1001.35</ele>
        <time>2023-07-08T13:28:35Z</time>
      </trkpt>
      <trkpt lat="45.12014" lon="4.35789">
        <ele>1002.79</ele>
        <time>2023-07-08T13:28:53Z</time>
      </trkpt>
      <trkpt lat="45.11995" lon="4.35778">
        <ele>1001.35</ele>
        <time>2023-07-08T13:29:09Z</time>
      </trkpt>
      <trkpt lat="45.11968" lon="4.35751">
        <ele>998.47</ele>
        <time>2023-07-08T13:29:31Z</time>
      </trkpt>
      <trkpt lat="45.11942" lon="4.35736">
        <ele>996.54</ele>
        <time>2023-07-08T13:29:50Z</time>
      </trkpt>
      <trkpt lat="45.11918" lon="4.35729">
        <ele>993.66</ele>
        <time>2023-07-08T13:30:06Z</time>
      </trkpt>
      <trkpt lat="45.11891" lon="4.35721">
        <ele>991.74</ele>
        <time>2023-07-08T13:30:24Z</time>
      </trkpt>
      <trkpt lat="45.11863" lon="4.35712">
        <ele>989.33</ele>
        <time>2023-07-08T13:30:43Z</time>
      </trkpt>
      <trkpt lat="45.11836" lon="4.35701">
        <ele>986.93</ele>
        <time>2023-07-08T13:31:02Z</time>
      </trkpt>
      <trkpt lat="45.11804" lon="4.35687">
        <ele>985.49</ele>
        <time>2023-07-08T13:31:24Z</time>
      </trkpt>
      <trkpt lat="45.11776" lon="4.35674">
        <ele>980.68</ele>
        <time>2023-07-08T13:31:45Z</time>
      </trkpt>
      <trkpt lat="45.11747" lon="4.3566">
        <ele>978.28</ele>
        <time>2023-07-08T13:32:05Z</time>
      </trkpt>
      <trkpt lat="45.11725" lon="4.3565">
        <ele>975.39</ele>
        <time>2023-07-08T13:32:21Z</time>
      </trkpt>
      <trkpt lat="45.11705" lon="4.35634">
        <ele>972.99</ele>
        <time>2023-07-08T13:32:38Z</time>
      </trkpt>
      <trkpt lat="45.11685" lon="4.35623">
        <ele>972.03</ele>
        <time>2023-07-08T13:32:52Z</time>
      </trkpt>
      <trkpt lat="45.11665" lon="4.35613">
        <ele>969.15</ele>
        <time>2023-07-08T13:33:06Z</time>
      </trkpt>
      <trkpt lat="45.11633" lon="4.35606">
        <ele>966.26</ele>
        <time>2023-07-08T13:33:27Z</time>
      </trkpt>
      <trkpt lat="45.116" lon="4.356">
        <ele>965.3</ele>
        <time>2023-07-08T13:33:50Z</time>
      </trkpt>
      <trkpt lat="45.11584" lon="4.356">
        <ele>962.9</ele>
        <time>2023-07-08T13:34:04Z</time>
      </trkpt>
      <trkpt lat="45.11583" lon="4.35601">
        <ele>962.9</ele>
        <time>2023-07-08T13:34:05Z</time>
      </trkpt>
      <trkpt lat="45.11582" lon="4.35602">
        <ele>962.42</ele>
        <time>2023-07-08T13:34:06Z</time>
      </trkpt>
      <trkpt lat="45.11581" lon="4.35602">
        <ele>962.42</ele>
        <time>2023-07-08T13:34:07Z</time>
      </trkpt>
      <trkpt lat="45.1158" lon="4.35602">
        <ele>961.94</ele>
        <time>2023-07-08T13:34:08Z</time>
      </trkpt>
      <trkpt lat="45.11557" lon="4.35607">
        <ele>957.61</ele>
        <time>2023-07-08T13:34:25Z</time>
      </trkpt>
      <trkpt lat="45.11543" lon="4.35608">
        <ele>953.77</ele>
        <time>2023-07-08T13:34:38Z</time>
      </trkpt>
      <trkpt lat="45.11528" lon="4.35597">
        <ele>948</ele>
        <time>2023-07-08T13:34:54Z</time>
      </trkpt>
      <trkpt lat="45.11499" lon="4.35584">
        <ele>946.56</ele>
        <time>2023-07-08T13:35:12Z</time>
      </trkpt>
      <trkpt lat="45.11479" lon="4.35564">
        <ele>946.07</ele>
        <time>2023-07-08T13:35:24Z</time>
      </trkpt>
      <trkpt lat="45.11455" lon="4.35551">
        <ele>954.73</ele>
        <time>2023-07-08T13:35:36Z</time>
      </trkpt>
      <trkpt lat="45.11448" lon="4.35548">
        <ele>956.17</ele>
        <time>2023-07-08T13:35:42Z</time>
      </trkpt>
      <trkpt lat="45.1144" lon="4.35538">
        <ele>957.13</ele>
        <time>2023-07-08T13:35:50Z</time>
      </trkpt>
      <trkpt lat="45.11439" lon="4.35536">
        <ele>957.13</ele>
        <time>2023-07-08T13:35:51Z</time>
      </trkpt>
      <trkpt lat="45.11425" lon="4.3551">
        <ele>958.09</ele>
        <time>2023-07-08T13:36:06Z</time>
      </trkpt>
      <trkpt lat="45.1142" lon="4.35499">
        <ele>958.57</ele>
        <time>2023-07-08T13:36:13Z</time>
      </trkpt>
      <trkpt lat="45.11418" lon="4.35498">
        <ele>959.05</ele>
        <time>2023-07-08T13:36:14Z</time>
      </trkpt>
      <trkpt lat="45.114" lon="4.35475">
        <ele>961.94</ele>
        <time>2023-07-08T13:36:30Z</time>
      </trkpt>
      <trkpt lat="45.11388" lon="4.35458">
        <ele>965.3</ele>
        <time>2023-07-08T13:36:44Z</time>
      </trkpt>
      <trkpt lat="45.11372" lon="4.3543">
        <ele>967.22</ele>
        <time>2023-07-08T13:37:01Z</time>
      </trkpt>
      <trkpt lat="45.11359" lon="4.35406">
        <ele>968.18</ele>
        <time>2023-07-08T13:37:17Z</time>
      </trkpt>
      <trkpt lat="45.11339" lon="4.35375">
        <ele>970.59</ele>
        <time>2023-07-08T13:37:34Z</time>
      </trkpt>
      <trkpt lat="45.11327" lon="4.35344">
        <ele>975.88</ele>
        <time>2023-07-08T13:37:51Z</time>
      </trkpt>
      <trkpt lat="45.11312" lon="4.35303">
        <ele>980.68</ele>
        <time>2023-07-08T13:38:14Z</time>
      </trkpt>
      <trkpt lat="45.11302" lon="4.3527">
        <ele>983.57</ele>
        <time>2023-07-08T13:38:31Z</time>
      </trkpt>
      <trkpt lat="45.113" lon="4.3525">
        <ele>986.45</ele>
        <time>2023-07-08T13:38:45Z</time>
      </trkpt>
      <trkpt lat="45.11294" lon="4.35226">
        <ele>989.81</ele>
        <time>2023-07-08T13:38:57Z</time>
      </trkpt>
      <trkpt lat="45.11281" lon="4.35205">
        <ele>994.62</ele>
        <time>2023-07-08T13:39:11Z</time>
      </trkpt>
      <trkpt lat="45.11278" lon="4.35199">
        <ele>995.1</ele>
        <time>2023-07-08T13:39:14Z</time>
      </trkpt>
      <trkpt lat="45.11269" lon="4.35179">
        <ele>995.1</ele>
        <time>2023-07-08T13:39:29Z</time>
      </trkpt>
      <trkpt lat="45.11243" lon="4.35143">
        <ele>996.06</ele>
        <time>2023-07-08T13:39:46Z</time>
      </trkpt>
      <trkpt lat="45.11221" lon="4.3511">
        <ele>996.06</ele>
        <time>2023-07-08T13:40:05Z</time>
      </trkpt>
      <trkpt lat="45.11202" lon="4.35078">
        <ele>995.1</ele>
        <time>2023-07-08T13:40:23Z</time>
      </trkpt>
      <trkpt lat="45.11185" lon="4.35045">
        <ele>995.58</ele>
        <time>2023-07-08T13:40:43Z</time>
      </trkpt>
      <trkpt lat="45.1118" lon="4.35036">
        <ele>997.02</ele>
        <time>2023-07-08T13:40:48Z</time>
      </trkpt>
      <trkpt lat="45.11162" lon="4.35001">
        <ele>999.91</ele>
        <time>2023-07-08T13:41:04Z</time>
      </trkpt>
      <trkpt lat="45.11142" lon="4.34973">
        <ele>1002.79</ele>
        <time>2023-07-08T13:41:23Z</time>
      </trkpt>
      <trkpt lat="45.11122" lon="4.34945">
        <ele>1002.79</ele>
        <time>2023-07-08T13:41:43Z</time>
      </trkpt>
      <trkpt lat="45.11097" lon="4.34912">
        <ele>1001.35</ele>
        <time>2023-07-08T13:42:06Z</time>
      </trkpt>
      <trkpt lat="45.11089" lon="4.34896">
        <ele>999.91</ele>
        <time>2023-07-08T13:42:16Z</time>
      </trkpt>
      <trkpt lat="45.11068" lon="4.3487">
        <ele>997.51</ele>
        <time>2023-07-08T13:42:35Z</time>
      </trkpt>
      <trkpt lat="45.11037" lon="4.34849">
        <ele>993.18</ele>
        <time>2023-07-08T13:42:56Z</time>
      </trkpt>
      <trkpt lat="45.11017" lon="4.34832">
        <ele>992.7</ele>
        <time>2023-07-08T13:43:12Z</time>
      </trkpt>
      <trkpt lat="45.11014" lon="4.34799">
        <ele>992.7</ele>
        <time>2023-07-08T13:43:29Z</time>
      </trkpt>
      <trkpt lat="45.11004" lon="4.34779">
        <ele>994.14</ele>
        <time>2023-07-08T13:43:39Z</time>
      </trkpt>
      <trkpt lat="45.11004" lon="4.34773">
        <ele>994.14</ele>
        <time>2023-07-08T13:43:41Z</time>
      </trkpt>
      <trkpt lat="45.11006" lon="4.34771">
        <ele>994.14</ele>
        <time>2023-07-08T13:43:42Z</time>
      </trkpt>
      <trkpt lat="45.11007" lon="4.34769">
        <ele>994.14</ele>
        <time>2023-07-08T13:43:43Z</time>
      </trkpt>
      <trkpt lat="45.11008" lon="4.34768">
        <ele>994.14</ele>
        <time>2023-07-08T13:43:44Z</time>
      </trkpt>
      <trkpt lat="45.11009" lon="4.34767">
        <ele>994.14</ele>
        <time>2023-07-08T13:43:45Z</time>
      </trkpt>
      <trkpt lat="45.11011" lon="4.34766">
        <ele>994.62</ele>
        <time>2023-07-08T13:43:46Z</time>
      </trkpt>
      <trkpt lat="45.11028" lon="4.34753">
        <ele>995.58</ele>
        <time>2023-07-08T13:44:01Z</time>
      </trkpt>
      <trkpt lat="45.11049" lon="4.34731">
        <ele>995.58</ele>
        <time>2023-07-08T13:44:19Z</time>
      </trkpt>
      <trkpt lat="45.11065" lon="4.34715">
        <ele>996.54</ele>
        <time>2023-07-08T13:44:32Z</time>
      </trkpt>
      <trkpt lat="45.11066" lon="4.34714">
        <ele>996.54</ele>
        <time>2023-07-08T13:44:33Z</time>
      </trkpt>
      <trkpt lat="45.11068" lon="4.34713">
        <ele>996.54</ele>
        <time>2023-07-08T13:44:34Z</time>
      </trkpt>
      <trkpt lat="45.11069" lon="4.34711">
        <ele>996.54</ele>
        <time>2023-07-08T13:44:35Z</time>
      </trkpt>
      <trkpt lat="45.1107" lon="4.34709">
        <ele>996.54</ele>
        <time>2023-07-08T13:44:36Z</time>
      </trkpt>
      <trkpt lat="45.11096" lon="4.34676">
        <ele>997.51</ele>
        <time>2023-07-08T13:44:56Z</time>
      </trkpt>
      <trkpt lat="45.11124" lon="4.34651">
        <ele>998.95</ele>
        <time>2023-07-08T13:45:16Z</time>
      </trkpt>
      <trkpt lat="45.11149" lon="4.34629">
        <ele>999.91</ele>
        <time>2023-07-08T13:45:33Z</time>
      </trkpt>
      <trkpt lat="45.1117" lon="4.34611">
        <ele>1000.39</ele>
        <time>2023-07-08T13:45:49Z</time>
      </trkpt>
      <trkpt lat="45.11191" lon="4.34595">
        <ele>998.95</ele>
        <time>2023-07-08T13:46:04Z</time>
      </trkpt>
      <trkpt lat="45.11211" lon="4.34582">
        <ele>997.51</ele>
        <time>2023-07-08T13:46:22Z</time>
      </trkpt>
      <trkpt lat="45.11233" lon="4.34567">
        <ele>994.14</ele>
        <time>2023-07-08T13:46:39Z</time>
      </trkpt>
      <trkpt lat="45.11263" lon="4.3455">
        <ele>990.78</ele>
        <time>2023-07-08T13:47:00Z</time>
      </trkpt>
      <trkpt lat="45.113" lon="4.34547">
        <ele>981.64</ele>
        <time>2023-07-08T13:47:19Z</time>
      </trkpt>
      <trkpt lat="45.11335" lon="4.34529">
        <ele>982.6</ele>
        <time>2023-07-08T13:47:37Z</time>
      </trkpt>
      <trkpt lat="45.11368" lon="4.34516">
        <ele>986.45</ele>
        <time>2023-07-08T13:47:56Z</time>
      </trkpt>
      <trkpt lat="45.11394" lon="4.34515">
        <ele>996.54</ele>
        <time>2023-07-08T13:48:14Z</time>
      </trkpt>
      <trkpt lat="45.1142" lon="4.34506">
        <ele>1001.35</ele>
        <time>2023-07-08T13:48:31Z</time>
      </trkpt>
      <trkpt lat="45.11451" lon="4.34497">
        <ele>1000.39</ele>
        <time>2023-07-08T13:48:50Z</time>
      </trkpt>
      <trkpt lat="45.1147" lon="4.34488">
        <ele>998.47</ele>
        <time>2023-07-08T13:49:05Z</time>
      </trkpt>
      <trkpt lat="45.11495" lon="4.3447">
        <ele>991.74</ele>
        <time>2023-07-08T13:49:25Z</time>
      </trkpt>
      <trkpt lat="45.11506" lon="4.34454">
        <ele>988.85</ele>
        <time>2023-07-08T13:49:36Z</time>
      </trkpt>
      <trkpt lat="45.11522" lon="4.34429">
        <ele>990.3</ele>
        <time>2023-07-08T13:49:51Z</time>
      </trkpt>
      <trkpt lat="45.11543" lon="4.34417">
        <ele>987.41</ele>
        <time>2023-07-08T13:50:09Z</time>
      </trkpt>
      <trkpt lat="45.11554" lon="4.34406">
        <ele>985.97</ele>
        <time>2023-07-08T13:50:18Z</time>
      </trkpt>
      <trkpt lat="45.11556" lon="4.34404">
        <ele>985.49</ele>
        <time>2023-07-08T13:50:19Z</time>
      </trkpt>
      <trkpt lat="45.11557" lon="4.34402">
        <ele>985.49</ele>
        <time>2023-07-08T13:50:20Z</time>
      </trkpt>
      <trkpt lat="45.11558" lon="4.344">
        <ele>985.49</ele>
        <time>2023-07-08T13:50:21Z</time>
      </trkpt>
      <trkpt lat="45.11559" lon="4.34398">
        <ele>985.49</ele>
        <time>2023-07-08T13:50:22Z</time>
      </trkpt>
      <trkpt lat="45.1156" lon="4.34396">
        <ele>985.01</ele>
        <time>2023-07-08T13:50:23Z</time>
      </trkpt>
      <trkpt lat="45.11561" lon="4.34395">
        <ele>984.53</ele>
        <time>2023-07-08T13:50:24Z</time>
      </trkpt>
      <trkpt lat="45.11577" lon="4.34372">
        <ele>976.84</ele>
        <time>2023-07-08T13:50:41Z</time>
      </trkpt>
      <trkpt lat="45.11597" lon="4.3435">
        <ele>965.78</ele>
        <time>2023-07-08T13:50:59Z</time>
      </trkpt>
      <trkpt lat="45.1161" lon="4.34339">
        <ele>962.42</ele>
        <time>2023-07-08T13:51:16Z</time>
      </trkpt>
      <trkpt lat="45.11615" lon="4.3434">
        <ele>963.86</ele>
        <time>2023-07-08T13:51:21Z</time>
      </trkpt>
      <trkpt lat="45.11637" lon="4.34346">
        <ele>963.86</ele>
        <time>2023-07-08T13:51:34Z</time>
      </trkpt>
      <trkpt lat="45.11643" lon="4.34348">
        <ele>963.38</ele>
        <time>2023-07-08T13:51:37Z</time>
      </trkpt>
      <trkpt lat="45.11646" lon="4.34349">
        <ele>964.34</ele>
        <time>2023-07-08T13:51:38Z</time>
      </trkpt>
      <trkpt lat="45.11653" lon="4.34351">
        <ele>963.86</ele>
        <time>2023-07-08T13:51:42Z</time>
      </trkpt>
      <trkpt lat="45.11667" lon="4.34347">
        <ele>963.38</ele>
        <time>2023-07-08T13:51:52Z</time>
      </trkpt>
      <trkpt lat="45.11669" lon="4.34347">
        <ele>963.86</ele>
        <time>2023-07-08T13:51:53Z</time>
      </trkpt>
      <trkpt lat="45.11672" lon="4.34347">
        <ele>964.82</ele>
        <time>2023-07-08T13:51:54Z</time>
      </trkpt>
      <trkpt lat="45.11673" lon="4.34347">
        <ele>964.82</ele>
        <time>2023-07-08T13:51:55Z</time>
      </trkpt>
      <trkpt lat="45.11675" lon="4.34347">
        <ele>964.82</ele>
        <time>2023-07-08T13:51:56Z</time>
      </trkpt>
      <trkpt lat="45.11677" lon="4.34347">
        <ele>964.82</ele>
        <time>2023-07-08T13:51:57Z</time>
      </trkpt>
      <trkpt lat="45.11679" lon="4.34346">
        <ele>964.34</ele>
        <time>2023-07-08T13:51:59Z</time>
      </trkpt>
      <trkpt lat="45.11685" lon="4.34346">
        <ele>967.22</ele>
        <time>2023-07-08T13:52:00Z</time>
      </trkpt>
      <trkpt lat="45.11688" lon="4.34345">
        <ele>969.15</ele>
        <time>2023-07-08T13:52:01Z</time>
      </trkpt>
      <trkpt lat="45.11692" lon="4.34345">
        <ele>970.11</ele>
        <time>2023-07-08T13:52:02Z</time>
      </trkpt>
      <trkpt lat="45.11696" lon="4.34344">
        <ele>971.55</ele>
        <time>2023-07-08T13:52:04Z</time>
      </trkpt>
      <trkpt lat="45.11706" lon="4.3434">
        <ele>974.43</ele>
        <time>2023-07-08T13:52:09Z</time>
      </trkpt>
      <trkpt lat="45.11708" lon="4.34338">
        <ele>974.43</ele>
        <time>2023-07-08T13:52:10Z</time>
      </trkpt>
      <trkpt lat="45.11709" lon="4.34337">
        <ele>974.91</ele>
        <time>2023-07-08T13:52:11Z</time>
      </trkpt>
      <trkpt lat="45.11716" lon="4.3432">
        <ele>974.91</ele>
        <time>2023-07-08T13:52:23Z</time>
      </trkpt>
      <trkpt lat="45.11718" lon="4.34316">
        <ele>974.43</ele>
        <time>2023-07-08T13:52:25Z</time>
      </trkpt>
      <trkpt lat="45.11719" lon="4.34314">
        <ele>973.95</ele>
        <time>2023-07-08T13:52:26Z</time>
      </trkpt>
      <trkpt lat="45.1172" lon="4.34312">
        <ele>973.95</ele>
        <time>2023-07-08T13:52:27Z</time>
      </trkpt>
      <trkpt lat="45.11724" lon="4.34296">
        <ele>972.51</ele>
        <time>2023-07-08T13:52:37Z</time>
      </trkpt>
      <trkpt lat="45.11724" lon="4.34294">
        <ele>972.03</ele>
        <time>2023-07-08T13:52:38Z</time>
      </trkpt>
      <trkpt lat="45.11725" lon="4.34292">
        <ele>971.55</ele>
        <time>2023-07-08T13:52:39Z</time>
      </trkpt>
      <trkpt lat="45.11726" lon="4.34289">
        <ele>971.55</ele>
        <time>2023-07-08T13:52:40Z</time>
      </trkpt>
      <trkpt lat="45.11726" lon="4.34288">
        <ele>971.07</ele>
        <time>2023-07-08T13:52:41Z</time>
      </trkpt>
      <trkpt lat="45.11727" lon="4.34284">
        <ele>970.59</ele>
        <time>2023-07-08T13:52:43Z</time>
      </trkpt>
      <trkpt lat="45.11728" lon="4.34282">
        <ele>970.11</ele>
        <time>2023-07-08T13:52:44Z</time>
      </trkpt>
      <trkpt lat="45.11729" lon="4.3428">
        <ele>969.63</ele>
        <time>2023-07-08T13:52:45Z</time>
      </trkpt>
      <trkpt lat="45.11737" lon="4.34245">
        <ele>969.63</ele>
        <time>2023-07-08T13:53:01Z</time>
      </trkpt>
      <trkpt lat="45.11734" lon="4.34211">
        <ele>967.7</ele>
        <time>2023-07-08T13:53:17Z</time>
      </trkpt>
      <trkpt lat="45.11744" lon="4.34189">
        <ele>964.82</ele>
        <time>2023-07-08T13:53:30Z</time>
      </trkpt>
      <trkpt lat="45.11759" lon="4.3417">
        <ele>963.86</ele>
        <time>2023-07-08T13:53:46Z</time>
      </trkpt>
      <trkpt lat="45.11778" lon="4.34159">
        <ele>961.46</ele>
        <time>2023-07-08T13:54:00Z</time>
      </trkpt>
      <trkpt lat="45.11796" lon="4.34152">
        <ele>957.61</ele>
        <time>2023-07-08T13:54:13Z</time>
      </trkpt>
      <trkpt lat="45.1181" lon="4.34144">
        <ele>950.88</ele>
        <time>2023-07-08T13:54:23Z</time>
      </trkpt>
      <trkpt lat="45.11813" lon="4.34144">
        <ele>951.84</ele>
        <time>2023-07-08T13:54:24Z</time>
      </trkpt>
      <trkpt lat="45.11816" lon="4.34143">
        <ele>952.32</ele>
        <time>2023-07-08T13:54:25Z</time>
      </trkpt>
      <trkpt lat="45.11817" lon="4.34141">
        <ele>952.32</ele>
        <time>2023-07-08T13:54:26Z</time>
      </trkpt>
      <trkpt lat="45.11821" lon="4.34141">
        <ele>953.77</ele>
        <time>2023-07-08T13:54:27Z</time>
      </trkpt>
      <trkpt lat="45.11824" lon="4.3414">
        <ele>955.21</ele>
        <time>2023-07-08T13:54:28Z</time>
      </trkpt>
      <trkpt lat="45.11827" lon="4.34139">
        <ele>956.17</ele>
        <time>2023-07-08T13:54:29Z</time>
      </trkpt>
      <trkpt lat="45.11829" lon="4.34139">
        <ele>956.65</ele>
        <time>2023-07-08T13:54:30Z</time>
      </trkpt>
      <trkpt lat="45.11831" lon="4.34138">
        <ele>957.13</ele>
        <time>2023-07-08T13:54:31Z</time>
      </trkpt>
      <trkpt lat="45.11833" lon="4.34137">
        <ele>957.13</ele>
        <time>2023-07-08T13:54:32Z</time>
      </trkpt>
      <trkpt lat="45.11835" lon="4.34136">
        <ele>957.13</ele>
        <time>2023-07-08T13:54:33Z</time>
      </trkpt>
      <trkpt lat="45.11836" lon="4.34135">
        <ele>957.61</ele>
        <time>2023-07-08T13:54:34Z</time>
      </trkpt>
      <trkpt lat="45.11857" lon="4.34125">
        <ele>959.05</ele>
        <time>2023-07-08T13:54:46Z</time>
      </trkpt>
      <trkpt lat="45.11858" lon="4.34124">
        <ele>959.05</ele>
        <time>2023-07-08T13:54:47Z</time>
      </trkpt>
      <trkpt lat="45.1186" lon="4.34123">
        <ele>959.05</ele>
        <time>2023-07-08T13:54:48Z</time>
      </trkpt>
      <trkpt lat="45.11862" lon="4.34122">
        <ele>959.05</ele>
        <time>2023-07-08T13:54:49Z</time>
      </trkpt>
      <trkpt lat="45.11863" lon="4.34121">
        <ele>959.05</ele>
        <time>2023-07-08T13:54:50Z</time>
      </trkpt>
      <trkpt lat="45.11887" lon="4.34111">
        <ele>957.61</ele>
        <time>2023-07-08T13:55:05Z</time>
      </trkpt>
      <trkpt lat="45.119" lon="4.34118">
        <ele>955.21</ele>
        <time>2023-07-08T13:55:20Z</time>
      </trkpt>
      <trkpt lat="45.11929" lon="4.34133">
        <ele>948.96</ele>
        <time>2023-07-08T13:55:38Z</time>
      </trkpt>
      <trkpt lat="45.11962" lon="4.34124">
        <ele>953.28</ele>
        <time>2023-07-08T13:55:57Z</time>
      </trkpt>
      <trkpt lat="45.11988" lon="4.34118">
        <ele>952.32</ele>
        <time>2023-07-08T13:56:14Z</time>
      </trkpt>
      <trkpt lat="45.12009" lon="4.34102">
        <ele>948.96</ele>
        <time>2023-07-08T13:56:31Z</time>
      </trkpt>
      <trkpt lat="45.12017" lon="4.34068">
        <ele>945.11</ele>
        <time>2023-07-08T13:56:46Z</time>
      </trkpt>
      <trkpt lat="45.12019" lon="4.34033">
        <ele>937.42</ele>
        <time>2023-07-08T13:57:03Z</time>
      </trkpt>
      <trkpt lat="45.12028" lon="4.33998">
        <ele>932.62</ele>
        <time>2023-07-08T13:57:21Z</time>
      </trkpt>
      <trkpt lat="45.12043" lon="4.33971">
        <ele>927.81</ele>
        <time>2023-07-08T13:57:37Z</time>
      </trkpt>
      <trkpt lat="45.12056" lon="4.33927">
        <ele>927.33</ele>
        <time>2023-07-08T13:57:57Z</time>
      </trkpt>
      <trkpt lat="45.12069" lon="4.33895">
        <ele>928.29</ele>
        <time>2023-07-08T13:58:14Z</time>
      </trkpt>
      <trkpt lat="45.12084" lon="4.33873">
        <ele>932.14</ele>
        <time>2023-07-08T13:58:26Z</time>
      </trkpt>
      <trkpt lat="45.12095" lon="4.33853">
        <ele>935.98</ele>
        <time>2023-07-08T13:58:40Z</time>
      </trkpt>
      <trkpt lat="45.1212" lon="4.33847">
        <ele>936.46</ele>
        <time>2023-07-08T13:58:57Z</time>
      </trkpt>
      <trkpt lat="45.12131" lon="4.33843">
        <ele>936.46</ele>
        <time>2023-07-08T13:59:05Z</time>
      </trkpt>
      <trkpt lat="45.12133" lon="4.33843">
        <ele>935.98</ele>
        <time>2023-07-08T13:59:06Z</time>
      </trkpt>
      <trkpt lat="45.12135" lon="4.33842">
        <ele>935.98</ele>
        <time>2023-07-08T13:59:07Z</time>
      </trkpt>
      <trkpt lat="45.12136" lon="4.33842">
        <ele>935.98</ele>
        <time>2023-07-08T13:59:08Z</time>
      </trkpt>
      <trkpt lat="45.12138" lon="4.3384">
        <ele>936.46</ele>
        <time>2023-07-08T13:59:09Z</time>
      </trkpt>
      <trkpt lat="45.1214" lon="4.33839">
        <ele>936.46</ele>
        <time>2023-07-08T13:59:10Z</time>
      </trkpt>
      <trkpt lat="45.12141" lon="4.33839">
        <ele>936.46</ele>
        <time>2023-07-08T13:59:11Z</time>
      </trkpt>
      <trkpt lat="45.12145" lon="4.33836">
        <ele>936.46</ele>
        <time>2023-07-08T13:59:14Z</time>
      </trkpt>
      <trkpt lat="45.12146" lon="4.33835">
        <ele>936.46</ele>
        <time>2023-07-08T13:59:15Z</time>
      </trkpt>
      <trkpt lat="45.12148" lon="4.33834">
        <ele>936.94</ele>
        <time>2023-07-08T13:59:16Z</time>
      </trkpt>
      <trkpt lat="45.12149" lon="4.33833">
        <ele>936.94</ele>
        <time>2023-07-08T13:59:17Z</time>
      </trkpt>
      <trkpt lat="45.1215" lon="4.33832">
        <ele>936.94</ele>
        <time>2023-07-08T13:59:18Z</time>
      </trkpt>
      <trkpt lat="45.12152" lon="4.33831">
        <ele>936.94</ele>
        <time>2023-07-08T13:59:19Z</time>
      </trkpt>
      <trkpt lat="45.12167" lon="4.33819">
        <ele>939.35</ele>
        <time>2023-07-08T13:59:32Z</time>
      </trkpt>
      <trkpt lat="45.12168" lon="4.33818">
        <ele>939.35</ele>
        <time>2023-07-08T13:59:33Z</time>
      </trkpt>
      <trkpt lat="45.12169" lon="4.33817">
        <ele>939.83</ele>
        <time>2023-07-08T13:59:34Z</time>
      </trkpt>
      <trkpt lat="45.1217" lon="4.33816">
        <ele>939.83</ele>
        <time>2023-07-08T13:59:35Z</time>
      </trkpt>
      <trkpt lat="45.12172" lon="4.33814">
        <ele>939.83</ele>
        <time>2023-07-08T13:59:36Z</time>
      </trkpt>
      <trkpt lat="45.12188" lon="4.33782">
        <ele>940.79</ele>
        <time>2023-07-08T13:59:54Z</time>
      </trkpt>
      <trkpt lat="45.12196" lon="4.33749">
        <ele>939.35</ele>
        <time>2023-07-08T14:00:11Z</time>
      </trkpt>
      <trkpt lat="45.12206" lon="4.33716">
        <ele>940.31</ele>
        <time>2023-07-08T14:00:26Z</time>
      </trkpt>
      <trkpt lat="45.12222" lon="4.33685">
        <ele>943.67</ele>
        <time>2023-07-08T14:00:43Z</time>
      </trkpt>
      <trkpt lat="45.12245" lon="4.33674">
        <ele>946.07</ele>
        <time>2023-07-08T14:00:57Z</time>
      </trkpt>
      <trkpt lat="45.12276" lon="4.3367">
        <ele>948.96</ele>
        <time>2023-07-08T14:01:17Z</time>
      </trkpt>
      <trkpt lat="45.12304" lon="4.33662">
        <ele>948.48</ele>
        <time>2023-07-08T14:01:35Z</time>
      </trkpt>
      <trkpt lat="45.12328" lon="4.33655">
        <ele>949.92</ele>
        <time>2023-07-08T14:01:51Z</time>
      </trkpt>
      <trkpt lat="45.12355" lon="4.33651">
        <ele>951.36</ele>
        <time>2023-07-08T14:02:09Z</time>
      </trkpt>
      <trkpt lat="45.12384" lon="4.33645">
        <ele>954.25</ele>
        <time>2023-07-08T14:02:27Z</time>
      </trkpt>
      <trkpt lat="45.12412" lon="4.33636">
        <ele>954.73</ele>
        <time>2023-07-08T14:02:46Z</time>
      </trkpt>
      <trkpt lat="45.12438" lon="4.33628">
        <ele>955.69</ele>
        <time>2023-07-08T14:03:01Z</time>
      </trkpt>
      <trkpt lat="45.12472" lon="4.33618">
        <ele>956.65</ele>
        <time>2023-07-08T14:03:22Z</time>
      </trkpt>
      <trkpt lat="45.125" lon="4.33608">
        <ele>957.61</ele>
        <time>2023-07-08T14:03:40Z</time>
      </trkpt>
      <trkpt lat="45.12534" lon="4.33597">
        <ele>959.05</ele>
        <time>2023-07-08T14:04:01Z</time>
      </trkpt>
      <trkpt lat="45.12564" lon="4.33589">
        <ele>961.94</ele>
        <time>2023-07-08T14:04:21Z</time>
      </trkpt>
      <trkpt lat="45.12591" lon="4.33579">
        <ele>963.86</ele>
        <time>2023-07-08T14:04:39Z</time>
      </trkpt>
      <trkpt lat="45.12625" lon="4.33571">
        <ele>964.34</ele>
        <time>2023-07-08T14:04:59Z</time>
      </trkpt>
      <trkpt lat="45.12653" lon="4.33562">
        <ele>965.78</ele>
        <time>2023-07-08T14:05:16Z</time>
      </trkpt>
      <trkpt lat="45.12681" lon="4.33551">
        <ele>966.74</ele>
        <time>2023-07-08T14:05:35Z</time>
      </trkpt>
      <trkpt lat="45.12711" lon="4.33541">
        <ele>966.26</ele>
        <time>2023-07-08T14:05:53Z</time>
      </trkpt>
      <trkpt lat="45.12741" lon="4.33528">
        <ele>968.18</ele>
        <time>2023-07-08T14:06:12Z</time>
      </trkpt>
      <trkpt lat="45.12764" lon="4.33517">
        <ele>967.7</ele>
        <time>2023-07-08T14:06:28Z</time>
      </trkpt>
      <trkpt lat="45.1279" lon="4.33496">
        <ele>969.15</ele>
        <time>2023-07-08T14:06:47Z</time>
      </trkpt>
      <trkpt lat="45.12816" lon="4.33488">
        <ele>969.15</ele>
        <time>2023-07-08T14:07:04Z</time>
      </trkpt>
      <trkpt lat="45.12848" lon="4.33486">
        <ele>968.67</ele>
        <time>2023-07-08T14:07:23Z</time>
      </trkpt>
      <trkpt lat="45.12886" lon="4.33497">
        <ele>968.18</ele>
        <time>2023-07-08T14:07:46Z</time>
      </trkpt>
      <trkpt lat="45.12914" lon="4.33507">
        <ele>967.22</ele>
        <time>2023-07-08T14:08:05Z</time>
      </trkpt>
      <trkpt lat="45.12941" lon="4.33532">
        <ele>967.22</ele>
        <time>2023-07-08T14:08:23Z</time>
      </trkpt>
      <trkpt lat="45.12971" lon="4.33537">
        <ele>967.7</ele>
        <time>2023-07-08T14:08:42Z</time>
      </trkpt>
      <trkpt lat="45.13001" lon="4.33542">
        <ele>969.63</ele>
        <time>2023-07-08T14:09:00Z</time>
      </trkpt>
      <trkpt lat="45.13022" lon="4.33534">
        <ele>975.39</ele>
        <time>2023-07-08T14:09:16Z</time>
      </trkpt>
      <trkpt lat="45.13026" lon="4.33496">
        <ele>975.88</ele>
        <time>2023-07-08T14:09:33Z</time>
      </trkpt>
      <trkpt lat="45.13031" lon="4.33456">
        <ele>976.36</ele>
        <time>2023-07-08T14:09:51Z</time>
      </trkpt>
      <trkpt lat="45.13037" lon="4.33438">
        <ele>974.43</ele>
        <time>2023-07-08T14:10:00Z</time>
      </trkpt>
      <trkpt lat="45.13038" lon="4.33436">
        <ele>974.43</ele>
        <time>2023-07-08T14:10:01Z</time>
      </trkpt>
      <trkpt lat="45.13045" lon="4.33419">
        <ele>972.03</ele>
        <time>2023-07-08T14:10:13Z</time>
      </trkpt>
      <trkpt lat="45.13048" lon="4.33413">
        <ele>970.11</ele>
        <time>2023-07-08T14:10:17Z</time>
      </trkpt>
      <trkpt lat="45.13049" lon="4.33412">
        <ele>969.63</ele>
        <time>2023-07-08T14:10:18Z</time>
      </trkpt>
      <trkpt lat="45.13051" lon="4.3341">
        <ele>969.15</ele>
        <time>2023-07-08T14:10:19Z</time>
      </trkpt>
      <trkpt lat="45.13051" lon="4.33408">
        <ele>969.15</ele>
        <time>2023-07-08T14:10:20Z</time>
      </trkpt>
      <trkpt lat="45.13052" lon="4.33405">
        <ele>968.67</ele>
        <time>2023-07-08T14:10:21Z</time>
      </trkpt>
      <trkpt lat="45.13055" lon="4.33391">
        <ele>967.22</ele>
        <time>2023-07-08T14:10:27Z</time>
      </trkpt>
      <trkpt lat="45.13066" lon="4.33366">
        <ele>965.78</ele>
        <time>2023-07-08T14:10:40Z</time>
      </trkpt>
      <trkpt lat="45.13073" lon="4.33351">
        <ele>965.3</ele>
        <time>2023-07-08T14:10:49Z</time>
      </trkpt>
      <trkpt lat="45.13077" lon="4.3334">
        <ele>966.74</ele>
        <time>2023-07-08T14:10:54Z</time>
      </trkpt>
      <trkpt lat="45.13078" lon="4.33337">
        <ele>966.74</ele>
        <time>2023-07-08T14:10:55Z</time>
      </trkpt>
      <trkpt lat="45.13085" lon="4.3332">
        <ele>970.59</ele>
        <time>2023-07-08T14:11:03Z</time>
      </trkpt>
      <trkpt lat="45.13086" lon="4.33319">
        <ele>970.59</ele>
        <time>2023-07-08T14:11:04Z</time>
      </trkpt>
      <trkpt lat="45.13088" lon="4.33317">
        <ele>970.59</ele>
        <time>2023-07-08T14:11:05Z</time>
      </trkpt>
      <trkpt lat="45.131" lon="4.33293">
        <ele>972.51</ele>
        <time>2023-07-08T14:11:18Z</time>
      </trkpt>
      <trkpt lat="45.13116" lon="4.33257">
        <ele>974.43</ele>
        <time>2023-07-08T14:11:35Z</time>
      </trkpt>
      <trkpt lat="45.13118" lon="4.33254">
        <ele>974.43</ele>
        <time>2023-07-08T14:11:37Z</time>
      </trkpt>
      <trkpt lat="45.13119" lon="4.33253">
        <ele>974.43</ele>
        <time>2023-07-08T14:11:38Z</time>
      </trkpt>
      <trkpt lat="45.13121" lon="4.33252">
        <ele>973.95</ele>
        <time>2023-07-08T14:11:39Z</time>
      </trkpt>
      <trkpt lat="45.13121" lon="4.3325">
        <ele>973.47</ele>
        <time>2023-07-08T14:11:40Z</time>
      </trkpt>
      <trkpt lat="45.13122" lon="4.33249">
        <ele>973.47</ele>
        <time>2023-07-08T14:11:41Z</time>
      </trkpt>
      <trkpt lat="45.13123" lon="4.33247">
        <ele>972.99</ele>
        <time>2023-07-08T14:11:42Z</time>
      </trkpt>
      <trkpt lat="45.13138" lon="4.33223">
        <ele>969.15</ele>
        <time>2023-07-08T14:11:57Z</time>
      </trkpt>
      <trkpt lat="45.13149" lon="4.33191">
        <ele>966.74</ele>
        <time>2023-07-08T14:12:12Z</time>
      </trkpt>
      <trkpt lat="45.13158" lon="4.33174">
        <ele>964.82</ele>
        <time>2023-07-08T14:12:23Z</time>
      </trkpt>
      <trkpt lat="45.13159" lon="4.33173">
        <ele>964.82</ele>
        <time>2023-07-08T14:12:24Z</time>
      </trkpt>
      <trkpt lat="45.13175" lon="4.33146">
        <ele>965.3</ele>
        <time>2023-07-08T14:12:40Z</time>
      </trkpt>
      <trkpt lat="45.13191" lon="4.33125">
        <ele>967.7</ele>
        <time>2023-07-08T14:12:55Z</time>
      </trkpt>
      <trkpt lat="45.13196" lon="4.33122">
        <ele>967.22</ele>
        <time>2023-07-08T14:12:59Z</time>
      </trkpt>
      <trkpt lat="45.13196" lon="4.33121">
        <ele>967.22</ele>
        <time>2023-07-08T14:13:00Z</time>
      </trkpt>
      <trkpt lat="45.13197" lon="4.33119">
        <ele>967.22</ele>
        <time>2023-07-08T14:13:01Z</time>
      </trkpt>
      <trkpt lat="45.13198" lon="4.33117">
        <ele>966.74</ele>
        <time>2023-07-08T14:13:02Z</time>
      </trkpt>
      <trkpt lat="45.13199" lon="4.33116">
        <ele>966.74</ele>
        <time>2023-07-08T14:13:03Z</time>
      </trkpt>
      <trkpt lat="45.132" lon="4.33114">
        <ele>966.74</ele>
        <time>2023-07-08T14:13:04Z</time>
      </trkpt>
      <trkpt lat="45.13201" lon="4.33113">
        <ele>966.26</ele>
        <time>2023-07-08T14:13:05Z</time>
      </trkpt>
      <trkpt lat="45.13224" lon="4.33091">
        <ele>963.86</ele>
        <time>2023-07-08T14:13:23Z</time>
      </trkpt>
      <trkpt lat="45.13228" lon="4.33086">
        <ele>963.86</ele>
        <time>2023-07-08T14:13:27Z</time>
      </trkpt>
      <trkpt lat="45.13246" lon="4.33067">
        <ele>961.46</ele>
        <time>2023-07-08T14:13:42Z</time>
      </trkpt>
      <trkpt lat="45.13264" lon="4.33043">
        <ele>961.46</ele>
        <time>2023-07-08T14:13:58Z</time>
      </trkpt>
      <trkpt lat="45.13265" lon="4.33042">
        <ele>961.46</ele>
        <time>2023-07-08T14:13:59Z</time>
      </trkpt>
      <trkpt lat="45.13266" lon="4.33041">
        <ele>961.94</ele>
        <time>2023-07-08T14:14:00Z</time>
      </trkpt>
      <trkpt lat="45.13268" lon="4.3304">
        <ele>961.46</ele>
        <time>2023-07-08T14:14:01Z</time>
      </trkpt>
      <trkpt lat="45.13269" lon="4.3304">
        <ele>960.98</ele>
        <time>2023-07-08T14:14:02Z</time>
      </trkpt>
      <trkpt lat="45.1327" lon="4.33039">
        <ele>960.98</ele>
        <time>2023-07-08T14:14:03Z</time>
      </trkpt>
      <trkpt lat="45.13272" lon="4.33039">
        <ele>960.98</ele>
        <time>2023-07-08T14:14:04Z</time>
      </trkpt>
      <trkpt lat="45.13273" lon="4.33037">
        <ele>960.98</ele>
        <time>2023-07-08T14:14:05Z</time>
      </trkpt>
      <trkpt lat="45.13274" lon="4.33036">
        <ele>960.98</ele>
        <time>2023-07-08T14:14:06Z</time>
      </trkpt>
      <trkpt lat="45.13275" lon="4.33035">
        <ele>960.98</ele>
        <time>2023-07-08T14:14:07Z</time>
      </trkpt>
      <trkpt lat="45.13276" lon="4.33034">
        <ele>960.49</ele>
        <time>2023-07-08T14:14:08Z</time>
      </trkpt>
      <trkpt lat="45.13277" lon="4.33033">
        <ele>960.98</ele>
        <time>2023-07-08T14:14:09Z</time>
      </trkpt>
      <trkpt lat="45.13278" lon="4.33031">
        <ele>960.98</ele>
        <time>2023-07-08T14:14:10Z</time>
      </trkpt>
      <trkpt lat="45.1328" lon="4.33029">
        <ele>960.98</ele>
        <time>2023-07-08T14:14:11Z</time>
      </trkpt>
      <trkpt lat="45.13283" lon="4.33023">
        <ele>960.98</ele>
        <time>2023-07-08T14:14:14Z</time>
      </trkpt>
      <trkpt lat="45.13285" lon="4.33019">
        <ele>960.98</ele>
        <time>2023-07-08T14:14:16Z</time>
      </trkpt>
      <trkpt lat="45.13286" lon="4.33018">
        <ele>960.49</ele>
        <time>2023-07-08T14:14:17Z</time>
      </trkpt>
      <trkpt lat="45.13287" lon="4.33017">
        <ele>960.49</ele>
        <time>2023-07-08T14:14:18Z</time>
      </trkpt>
      <trkpt lat="45.13288" lon="4.33015">
        <ele>960.49</ele>
        <time>2023-07-08T14:14:19Z</time>
      </trkpt>
      <trkpt lat="45.13289" lon="4.33014">
        <ele>960.01</ele>
        <time>2023-07-08T14:14:20Z</time>
      </trkpt>
      <trkpt lat="45.13291" lon="4.33013">
        <ele>959.53</ele>
        <time>2023-07-08T14:14:21Z</time>
      </trkpt>
      <trkpt lat="45.13292" lon="4.33011">
        <ele>959.53</ele>
        <time>2023-07-08T14:14:22Z</time>
      </trkpt>
      <trkpt lat="45.13294" lon="4.3301">
        <ele>959.53</ele>
        <time>2023-07-08T14:14:23Z</time>
      </trkpt>
      <trkpt lat="45.13295" lon="4.33009">
        <ele>959.05</ele>
        <time>2023-07-08T14:14:24Z</time>
      </trkpt>
      <trkpt lat="45.13296" lon="4.33007">
        <ele>959.05</ele>
        <time>2023-07-08T14:14:25Z</time>
      </trkpt>
      <trkpt lat="45.13312" lon="4.3299">
        <ele>959.05</ele>
        <time>2023-07-08T14:14:37Z</time>
      </trkpt>
      <trkpt lat="45.13313" lon="4.32988">
        <ele>959.05</ele>
        <time>2023-07-08T14:14:38Z</time>
      </trkpt>
      <trkpt lat="45.13314" lon="4.32987">
        <ele>958.57</ele>
        <time>2023-07-08T14:14:39Z</time>
      </trkpt>
      <trkpt lat="45.13315" lon="4.32985">
        <ele>958.57</ele>
        <time>2023-07-08T14:14:40Z</time>
      </trkpt>
      <trkpt lat="45.13317" lon="4.32983">
        <ele>958.57</ele>
        <time>2023-07-08T14:14:41Z</time>
      </trkpt>
      <trkpt lat="45.13318" lon="4.32982">
        <ele>958.57</ele>
        <time>2023-07-08T14:14:42Z</time>
      </trkpt>
      <trkpt lat="45.13319" lon="4.3298">
        <ele>958.57</ele>
        <time>2023-07-08T14:14:43Z</time>
      </trkpt>
      <trkpt lat="45.1332" lon="4.32978">
        <ele>958.57</ele>
        <time>2023-07-08T14:14:44Z</time>
      </trkpt>
      <trkpt lat="45.13321" lon="4.32976">
        <ele>959.05</ele>
        <time>2023-07-08T14:14:45Z</time>
      </trkpt>
      <trkpt lat="45.13322" lon="4.32974">
        <ele>959.05</ele>
        <time>2023-07-08T14:14:46Z</time>
      </trkpt>
      <trkpt lat="45.13336" lon="4.32954">
        <ele>959.05</ele>
        <time>2023-07-08T14:15:00Z</time>
      </trkpt>
      <trkpt lat="45.13342" lon="4.32945">
        <ele>955.69</ele>
        <time>2023-07-08T14:15:07Z</time>
      </trkpt>
      <trkpt lat="45.13344" lon="4.32943">
        <ele>955.21</ele>
        <time>2023-07-08T14:15:08Z</time>
      </trkpt>
      <trkpt lat="45.13345" lon="4.32941">
        <ele>955.21</ele>
        <time>2023-07-08T14:15:09Z</time>
      </trkpt>
      <trkpt lat="45.13346" lon="4.32938">
        <ele>955.21</ele>
        <time>2023-07-08T14:15:10Z</time>
      </trkpt>
      <trkpt lat="45.13348" lon="4.32937">
        <ele>954.73</ele>
        <time>2023-07-08T14:15:11Z</time>
      </trkpt>
      <trkpt lat="45.13365" lon="4.32905">
        <ele>954.73</ele>
        <time>2023-07-08T14:15:27Z</time>
      </trkpt>
      <trkpt lat="45.1338" lon="4.32871">
        <ele>955.21</ele>
        <time>2023-07-08T14:15:43Z</time>
      </trkpt>
      <trkpt lat="45.13391" lon="4.32845">
        <ele>954.73</ele>
        <time>2023-07-08T14:15:57Z</time>
      </trkpt>
      <trkpt lat="45.13403" lon="4.32823">
        <ele>954.73</ele>
        <time>2023-07-08T14:16:09Z</time>
      </trkpt>
      <trkpt lat="45.13419" lon="4.32793">
        <ele>952.32</ele>
        <time>2023-07-08T14:16:24Z</time>
      </trkpt>
      <trkpt lat="45.13439" lon="4.32774">
        <ele>952.8</ele>
        <time>2023-07-08T14:16:39Z</time>
      </trkpt>
      <trkpt lat="45.13461" lon="4.32752">
        <ele>949.44</ele>
        <time>2023-07-08T14:16:56Z</time>
      </trkpt>
      <trkpt lat="45.13482" lon="4.32729">
        <ele>945.59</ele>
        <time>2023-07-08T14:17:14Z</time>
      </trkpt>
      <trkpt lat="45.13508" lon="4.32718">
        <ele>937.9</ele>
        <time>2023-07-08T14:17:34Z</time>
      </trkpt>
      <trkpt lat="45.13534" lon="4.3269">
        <ele>937.9</ele>
        <time>2023-07-08T14:17:54Z</time>
      </trkpt>
      <trkpt lat="45.13552" lon="4.32668">
        <ele>940.79</ele>
        <time>2023-07-08T14:18:07Z</time>
      </trkpt>
      <trkpt lat="45.13563" lon="4.32661">
        <ele>941.27</ele>
        <time>2023-07-08T14:18:14Z</time>
      </trkpt>
      <trkpt lat="45.13577" lon="4.32644">
        <ele>942.23</ele>
        <time>2023-07-08T14:18:27Z</time>
      </trkpt>
      <trkpt lat="45.13582" lon="4.32636">
        <ele>940.79</ele>
        <time>2023-07-08T14:18:32Z</time>
      </trkpt>
      <trkpt lat="45.13603" lon="4.32602">
        <ele>939.35</ele>
        <time>2023-07-08T14:18:48Z</time>
      </trkpt>
      <trkpt lat="45.13625" lon="4.32579">
        <ele>938.86</ele>
        <time>2023-07-08T14:19:03Z</time>
      </trkpt>
      <trkpt lat="45.13646" lon="4.32562">
        <ele>939.83</ele>
        <time>2023-07-08T14:19:20Z</time>
      </trkpt>
      <trkpt lat="45.13667" lon="4.32537">
        <ele>936.94</ele>
        <time>2023-07-08T14:19:36Z</time>
      </trkpt>
      <trkpt lat="45.13683" lon="4.32507">
        <ele>937.9</ele>
        <time>2023-07-08T14:19:52Z</time>
      </trkpt>
      <trkpt lat="45.13701" lon="4.32487">
        <ele>939.35</ele>
        <time>2023-07-08T14:20:08Z</time>
      </trkpt>
      <trkpt lat="45.13702" lon="4.32482">
        <ele>939.83</ele>
        <time>2023-07-08T14:20:10Z</time>
      </trkpt>
      <trkpt lat="45.13702" lon="4.3248">
        <ele>939.83</ele>
        <time>2023-07-08T14:20:11Z</time>
      </trkpt>
      <trkpt lat="45.13705" lon="4.32468">
        <ele>940.31</ele>
        <time>2023-07-08T14:20:16Z</time>
      </trkpt>
      <trkpt lat="45.13707" lon="4.32467">
        <ele>940.31</ele>
        <time>2023-07-08T14:20:17Z</time>
      </trkpt>
      <trkpt lat="45.13726" lon="4.32443">
        <ele>941.27</ele>
        <time>2023-07-08T14:20:35Z</time>
      </trkpt>
      <trkpt lat="45.13743" lon="4.32418">
        <ele>940.79</ele>
        <time>2023-07-08T14:20:51Z</time>
      </trkpt>
      <trkpt lat="45.13752" lon="4.32387">
        <ele>944.15</ele>
        <time>2023-07-08T14:21:05Z</time>
      </trkpt>
      <trkpt lat="45.13763" lon="4.32371">
        <ele>942.71</ele>
        <time>2023-07-08T14:21:16Z</time>
      </trkpt>
      <trkpt lat="45.13764" lon="4.32369">
        <ele>942.71</ele>
        <time>2023-07-08T14:21:17Z</time>
      </trkpt>
      <trkpt lat="45.13765" lon="4.32368">
        <ele>942.71</ele>
        <time>2023-07-08T14:21:18Z</time>
      </trkpt>
      <trkpt lat="45.13776" lon="4.32348">
        <ele>941.27</ele>
        <time>2023-07-08T14:21:33Z</time>
      </trkpt>
      <trkpt lat="45.13777" lon="4.32345">
        <ele>941.27</ele>
        <time>2023-07-08T14:21:34Z</time>
      </trkpt>
      <trkpt lat="45.13778" lon="4.32343">
        <ele>941.27</ele>
        <time>2023-07-08T14:21:35Z</time>
      </trkpt>
      <trkpt lat="45.13788" lon="4.32312">
        <ele>937.42</ele>
        <time>2023-07-08T14:21:50Z</time>
      </trkpt>
      <trkpt lat="45.138" lon="4.3228">
        <ele>935.5</ele>
        <time>2023-07-08T14:22:05Z</time>
      </trkpt>
      <trkpt lat="45.1382" lon="4.32259">
        <ele>932.62</ele>
        <time>2023-07-08T14:22:21Z</time>
      </trkpt>
      <trkpt lat="45.1384" lon="4.32234">
        <ele>937.9</ele>
        <time>2023-07-08T14:22:38Z</time>
      </trkpt>
      <trkpt lat="45.13858" lon="4.32209">
        <ele>939.35</ele>
        <time>2023-07-08T14:22:52Z</time>
      </trkpt>
      <trkpt lat="45.1387" lon="4.3218">
        <ele>942.71</ele>
        <time>2023-07-08T14:23:09Z</time>
      </trkpt>
      <trkpt lat="45.13887" lon="4.32154">
        <ele>943.19</ele>
        <time>2023-07-08T14:23:25Z</time>
      </trkpt>
      <trkpt lat="45.13903" lon="4.32134">
        <ele>942.71</ele>
        <time>2023-07-08T14:23:39Z</time>
      </trkpt>
      <trkpt lat="45.13909" lon="4.32128">
        <ele>942.71</ele>
        <time>2023-07-08T14:23:43Z</time>
      </trkpt>
      <trkpt lat="45.13937" lon="4.32116">
        <ele>942.23</ele>
        <time>2023-07-08T14:24:01Z</time>
      </trkpt>
      <trkpt lat="45.13962" lon="4.32109">
        <ele>941.27</ele>
        <time>2023-07-08T14:24:17Z</time>
      </trkpt>
      <trkpt lat="45.13991" lon="4.32093">
        <ele>941.75</ele>
        <time>2023-07-08T14:24:36Z</time>
      </trkpt>
      <trkpt lat="45.14013" lon="4.32083">
        <ele>939.83</ele>
        <time>2023-07-08T14:24:50Z</time>
      </trkpt>
      <trkpt lat="45.1404" lon="4.32077">
        <ele>937.42</ele>
        <time>2023-07-08T14:25:04Z</time>
      </trkpt>
      <trkpt lat="45.14065" lon="4.32075">
        <ele>935.02</ele>
        <time>2023-07-08T14:25:20Z</time>
      </trkpt>
      <trkpt lat="45.1408" lon="4.32065">
        <ele>929.73</ele>
        <time>2023-07-08T14:25:40Z</time>
      </trkpt>
      <trkpt lat="45.14099" lon="4.32055">
        <ele>929.25</ele>
        <time>2023-07-08T14:25:56Z</time>
      </trkpt>
      <trkpt lat="45.1412" lon="4.3205">
        <ele>923</ele>
        <time>2023-07-08T14:26:14Z</time>
      </trkpt>
      <trkpt lat="45.1416" lon="4.32045">
        <ele>931.65</ele>
        <time>2023-07-08T14:26:34Z</time>
      </trkpt>
      <trkpt lat="45.14187" lon="4.32035">
        <ele>933.1</ele>
        <time>2023-07-08T14:26:55Z</time>
      </trkpt>
      <trkpt lat="45.14215" lon="4.32023">
        <ele>930.69</ele>
        <time>2023-07-08T14:27:14Z</time>
      </trkpt>
      <trkpt lat="45.14232" lon="4.32016">
        <ele>923.48</ele>
        <time>2023-07-08T14:27:31Z</time>
      </trkpt>
      <trkpt lat="45.14261" lon="4.32">
        <ele>921.08</ele>
        <time>2023-07-08T14:27:47Z</time>
      </trkpt>
      <trkpt lat="45.14262" lon="4.31999">
        <ele>920.6</ele>
        <time>2023-07-08T14:27:48Z</time>
      </trkpt>
      <trkpt lat="45.14283" lon="4.31985">
        <ele>922.52</ele>
        <time>2023-07-08T14:28:00Z</time>
      </trkpt>
      <trkpt lat="45.14286" lon="4.31984">
        <ele>923.48</ele>
        <time>2023-07-08T14:28:01Z</time>
      </trkpt>
      <trkpt lat="45.14289" lon="4.31984">
        <ele>924.93</ele>
        <time>2023-07-08T14:28:02Z</time>
      </trkpt>
      <trkpt lat="45.14311" lon="4.31982">
        <ele>926.85</ele>
        <time>2023-07-08T14:28:17Z</time>
      </trkpt>
      <trkpt lat="45.14327" lon="4.3198">
        <ele>924.93</ele>
        <time>2023-07-08T14:28:32Z</time>
      </trkpt>
      <trkpt lat="45.1435" lon="4.31982">
        <ele>928.77</ele>
        <time>2023-07-08T14:28:45Z</time>
      </trkpt>
      <trkpt lat="45.14362" lon="4.31991">
        <ele>925.41</ele>
        <time>2023-07-08T14:28:56Z</time>
      </trkpt>
      <trkpt lat="45.1438" lon="4.32001">
        <ele>919.64</ele>
        <time>2023-07-08T14:29:09Z</time>
      </trkpt>
      <trkpt lat="45.144" lon="4.32006">
        <ele>913.39</ele>
        <time>2023-07-08T14:29:24Z</time>
      </trkpt>
      <trkpt lat="45.14421" lon="4.32006">
        <ele>913.39</ele>
        <time>2023-07-08T14:29:36Z</time>
      </trkpt>
      <trkpt lat="45.14446" lon="4.31993">
        <ele>912.43</ele>
        <time>2023-07-08T14:29:51Z</time>
      </trkpt>
      <trkpt lat="45.14455" lon="4.31968">
        <ele>902.82</ele>
        <time>2023-07-08T14:30:07Z</time>
      </trkpt>
      <trkpt lat="45.14466" lon="4.31951">
        <ele>893.68</ele>
        <time>2023-07-08T14:30:24Z</time>
      </trkpt>
      <trkpt lat="45.14472" lon="4.3191">
        <ele>896.09</ele>
        <time>2023-07-08T14:30:43Z</time>
      </trkpt>
      <trkpt lat="45.14496" lon="4.31864">
        <ele>903.78</ele>
        <time>2023-07-08T14:31:03Z</time>
      </trkpt>
      <trkpt lat="45.14509" lon="4.31853">
        <ele>902.33</ele>
        <time>2023-07-08T14:31:17Z</time>
      </trkpt>
      <trkpt lat="45.14526" lon="4.31844">
        <ele>899.93</ele>
        <time>2023-07-08T14:31:32Z</time>
      </trkpt>
      <trkpt lat="45.14533" lon="4.31839">
        <ele>905.22</ele>
        <time>2023-07-08T14:32:01Z</time>
      </trkpt>
      <trkpt lat="45.14534" lon="4.31842">
        <ele>903.78</ele>
        <time>2023-07-08T14:32:22Z</time>
      </trkpt>
      <trkpt lat="45.14536" lon="4.31844">
        <ele>906.18</ele>
        <time>2023-07-08T14:32:40Z</time>
      </trkpt>
      <trkpt lat="45.14536" lon="4.31846">
        <ele>907.14</ele>
        <time>2023-07-08T14:32:59Z</time>
      </trkpt>
      <trkpt lat="45.14536" lon="4.31844">
        <ele>907.14</ele>
        <time>2023-07-08T14:33:25Z</time>
      </trkpt>
      <trkpt lat="45.14536" lon="4.31844">
        <ele>907.62</ele>
        <time>2023-07-08T14:33:46Z</time>
      </trkpt>
      <trkpt lat="45.14537" lon="4.31844">
        <ele>906.18</ele>
        <time>2023-07-08T14:34:10Z</time>
      </trkpt>
      <trkpt lat="45.14536" lon="4.31847">
        <ele>905.22</ele>
        <time>2023-07-08T14:34:25Z</time>
      </trkpt>
      <trkpt lat="45.14535" lon="4.31846">
        <ele>904.74</ele>
        <time>2023-07-08T14:34:44Z</time>
      </trkpt>
      <trkpt lat="45.14535" lon="4.31848">
        <ele>904.26</ele>
        <time>2023-07-08T14:35:12Z</time>
      </trkpt>
      <trkpt lat="45.14532" lon="4.31844">
        <ele>904.74</ele>
        <time>2023-07-08T14:35:34Z</time>
      </trkpt>
      <trkpt lat="45.14542" lon="4.3184">
        <ele>904.26</ele>
        <time>2023-07-08T14:35:53Z</time>
      </trkpt>
      <trkpt lat="45.14569" lon="4.31827">
        <ele>902.82</ele>
        <time>2023-07-08T14:36:11Z</time>
      </trkpt>
      <trkpt lat="45.14596" lon="4.3181">
        <ele>901.37</ele>
        <time>2023-07-08T14:36:29Z</time>
      </trkpt>
      <trkpt lat="45.14617" lon="4.31794">
        <ele>898.49</ele>
        <time>2023-07-08T14:36:43Z</time>
      </trkpt>
      <trkpt lat="45.14639" lon="4.3178">
        <ele>894.16</ele>
        <time>2023-07-08T14:36:59Z</time>
      </trkpt>
      <trkpt lat="45.1466" lon="4.31771">
        <ele>893.2</ele>
        <time>2023-07-08T14:37:13Z</time>
      </trkpt>
      <trkpt lat="45.14687" lon="4.31759">
        <ele>893.2</ele>
        <time>2023-07-08T14:37:30Z</time>
      </trkpt>
      <trkpt lat="45.14715" lon="4.31735">
        <ele>893.2</ele>
        <time>2023-07-08T14:37:48Z</time>
      </trkpt>
      <trkpt lat="45.14736" lon="4.31707">
        <ele>893.68</ele>
        <time>2023-07-08T14:38:05Z</time>
      </trkpt>
      <trkpt lat="45.14757" lon="4.31681">
        <ele>894.16</ele>
        <time>2023-07-08T14:38:21Z</time>
      </trkpt>
      <trkpt lat="45.1477" lon="4.31667">
        <ele>893.2</ele>
        <time>2023-07-08T14:38:33Z</time>
      </trkpt>
      <trkpt lat="45.14783" lon="4.31641">
        <ele>889.84</ele>
        <time>2023-07-08T14:38:50Z</time>
      </trkpt>
      <trkpt lat="45.14807" lon="4.31626">
        <ele>888.4</ele>
        <time>2023-07-08T14:39:07Z</time>
      </trkpt>
      <trkpt lat="45.14815" lon="4.31635">
        <ele>888.4</ele>
        <time>2023-07-08T14:39:14Z</time>
      </trkpt>
      <trkpt lat="45.14836" lon="4.31649">
        <ele>895.61</ele>
        <time>2023-07-08T14:39:33Z</time>
      </trkpt>
      <trkpt lat="45.14836" lon="4.31651">
        <ele>896.09</ele>
        <time>2023-07-08T14:39:49Z</time>
      </trkpt>
      <trkpt lat="45.14838" lon="4.31646">
        <ele>895.12</ele>
        <time>2023-07-08T14:40:09Z</time>
      </trkpt>
      <trkpt lat="45.14841" lon="4.31649">
        <ele>893.2</ele>
        <time>2023-07-08T14:40:24Z</time>
      </trkpt>
      <trkpt lat="45.14844" lon="4.31653">
        <ele>891.76</ele>
        <time>2023-07-08T14:40:42Z</time>
      </trkpt>
      <trkpt lat="45.1484" lon="4.31654">
        <ele>890.32</ele>
        <time>2023-07-08T14:40:59Z</time>
      </trkpt>
      <trkpt lat="45.14843" lon="4.31658">
        <ele>890.32</ele>
        <time>2023-07-08T14:41:03Z</time>
      </trkpt>
      <trkpt lat="45.14871" lon="4.31671">
        <ele>891.76</ele>
        <time>2023-07-08T14:41:22Z</time>
      </trkpt>
      <trkpt lat="45.14894" lon="4.31672">
        <ele>894.16</ele>
        <time>2023-07-08T14:41:35Z</time>
      </trkpt>
      <trkpt lat="45.1492" lon="4.31695">
        <ele>896.09</ele>
        <time>2023-07-08T14:41:54Z</time>
      </trkpt>
      <trkpt lat="45.14944" lon="4.31715">
        <ele>897.05</ele>
        <time>2023-07-08T14:42:10Z</time>
      </trkpt>
      <trkpt lat="45.14954" lon="4.31723">
        <ele>897.05</ele>
        <time>2023-07-08T14:42:19Z</time>
      </trkpt>
      <trkpt lat="45.14955" lon="4.31721">
        <ele>897.05</ele>
        <time>2023-07-08T14:42:20Z</time>
      </trkpt>
      <trkpt lat="45.14956" lon="4.31719">
        <ele>897.05</ele>
        <time>2023-07-08T14:42:21Z</time>
      </trkpt>
      <trkpt lat="45.14957" lon="4.31716">
        <ele>897.53</ele>
        <time>2023-07-08T14:42:22Z</time>
      </trkpt>
      <trkpt lat="45.14958" lon="4.31713">
        <ele>897.53</ele>
        <time>2023-07-08T14:42:23Z</time>
      </trkpt>
      <trkpt lat="45.14958" lon="4.3171">
        <ele>897.53</ele>
        <time>2023-07-08T14:42:24Z</time>
      </trkpt>
      <trkpt lat="45.14958" lon="4.31708">
        <ele>898.01</ele>
        <time>2023-07-08T14:42:25Z</time>
      </trkpt>
      <trkpt lat="45.14958" lon="4.31706">
        <ele>898.01</ele>
        <time>2023-07-08T14:42:26Z</time>
      </trkpt>
      <trkpt lat="45.14965" lon="4.31679">
        <ele>898.49</ele>
        <time>2023-07-08T14:42:40Z</time>
      </trkpt>
      <trkpt lat="45.14982" lon="4.31644">
        <ele>898.01</ele>
        <time>2023-07-08T14:42:57Z</time>
      </trkpt>
      <trkpt lat="45.15" lon="4.3161">
        <ele>898.49</ele>
        <time>2023-07-08T14:43:14Z</time>
      </trkpt>
      <trkpt lat="45.15014" lon="4.31584">
        <ele>899.93</ele>
        <time>2023-07-08T14:43:30Z</time>
      </trkpt>
      <trkpt lat="45.15032" lon="4.31561">
        <ele>900.89</ele>
        <time>2023-07-08T14:43:46Z</time>
      </trkpt>
      <trkpt lat="45.15053" lon="4.31549">
        <ele>898.97</ele>
        <time>2023-07-08T14:44:02Z</time>
      </trkpt>
      <trkpt lat="45.15089" lon="4.31561">
        <ele>898.49</ele>
        <time>2023-07-08T14:44:23Z</time>
      </trkpt>
      <trkpt lat="45.15114" lon="4.31556">
        <ele>899.93</ele>
        <time>2023-07-08T14:44:39Z</time>
      </trkpt>
      <trkpt lat="45.15133" lon="4.31545">
        <ele>901.37</ele>
        <time>2023-07-08T14:44:56Z</time>
      </trkpt>
      <trkpt lat="45.15147" lon="4.3153">
        <ele>903.3</ele>
        <time>2023-07-08T14:45:10Z</time>
      </trkpt>
      <trkpt lat="45.15169" lon="4.31513">
        <ele>902.33</ele>
        <time>2023-07-08T14:45:28Z</time>
      </trkpt>
      <trkpt lat="45.15192" lon="4.315">
        <ele>901.37</ele>
        <time>2023-07-08T14:45:46Z</time>
      </trkpt>
      <trkpt lat="45.15206" lon="4.31499">
        <ele>899.45</ele>
        <time>2023-07-08T14:45:59Z</time>
      </trkpt>
      <trkpt lat="45.1521" lon="4.315">
        <ele>899.93</ele>
        <time>2023-07-08T14:46:11Z</time>
      </trkpt>
      <trkpt lat="45.15212" lon="4.31504">
        <ele>898.01</ele>
        <time>2023-07-08T14:46:24Z</time>
      </trkpt>
      <trkpt lat="45.15211" lon="4.31506">
        <ele>898.01</ele>
        <time>2023-07-08T14:46:25Z</time>
      </trkpt>
      <trkpt lat="45.1521" lon="4.31511">
        <ele>898.01</ele>
        <time>2023-07-08T14:46:28Z</time>
      </trkpt>
      <trkpt lat="45.1519" lon="4.31539">
        <ele>900.41</ele>
        <time>2023-07-08T14:46:47Z</time>
      </trkpt>
      <trkpt lat="45.15169" lon="4.31574">
        <ele>903.3</ele>
        <time>2023-07-08T14:47:09Z</time>
      </trkpt>
      <trkpt lat="45.15146" lon="4.31593">
        <ele>904.26</ele>
        <time>2023-07-08T14:47:28Z</time>
      </trkpt>
      <trkpt lat="45.1513" lon="4.31618">
        <ele>903.3</ele>
        <time>2023-07-08T14:47:45Z</time>
      </trkpt>
      <trkpt lat="45.1513" lon="4.31662">
        <ele>903.3</ele>
        <time>2023-07-08T14:48:05Z</time>
      </trkpt>
      <trkpt lat="45.15141" lon="4.31675">
        <ele>904.26</ele>
        <time>2023-07-08T14:48:20Z</time>
      </trkpt>
      <trkpt lat="45.15151" lon="4.31674">
        <ele>902.82</ele>
        <time>2023-07-08T14:48:36Z</time>
      </trkpt>
      <trkpt lat="45.15157" lon="4.31694">
        <ele>903.78</ele>
        <time>2023-07-08T14:48:41Z</time>
      </trkpt>
      <trkpt lat="45.15158" lon="4.31717">
        <ele>905.22</ele>
        <time>2023-07-08T14:48:58Z</time>
      </trkpt>
      <trkpt lat="45.15158" lon="4.31717">
        <ele>905.22</ele>
        <time>2023-07-08T14:49:26Z</time>
      </trkpt>
      <trkpt lat="45.15158" lon="4.31716">
        <ele>903.3</ele>
        <time>2023-07-08T14:49:50Z</time>
      </trkpt>
      <trkpt lat="45.15157" lon="4.31718">
        <ele>901.85</ele>
        <time>2023-07-08T14:50:11Z</time>
      </trkpt>
      <trkpt lat="45.15156" lon="4.31728">
        <ele>901.37</ele>
        <time>2023-07-08T14:50:24Z</time>
      </trkpt>
      <trkpt lat="45.15155" lon="4.31733">
        <ele>902.82</ele>
        <time>2023-07-08T14:50:39Z</time>
      </trkpt>
      <trkpt lat="45.15156" lon="4.31733">
        <ele>902.33</ele>
        <time>2023-07-08T14:50:58Z</time>
      </trkpt>
      <trkpt lat="45.15157" lon="4.31733">
        <ele>903.3</ele>
        <time>2023-07-08T14:51:14Z</time>
      </trkpt>
      <trkpt lat="45.15157" lon="4.31734">
        <ele>902.82</ele>
        <time>2023-07-08T14:51:34Z</time>
      </trkpt>
      <trkpt lat="45.15154" lon="4.31727">
        <ele>903.3</ele>
        <time>2023-07-08T14:51:48Z</time>
      </trkpt>
      <trkpt lat="45.15151" lon="4.31732">
        <ele>903.78</ele>
        <time>2023-07-08T14:52:05Z</time>
      </trkpt>
      <trkpt lat="45.15151" lon="4.31732">
        <ele>903.78</ele>
        <time>2023-07-08T14:52:19Z</time>
      </trkpt>
      <trkpt lat="45.15149" lon="4.31729">
        <ele>901.37</ele>
        <time>2023-07-08T14:52:44Z</time>
      </trkpt>
      <trkpt lat="45.15152" lon="4.31728">
        <ele>902.82</ele>
        <time>2023-07-08T14:52:57Z</time>
        <extensions>
          <visugpx:TrkExtension xmlns:visugpx="https://www.visugpx.com/editgpx/">
            <visugpx:node>1</visugpx:node>
            </visugpx:TrkExtension>
        </extensions>
      </trkpt>
    </trkseg>
  </trk>
</gpx>